Provisional Data: Lackawanna River near Forest City, PA


Please select a monitoring station.
Please select start date.
Please select start date.

Toggle Unit: C/F Toggle Unit: C/F
Sample Time Temperature (C) Temperature (F) Specific Conductivity (mS/cm) pH   Turbidity (NTU+) DO (mg/L)
8/9/2021 12:00:00 AM 22.55 72.59 0.224 6.64 72.7 0.04
8/9/2021 12:15:00 AM 22.55 72.59 0.225 6.64 239.27 0.04
8/9/2021 12:30:00 AM 22.55 72.59 0.225 6.65 211.27 0.04
8/9/2021 12:45:00 AM 22.57 72.626 0.226 6.64 195.91 0.04
8/9/2021 1:00:00 AM 22.57 72.626 0.226 6.63 213.87 0.04
8/9/2021 1:15:00 AM 22.6 72.68 0.192 6.58 65.41 0.04
8/9/2021 1:30:00 AM 22.57 72.626 0.196 6.64 67.73 0.04
8/9/2021 1:45:00 AM 22.59 72.662 0.198 6.67 76.86 0.04
8/9/2021 2:00:00 AM 22.65 72.77 0.187 6.65 65.03 0.04
8/9/2021 2:15:00 AM 22.66 72.788 0.187 6.68 64.77 0.04
8/9/2021 2:30:00 AM 22.7 72.86 0.188 6.62 111.14 0.04
8/9/2021 2:45:00 AM 22.74 72.932 0.176 6.63 74.3 0.04
8/9/2021 3:00:00 AM 22.73 72.914 0.176 6.71 122.65 0.04
8/9/2021 3:15:00 AM 22.77 72.986 0.177 6.67 103.77 0.04
8/9/2021 3:30:00 AM 22.77 72.986 0.18 6.68 178.14 0.04
8/9/2021 3:45:00 AM 22.86 73.148 0.161 6.56 90.43 0.04
8/9/2021 4:00:00 AM 22.87 73.166 0.161 6.71 86.71 0.05
8/9/2021 4:15:00 AM 22.83 73.094 0.162 6.76 79.47 0.04
8/9/2021 4:30:00 AM 22.86 73.148 0.162 10 67.39 0.04
8/9/2021 4:45:00 AM 22.89 73.202 0.165 9.95 126.5 0.04
8/9/2021 5:00:00 AM 22.9 73.22 0.168 9.96 415.1 0.04
8/9/2021 5:15:00 AM 22.93 73.274 0.155 9.86 348.17 0.15
8/9/2021 5:30:00 AM 22.91 73.238 0.159 9.73 98.4 0.07
8/9/2021 5:45:00 AM 22.86 73.148 0.161 9.58 210.68 0.04
8/9/2021 6:00:00 AM 22.83 73.094 0.162 9.43 312.57 0.04
8/9/2021 6:15:00 AM 22.79 73.022 0.163 9.33 378.3 0.04
8/9/2021 6:30:00 AM 22.75 72.95 0.164 9.16 490.63 0.04
8/9/2021 6:45:00 AM 22.7 72.86 0.165 9.05 592.32 0.04
8/9/2021 7:00:00 AM 22.64 72.752 0.166 8.78 738.17 0.04
8/9/2021 7:15:00 AM 22.59 72.662 0.168 8.73 1595.88 0.04
8/9/2021 7:30:00 AM 22.54 72.57201 0.169 8.71 1874.68 0.04
8/9/2021 7:45:00 AM 22.48 72.464 0.167 8.64 165.15 0.05
8/9/2021 8:00:00 AM 22.43 72.374 0.168 8.63 363.35 0.04
8/9/2021 8:15:00 AM 22.39 72.302 0.168 8.69 529.41 0.04
8/9/2021 8:30:00 AM 22.34 72.212 0.169 8.6 152.94 0.04
8/9/2021 8:45:00 AM 22.3 72.14 0.168 8.6 78.93 0.04
8/9/2021 9:00:00 AM 22.27 72.086 0.167 8.54 75.24 0.04
8/9/2021 9:15:00 AM 22.23 72.014 0.164 8.5 74.31 0.04
8/9/2021 9:30:00 AM 22.2 71.96 0.162 8.46 84.95 0.04
8/9/2021 9:45:00 AM 22.17 71.906 0.163 8.47 99.39 0.04
8/9/2021 10:00:00 AM 22.13 71.834 0.163 8.51 121.25 0.04
8/9/2021 10:15:00 AM 22.11 71.798 0.164 8.48 159.87 0.04
8/9/2021 10:30:00 AM 22.09 71.762 0.165 8.5 153.82 0.04
8/9/2021 10:45:00 AM 22.08 71.744 0.166 8.47 269.49 0.04
8/9/2021 11:00:00 AM 22.07 71.726 0.166 8.57 369.19 0.04
8/9/2021 11:15:00 AM 22.07 71.726 0.167 8.61 263.01 0.04
8/9/2021 11:30:00 AM 22.08 71.744 0.157 8.64 84.02 0.04
8/9/2021 11:45:00 AM 22.09 71.762 0.158 8.71 85 0.04
8/9/2021 12:00:00 PM 22.11 71.798 0.158 8.78 137.17 0.04
8/9/2021 12:15:00 PM 22.14 71.852 0.16 8.81 659.62 0.04
8/9/2021 12:30:00 PM 22.17 71.906 0.16 8.86 485.66 0.04
8/9/2021 12:45:00 PM 22.2 71.96 0.162 8.89 383.88 0.04
8/9/2021 1:00:00 PM 22.24 72.032 0.164 9.05 342.18 0.04
8/9/2021 1:15:00 PM 22.3 72.14 0.166 9.3 111.73 0.05
8/9/2021 1:30:00 PM 22.32 72.176 0.165 9.34 95.34 0.04
8/9/2021 1:45:00 PM 22.36 72.248 0.165 9.34 581.39 0.04
8/9/2021 2:00:00 PM 22.42 72.356 0.158 9.35 103.16 0.05
8/9/2021 2:15:00 PM 22.44 72.392 0.16 9.44 92.96 0.04
8/9/2021 2:30:00 PM 22.49 72.482 0.161 9.46 188.78 0.04
8/9/2021 2:45:00 PM 22.52 72.536 0.161 9.46 276.16 0.04
8/9/2021 3:00:00 PM 22.55 72.59 0.162 9.48 171.88 0.04
8/9/2021 3:15:00 PM 22.57 72.626 0.163 9.5 174.28 0.04
8/9/2021 3:30:00 PM 22.6 72.68 0.164 9.54 174.52 0.04
8/9/2021 3:45:00 PM 22.61 72.698 0.165 9.55 206.8 0.04
8/9/2021 4:00:00 PM 22.62 72.716 0.166 9.57 215.83 0.04
8/9/2021 4:15:00 PM 22.64 72.752 0.168 9.61 180.13 0.04
8/9/2021 4:30:00 PM 22.67 72.806 0.156 9.68 107.35 0.04
8/9/2021 4:45:00 PM 22.67 72.806 0.157 10 86.52 0.06
8/9/2021 5:00:00 PM 22.67 72.806 0.16 10.23 83.66 0.04
8/9/2021 5:15:00 PM 22.68 72.824 0.161 10.18 76.06 0.04
8/9/2021 5:30:00 PM 22.69 72.842 0.161 10.03 59.25 0.04
8/9/2021 5:45:00 PM 22.69 72.842 0.162 9.9 80.61 0.04
8/9/2021 6:00:00 PM 22.69 72.842 0.162 9.79 131.67 0.04
8/9/2021 6:15:00 PM 22.7 72.86 0.163 9.74 157.65 0.04
8/9/2021 6:30:00 PM 22.71 72.878 0.164 9.76 115.08 0.04
8/9/2021 6:45:00 PM 22.72 72.896 0.164 9.68 132.36 0.04
8/9/2021 7:00:00 PM 22.72 72.896 0.164 9.53 112.29 0.04
8/9/2021 7:15:00 PM 22.72 72.896 0.165 9.08 533.02 0.04
8/9/2021 7:30:00 PM 22.73 72.914 0.166 9.19 668.23 0.04
8/9/2021 7:45:00 PM 22.75 72.95 0.167 8.8 747.37 0.04
8/9/2021 8:00:00 PM 22.76 72.968 0.168 8.62 936.82 0.04
8/9/2021 8:15:00 PM 22.76 72.968 0.168 7.37 1216.26 0.04
8/9/2021 8:30:00 PM 22.78 73.004 0.169 7.35 1547.12 0.04
8/9/2021 8:45:00 PM 22.81 73.058 0.168 8.33 1645.12 0.04
8/9/2021 9:00:00 PM 22.82 73.076 0.168 8.94 3251.62 0.04
8/9/2021 9:15:00 PM 22.82 73.076 0.168 8.85 4723.64 0.04
8/9/2021 9:30:00 PM 22.88 73.184 0.15 8.85 120.71 0.08
8/9/2021 9:45:00 PM 22.89 73.202 0.156 8.89 86.52 0.05
8/9/2021 10:00:00 PM 22.89 73.202 0.157 8.82 130.71 0.04
8/9/2021 10:15:00 PM 22.89 73.202 0.158 8.78 82.7 0.04
8/9/2021 10:30:00 PM 22.89 73.202 0.158 8.76 512.25 0.04
8/9/2021 10:45:00 PM 22.88 73.184 0.16 8.72 857.76 0.04
8/9/2021 11:00:00 PM 22.89 73.202 0.16 8.7 1134.9 0.04
8/9/2021 11:15:00 PM 22.9 73.22 0.16 8.68 1677.16 0.04
8/9/2021 11:30:00 PM 22.91 73.238 0.16 8.68 2478.97 0.04
8/9/2021 11:45:00 PM 22.9 73.22 0.161 8.63 2900.24 0.04
8/10/2021 12:00:00 AM 22.9 73.22 0.161 8.61 2815.43 0.04
8/10/2021 12:15:00 AM 22.93 73.274 0.162 8.62 3246.54 0.04
8/10/2021 12:30:00 AM 22.92 73.256 0.162 8.56 3173.88 0.04
8/10/2021 12:45:00 AM 22.92 73.256 0.162 8.53 3026.36 0.04
8/10/2021 1:00:00 AM 22.91 73.238 0.163 7.5 3106.09 0.04
8/10/2021 1:15:00 AM 22.91 73.238 0.164 6.95 2986.02 0.04
8/10/2021 1:30:00 AM 22.91 73.238 0.164 6.81 3507.35 0.04
8/10/2021 1:45:00 AM 22.91 73.238 0.165 6.79 2912.11 0.04
8/10/2021 2:00:00 AM 22.9 73.22 0.166 7.86 2690.08 0.04
8/10/2021 2:15:00 AM 22.89 73.202 0.168 8.35 2282.81 0.04
8/10/2021 2:30:00 AM 22.87 73.166 0.168 7.9 2050.25 0.04
8/10/2021 2:45:00 AM 22.86 73.148 0.168 7.68 2012.71 0.04
8/10/2021 3:00:00 AM 22.85 73.13 0.17 7.8 1945.41 0.04
8/10/2021 3:15:00 AM 22.84 73.112 0.171 7.74 1881.23 0.04
8/10/2021 3:30:00 AM 22.84 73.112 0.169 7.63 1746.77 0.04
8/10/2021 3:45:00 AM 22.84 73.112 0.17 7.27 1579.55 0.04
8/10/2021 4:00:00 AM 22.84 73.112 0.171 7.13 1389.64 0.04
8/10/2021 4:15:00 AM 22.84 73.112 0.172 7.16 1440.16 0.04
8/10/2021 4:30:00 AM 22.9 73.22 0.172 7.35 1586.11 0.04
8/10/2021 4:45:00 AM 23 73.4 0.173 7.3 1679.63 0.04
8/10/2021 5:00:00 AM 23.05 73.49 0.173 7.23 1668.28 0.04
8/10/2021 5:15:00 AM 23.04 73.472 0.174 7.66 1772.27 0.04
8/10/2021 5:30:00 AM 23.08 73.544 0.175 6.98 1735.36 0.04
8/10/2021 5:45:00 AM 23.09 73.562 0.176 6.86 1652.26 0.04
8/10/2021 6:00:00 AM 23.11 73.598 0.176 7.23 1541.15 0.04
8/10/2021 6:15:00 AM 23.15 73.67 0.177 7.22 1624.73 0.04
8/10/2021 6:30:00 AM 23.17 73.706 0.178 6.98 1558.79 0.04
8/10/2021 6:45:00 AM 23.17 73.706 0.179 6.93 1402.02 0.04
8/10/2021 7:00:00 AM 23.22 73.796 0.144 7.27 114.38 0.06
8/10/2021 7:15:00 AM 23.18 73.724 0.149 6.96 120.84 0.05
8/10/2021 7:30:00 AM 23.16 73.688 0.147 6.95 80.72 0.04
8/10/2021 7:45:00 AM 23.15 73.67 0.148 6.95 204.39 0.04
8/10/2021 8:00:00 AM 23.14 73.652 0.149 7.03 269.6 0.04
8/10/2021 8:15:00 AM 23.14 73.652 0.149 6.96 246.38 0.04
8/10/2021 8:30:00 AM 23.14 73.652 0.151 7.97 414.87 0.04
8/10/2021 8:45:00 AM 23.12 73.616 0.152 6.89 408.65 0.04
8/10/2021 9:00:00 AM 23.1 73.58 0.153 7.68 451.9 0.04
8/10/2021 9:15:00 AM 23.09 73.562 0.154 7.61 684.94 0.04
8/10/2021 9:30:00 AM 23.08 73.544 0.154 6.74 362.5 0.04
8/10/2021 9:45:00 AM 23.06 73.508 0.156 6.77 2696.51 0.04
8/10/2021 10:00:00 AM 23.05 73.49 0.157 6.89 125.5 0.04
8/10/2021 10:15:00 AM 23.04 73.472 0.159 6.75 173.08 0.04
8/10/2021 10:30:00 AM 23.04 73.472 0.149 6.69 121.7 0.05
8/10/2021 10:45:00 AM 23.02 73.436 0.151 7.9 110.57 0.05
8/10/2021 11:00:00 AM 23 73.4 0.15 7.72 129.5 0.04
8/10/2021 11:15:00 AM 22.99 73.382 0.151 7.87 149.09 0.04
8/10/2021 11:30:00 AM 22.97 73.346 0.151 8.03 129.93 0.04
8/10/2021 11:45:00 AM 22.97 73.346 0.152 6.89 117.41 0.04
8/10/2021 12:00:00 PM 22.96 73.328 0.152 7.94 131.52 0.04
8/10/2021 12:15:00 PM 22.96 73.328 0.154 7.56 135.52 0.04
8/10/2021 12:30:00 PM 22.95 73.31 0.155 6.86 289.89 0.04
8/10/2021 12:45:00 PM 22.96 73.328 0.157 6.8 254.74 0.04
8/10/2021 1:00:00 PM 22.97 73.346 0.157 6.77 423.99 0.04
8/10/2021 1:15:00 PM 22.97 73.346 0.157 7.71 252.36 0.04
8/10/2021 1:30:00 PM 22.99 73.382 0.158 7.85 183.8 0.04
8/10/2021 1:45:00 PM 23.01 73.418 0.158 7.76 183.72 0.04
8/10/2021 2:00:00 PM 23.03 73.454 0.159 7.42 168.73 0.04
8/10/2021 2:15:00 PM 23.05 73.49 0.159 7.42 138.95 0.04
8/10/2021 2:30:00 PM 23.06 73.508 0.16 7.61 134.14 0.04
8/10/2021 2:45:00 PM 23.09 73.562 0.16 7.43 198.08 0.04
8/10/2021 3:00:00 PM 23.12 73.616 0.162 7.71 565.06 0.04
8/10/2021 3:15:00 PM 23.16 73.688 0.149 7.52 2029.29 0.06
8/10/2021 3:30:00 PM 23.18 73.724 0.151 7.52 84.87 0.04
8/10/2021 3:45:00 PM 23.2 73.76 0.145 7.59 126.19 0.05
8/10/2021 4:00:00 PM 23.2 73.76 0.148 7.54 102.48 0.05
8/10/2021 4:15:00 PM 23.19 73.742 0.147 7.47 126.77 0.04
8/10/2021 4:30:00 PM 23.2 73.76 0.147 7.47 177.61 0.04
8/10/2021 4:45:00 PM 23.21 73.778 0.148 7.03 137.97 0.04
8/10/2021 5:00:00 PM 23.23 73.814 0.148 7 96.86 0.04
8/10/2021 5:15:00 PM 23.23 73.814 0.149 8.14 127.62 0.04
8/10/2021 5:30:00 PM 23.24 73.832 0.149 8.06 469.01 0.04
8/10/2021 5:45:00 PM 23.24 73.832 0.148 7.74 299.77 0.04
8/10/2021 6:00:00 PM 23.24 73.832 0.147 7.92 1678.82 0.04
8/10/2021 6:15:00 PM 23.25 73.85 0.146 7.87 3178.06 0.04
8/10/2021 6:30:00 PM 23.25 73.85 0.147 7.41 3759.43 0.04
8/10/2021 6:45:00 PM 23.27 73.886 0.144 8.01 185.67 0.05
8/10/2021 7:00:00 PM 23.24 73.832 0.144 7.96 262.73 0.04
8/10/2021 7:15:00 PM 23.26 73.868 0.142 7.14 122.81 0.05
8/10/2021 7:30:00 PM 23.26 73.868 0.143 7.81 104.05 0.05
8/10/2021 7:45:00 PM 23.25 73.85 0.141 8.04 99.2 0.04
8/10/2021 8:00:00 PM 23.26 73.868 0.141 7.9 88.77 0.04
8/10/2021 8:15:00 PM 23.27 73.886 0.141 7.83 193.34 0.04
8/10/2021 8:30:00 PM 23.27 73.886 0.141 7.35 436.75 0.04
8/10/2021 8:45:00 PM 23.27 73.886 0.14 7.99 338.35 0.04
8/10/2021 9:00:00 PM 23.27 73.886 0.139 8.02 508.9 0.04
8/10/2021 9:15:00 PM 23.28 73.904 0.14 8.05 645.92 0.04
8/10/2021 9:30:00 PM 23.27 73.886 0.14 7.98 520.64 0.04
8/10/2021 9:45:00 PM 23.28 73.904 0.141 8 435.25 0.04
8/10/2021 10:00:00 PM 23.32 73.976 0.143 8.04 363.42 0.04
8/10/2021 10:15:00 PM 23.36 74.048 0.145 7.9 429.44 0.04
8/10/2021 10:30:00 PM 23.37 74.066 0.14 7.85 136.71 0.08
8/10/2021 10:45:00 PM 23.34 74.012 0.141 8.03 221.86 0.04
8/10/2021 11:00:00 PM 23.36 74.048 0.141 7.98 94.25 0.05
8/10/2021 11:15:00 PM 23.39 74.102 0.137 7.95 114.47 0.06
8/10/2021 11:30:00 PM 23.37 74.066 0.139 8.14 111.2 0.04
8/10/2021 11:45:00 PM 23.38 74.084 0.137 7.99 273.02 0.06
8/11/2021 12:00:00 AM 23.38 74.084 0.138 8.18 268.36 0.04
8/11/2021 12:15:00 AM 23.4 74.12 0.135 8.06 113.23 0.12
8/11/2021 12:30:00 AM 23.38 74.084 0.134 8.17 116.12 0.05
8/11/2021 12:45:00 AM 23.37 74.066 0.134 7.95 114.55 0.04
8/11/2021 1:00:00 AM 23.36 74.048 0.135 7.94 125.4 0.04
8/11/2021 1:15:00 AM 23.37 74.066 0.135 7.83 143.48 0.04
8/11/2021 1:30:00 AM 23.36 74.048 0.136 7.95 122.36 0.04
8/11/2021 1:45:00 AM 23.35 74.03 0.136 7.77 86.13 0.04
8/11/2021 2:00:00 AM 23.35 74.03 0.137 7.94 87.1 0.04
8/11/2021 2:15:00 AM 23.36 74.048 0.138 8.03 95.18 0.04
8/11/2021 2:30:00 AM 23.35 74.03 0.139 8.06 92.47 0.04
8/11/2021 2:45:00 AM 23.35 74.03 0.138 8.04 79.49 0.05
8/11/2021 3:00:00 AM 23.37 74.066 0.138 8.16 79.4 0.04
8/11/2021 3:15:00 AM 23.38 74.084 0.132 8.08 93.17 0.09
8/11/2021 3:30:00 AM 23.39 74.102 0.134 8.26 101.04 0.04
8/11/2021 3:45:00 AM 23.41 74.138 0.131 8.1 122.77 0.05
8/11/2021 4:00:00 AM 23.47 74.246 0.135 8.29 93.43 0.08
8/11/2021 4:15:00 AM 23.48 74.264 0.135 8.31 86.96 0.05
8/11/2021 4:30:00 AM 23.51 74.318 0.136 8.22 83.12 0.05
8/11/2021 4:45:00 AM 23.55 74.39 0.136 8.18 83.72 0.05
8/11/2021 5:00:00 AM 23.55 74.39 0.137 8.2 84.24 0.05
8/11/2021 5:15:00 AM 23.56 74.408 0.138 8.24 80.62 0.05
8/11/2021 5:30:00 AM 23.55 74.39 0.138 8.12 77.11 0.05
8/11/2021 5:45:00 AM 23.55 74.39 0.139 8.28 76.16 0.05
8/11/2021 6:00:00 AM 23.55 74.39 0.14 7.8 79.69 0.05
8/11/2021 6:15:00 AM 23.56 74.408 0.14 7.21 74.76 0.05
8/11/2021 6:30:00 AM 23.55 74.39 0.14 7.35 79.5 0.05
8/11/2021 6:45:00 AM 23.54 74.372 0.141 7.18 76.82 0.05
8/11/2021 7:00:00 AM 23.53 74.354 0.141 7.21 77.74 0.05
8/11/2021 7:15:00 AM 23.51 74.318 0.142 8.29 82.4 0.05
8/11/2021 7:30:00 AM 23.5 74.3 0.142 7.62 81.38 0.05
8/11/2021 7:45:00 AM 23.49 74.282 0.142 7.71 84.98 0.05
8/11/2021 8:00:00 AM 23.47 74.246 0.143 7.77 91.17 0.04
8/11/2021 8:15:00 AM 23.46 74.228 0.144 7.79 94.96 0.05
8/11/2021 8:30:00 AM 23.44 74.192 0.144 7.88 102.54 0.05
8/11/2021 8:45:00 AM 23.42 74.156 0.145 7.85 106.77 0.05
8/11/2021 9:00:00 AM 23.4 74.12 0.146 7.97 104.12 0.05
8/11/2021 9:15:00 AM 23.38 74.084 0.147 8.05 100.7 0.04
8/11/2021 9:30:00 AM 23.36 74.048 0.147 7.93 90.09 0.04
8/11/2021 9:45:00 AM 23.34 74.012 0.148 8 99.06 0.05
8/11/2021 10:00:00 AM 23.32 73.976 0.149 8.05 97.3 0.04
8/11/2021 10:15:00 AM 23.3 73.94 0.15 7.99 107.05 0.04
8/11/2021 10:30:00 AM 23.29 73.922 0.151 8.09 103.48 0.04
8/11/2021 10:45:00 AM 23.27 73.886 0.152 7.99 101.38 0.04
8/11/2021 11:00:00 AM 23.26 73.868 0.153 7.8 118.28 0.04
8/11/2021 11:15:00 AM 23.25 73.85 0.154 7.93 138.41 0.04
8/11/2021 11:30:00 AM 23.24 73.832 0.155 8 134.78 0.04
8/11/2021 11:45:00 AM 23.23 73.814 0.156 8.04 140.23 0.04
8/11/2021 12:00:00 PM 23.23 73.814 0.157 8.09 126.25 0.04
8/11/2021 12:15:00 PM 23.23 73.814 0.157 8.01 126.39 0.04
8/11/2021 12:30:00 PM 23.23 73.814 0.158 8.15 129.08 0.04
8/11/2021 12:45:00 PM 23.22 73.796 0.158 8.26 133.91 0.04
8/11/2021 1:00:00 PM 23.22 73.796 0.159 8.19 140.39 0.04
8/11/2021 1:15:00 PM 23.22 73.796 0.159 8.15 143.23 0.04
8/11/2021 1:30:00 PM 23.23 73.814 0.16 8.38 140.82 0.04
8/11/2021 1:45:00 PM 23.25 73.85 0.16 8.77 143 0.04
8/11/2021 2:00:00 PM 23.26 73.868 0.16 8.89 150.11 0.04
8/11/2021 2:15:00 PM 23.27 73.886 0.16 8.95 177.72 0.04
8/11/2021 2:30:00 PM 23.32 73.976 0.158 8.94 88.21 0.08
8/11/2021 2:45:00 PM 23.31 73.958 0.158 8.99 101.31 0.04
8/11/2021 3:00:00 PM 23.33 73.994 0.159 9.07 95.8 0.04
8/11/2021 3:15:00 PM 23.33 73.994 0.159 8.89 98.55 0.04
8/11/2021 3:30:00 PM 23.34 74.012 0.16 9.11 99.81 0.04
8/11/2021 3:45:00 PM 23.35 74.03 0.161 9.32 101.42 0.04
8/11/2021 4:00:00 PM 23.36 74.048 0.161 9.38 107.59 0.04
8/11/2021 4:15:00 PM 23.37 74.066 0.162 9.3 688.91 0.04
8/11/2021 4:30:00 PM 23.37 74.066 0.16 9.28 1721.9 0.04
8/11/2021 4:45:00 PM 23.37 74.066 0.159 9.26 4312.59 0.04
8/11/2021 5:00:00 PM 23.38 74.084 0.158 9.17 7200.86 0.04
8/11/2021 5:15:00 PM 23.4 74.12 0.16 9.01 95.8 0.05
8/11/2021 5:30:00 PM 23.39 74.102 0.158 9.2 85.35 0.05
8/11/2021 5:45:00 PM 23.39 74.102 0.157 9.05 159.57 0.04
8/11/2021 6:00:00 PM 23.41 74.138 0.156 9.07 90.43 0.04
8/11/2021 6:15:00 PM 23.41 74.138 0.154 9.11 89.2 0.05
8/11/2021 6:30:00 PM 23.41 74.138 0.153 9.03 101.33 0.05
8/11/2021 6:45:00 PM 23.43 74.174 0.154 9.08 106.32 0.06
8/11/2021 7:00:00 PM 23.43 74.174 0.151 8.99 250.3 0.04
8/11/2021 7:15:00 PM 23.45 74.21 0.15 9.04 471.61 0.06
8/11/2021 7:30:00 PM 23.43 74.174 0.15 8.89 345.69 0.05
8/11/2021 7:45:00 PM 23.42 74.156 0.151 8.94 170.5 0.04
8/11/2021 8:00:00 PM 23.43 74.174 0.152 8.46 97.49 0.05
8/11/2021 8:15:00 PM 23.43 74.174 0.147 8.71 109.82 0.05
8/11/2021 8:30:00 PM 23.45 74.21 0.149 9.07 95.46 0.06
8/11/2021 8:45:00 PM 23.47 74.246 0.147 8.96 86.81 0.05
8/11/2021 9:00:00 PM 23.46 74.228 0.147 7.52 85.45 0.05
8/11/2021 9:15:00 PM 23.47 74.246 0.147 9.77 80.17 0.05
8/11/2021 9:30:00 PM 23.48 74.264 0.147 9.6 93.19 0.05
8/11/2021 9:45:00 PM 23.48 74.264 0.147 9.2 226.36 0.05
8/11/2021 10:00:00 PM 23.47 74.246 0.148 9.56 145.26 0.05
8/11/2021 10:15:00 PM 23.49 74.282 0.145 9.19 122.3 0.07
8/11/2021 10:30:00 PM 23.47 74.246 0.145 9 101.42 0.05
8/11/2021 10:45:00 PM 23.49 74.282 0.145 9.3 155.86 0.07
8/11/2021 11:00:00 PM 23.47 74.246 0.145 9.17 160.67 0.05
8/11/2021 11:15:00 PM 23.47 74.246 0.146 7.03 180.13 0.04
8/11/2021 11:30:00 PM 23.46 74.228 0.147 8.98 186.97 0.05
8/11/2021 11:45:00 PM 23.46 74.228 0.148 9 232.93 0.05
8/12/2021 12:00:00 AM 23.45 74.21 0.149 9.05 313.77 0.05
8/12/2021 12:15:00 AM 23.47 74.246 0.15 9.28 218.54 0.05
8/12/2021 12:30:00 AM 23.46 74.228 0.15 8.9 208.12 0.05
8/12/2021 12:45:00 AM 23.45 74.21 0.151 7.32 267.48 0.05
8/12/2021 1:00:00 AM 23.43 74.174 0.152 8.33 353.34 0.04
8/12/2021 1:15:00 AM 23.44 74.192 0.145 7.09 110.28 0.06
8/12/2021 1:30:00 AM 23.43 74.174 0.145 9.05 115.72 0.05
8/12/2021 1:45:00 AM 23.43 74.174 0.146 9.22 205.02 0.05
8/12/2021 2:00:00 AM 23.44 74.192 0.147 7.63 1118.76 0.04
8/12/2021 2:15:00 AM 23.46 74.228 0.146 8.86 151.79 0.06
8/12/2021 2:30:00 AM 23.47 74.246 0.146 9.22 101.48 0.09
8/12/2021 2:45:00 AM 23.45 74.21 0.146 9.21 138.75 0.05
8/12/2021 3:00:00 AM 23.44 74.192 0.146 9.03 146.03 0.05
8/12/2021 3:15:00 AM 23.44 74.192 0.147 9.87 173.52 0.05
8/12/2021 3:30:00 AM 23.43 74.174 0.148 9.39 214.22 0.05
8/12/2021 3:45:00 AM 23.43 74.174 0.149 6.98 252.18 0.05
8/12/2021 4:00:00 AM 23.43 74.174 0.15 9.69 222.02 0.05
8/12/2021 4:15:00 AM 23.43 74.174 0.151 9.09 194.69 0.05
8/12/2021 4:30:00 AM 23.42 74.156 0.151 7.12 257.32 0.05
8/12/2021 4:45:00 AM 23.43 74.174 0.151 9.58 106.56 0.06
8/12/2021 5:00:00 AM 23.43 74.174 0.152 9.44 72.98 0.05
8/12/2021 5:15:00 AM 23.45 74.21 0.151 7.17 85.56 0.05
8/12/2021 5:30:00 AM 23.48 74.264 0.151 9.85 176.18 0.05
8/12/2021 5:45:00 AM 23.51 74.318 0.151 9.49 120.11 0.05
8/12/2021 6:00:00 AM 23.53 74.354 0.148 8.82 95.18 0.05
8/12/2021 6:15:00 AM 23.53 74.354 0.149 9.23 252.91 0.05
8/12/2021 6:30:00 AM 23.54 74.372 0.148 9.41 425.59 0.05
8/12/2021 6:45:00 AM 23.56 74.408 0.148 9.28 104.16 0.05
8/12/2021 7:00:00 AM 23.57 74.426 0.15 9.68 138.48 0.05
8/12/2021 7:15:00 AM 23.57 74.426 0.152 8.92 125.76 0.05
8/12/2021 7:30:00 AM 23.58 74.444 0.154 8.84 91.47 0.05
8/12/2021 7:45:00 AM 23.57 74.426 0.154 8.73 89.42 0.05
8/12/2021 8:00:00 AM 23.57 74.426 0.154 9.08 85.31 0.05
8/12/2021 8:15:00 AM 23.56 74.408 0.155 9.03 85.24 0.05
8/12/2021 8:30:00 AM 23.56 74.408 0.155 9.12 86.41 0.05
8/12/2021 8:45:00 AM 23.56 74.408 0.156 8.98 87.48 0.05
8/12/2021 9:00:00 AM 23.54 74.372 0.156 9.05 88.87 0.05
8/12/2021 9:15:00 AM 23.53 74.354 0.156 8.95 93.46 0.05
8/12/2021 9:30:00 AM 23.52 74.336 0.157 9.07 91.31 0.05
8/12/2021 9:45:00 AM 23.51 74.318 0.158 9.11 91.69 0.05
8/12/2021 10:00:00 AM 23.5 74.3 0.159 8.88 88.5 0.05
8/12/2021 10:15:00 AM 23.48 74.264 0.159 8.71 86.43 0.05
8/12/2021 10:30:00 AM 23.48 74.264 0.158 8.81 87.46 0.05
8/12/2021 10:45:00 AM 23.48 74.264 0.157 9.02 285.82 0.04
8/12/2021 11:00:00 AM 23.49 74.282 0.156 8.92 2775.11 0.05
8/12/2021 11:15:00 AM 23.5 74.3 0.156 8.93 4458.78 0.05
8/12/2021 11:30:00 AM 23.52 74.336 0.158 8.88 8110.82 0.05
8/12/2021 11:45:00 AM 23.54 74.372 0.16 8.65 6772.89 0.05
8/12/2021 12:00:00 PM 23.56 74.408 0.161 8.62 3484.41 0.05
8/12/2021 12:15:00 PM 23.62 74.516 0.159 8.68 153.02 0.05
8/12/2021 12:30:00 PM 23.61 74.498 0.158 8.74 180.73 0.05
8/12/2021 12:45:00 PM 23.61 74.498 0.159 8.54 302.7 0.04
8/12/2021 1:00:00 PM 23.63 74.534 0.159 6.84 386.74 0.05
8/12/2021 1:15:00 PM 23.65 74.57 0.16 8.61 311.28 0.05
8/12/2021 1:30:00 PM 23.69 74.642 0.157 8.68 98.74 0.05
8/12/2021 1:45:00 PM 23.72 74.696 0.158 8.76 92.15 0.05
8/12/2021 2:00:00 PM 23.74 74.732 0.157 8.6 98.51 0.05
8/12/2021 2:15:00 PM 23.77 74.786 0.157 8.61 113.99 0.05
8/12/2021 2:30:00 PM 23.8 74.84 0.159 8.54 122.26 0.05
8/12/2021 2:45:00 PM 23.82 74.876 0.159 8.48 158.36 0.05
8/12/2021 3:00:00 PM 23.84 74.912 0.159 8.71 401.43 0.05
8/12/2021 3:15:00 PM 23.87 74.966 0.159 8.88 91.48 0.07
8/12/2021 3:30:00 PM 23.87 74.966 0.158 8.58 87.39 0.05
8/12/2021 3:45:00 PM 23.88 74.984 0.158 6.82 91.07 0.05
8/12/2021 4:00:00 PM 23.9 75.02 0.157 9.53 156.33 0.05
8/12/2021 4:15:00 PM 23.9 75.02 0.156 9.05 247.42 0.05
8/12/2021 4:30:00 PM 23.9 75.02 0.157 8.41 384.96 0.05
8/12/2021 4:45:00 PM 23.89 75.002 0.159 6.87 328.81 0.05
8/12/2021 5:00:00 PM 23.9 75.02 0.16 8.97 261.05 0.05
8/12/2021 5:15:00 PM 23.91 75.038 0.159 8.79 81.25 0.05
8/12/2021 5:30:00 PM 23.92 75.056 0.157 9.36 77.68 0.05
8/12/2021 5:45:00 PM 23.92 75.056 0.156 8.57 106.2 0.05
8/12/2021 6:00:00 PM 23.93 75.074 0.148 9.29 121.95 0.05
8/12/2021 6:15:00 PM 23.92 75.056 0.149 6.9 94.17 0.05
8/12/2021 6:30:00 PM 23.9 75.02 0.149 7.53 89.19 0.05
8/12/2021 6:45:00 PM 23.9 75.02 0.15 9.07 92.05 0.05
8/12/2021 7:00:00 PM 23.91 75.038 0.151 8.38 94.35 0.05
8/12/2021 7:15:00 PM 23.9 75.02 0.151 8.07 92.12 0.05
8/12/2021 7:30:00 PM 23.89 75.002 0.153 9.15 135.72 0.05
8/12/2021 7:45:00 PM 23.88 74.984 0.152 9.15 160.94 0.05
8/12/2021 8:00:00 PM 23.89 75.002 0.152 9.14 192.76 0.05
8/12/2021 8:15:00 PM 23.89 75.002 0.153 8.93 464.97 0.05
8/12/2021 8:30:00 PM 23.88 74.984 0.153 6.9 157.14 0.05
8/12/2021 8:45:00 PM 23.88 74.984 0.154 8.81 182.78 0.05
8/12/2021 9:00:00 PM 23.91 75.038 0.155 8.84 98.91 0.24
8/12/2021 9:15:00 PM 23.89 75.002 0.155 8.48 87.87 0.05
8/12/2021 9:30:00 PM 23.9 75.02 0.155 6.87 85.28 0.05
8/12/2021 9:45:00 PM 23.9 75.02 0.154 9.16 86.14 0.05
8/12/2021 10:00:00 PM 23.92 75.056 0.154 8.79 85.47 0.06
8/12/2021 10:15:00 PM 23.91 75.038 0.154 8.39 89.45 0.05
8/12/2021 10:30:00 PM 23.91 75.038 0.153 6.97 91.03 0.05
8/12/2021 10:45:00 PM 23.84 74.912 0.148 8.59 90.62 0.05
8/12/2021 11:00:00 PM 23.81 74.858 0.15 8.94 97.38 0.05
8/12/2021 11:15:00 PM 23.8 74.84 0.151 8.51 98.11 0.05
8/12/2021 11:30:00 PM 23.79 74.82201 0.151 8.23 100.96 0.05
8/12/2021 11:45:00 PM 23.79 74.82201 0.151 8.58 118.07 0.05
8/13/2021 12:00:00 AM 23.78 74.804 0.148 8.69 186.95 0.05
8/13/2021 12:15:00 AM 23.83 74.894 0.146 8.98 403.76 0.05
8/13/2021 12:30:00 AM 23.89 75.002 0.144 8.73 139.17 0.05
8/13/2021 12:45:00 AM 23.94 75.092 0.139 8.38 90.43 0.05
8/13/2021 1:00:00 AM 23.97 75.146 0.135 7.67 105.66 0.05
8/13/2021 1:15:00 AM 24.06 75.308 0.134 8.63 97.1 0.05
8/13/2021 1:30:00 AM 24.09 75.362 0.134 8.64 95.3 0.05
8/13/2021 1:45:00 AM 24.16 75.488 0.134 8.66 88.87 0.05
8/13/2021 2:00:00 AM 24.19 75.542 0.135 8.8 85.9 0.05
8/13/2021 2:15:00 AM 24.22 75.596 0.136 8.65 87.8 0.05
8/13/2021 2:30:00 AM 24.21 75.578 0.136 8.52 89.09 0.05
8/13/2021 2:45:00 AM 24.21 75.578 0.138 8.63 90.39 0.05
8/13/2021 3:00:00 AM 24.21 75.578 0.138 8.31 90.63 0.05
8/13/2021 3:15:00 AM 24.21 75.578 0.138 8.49 90.59 0.05
8/13/2021 3:30:00 AM 24.22 75.596 0.139 8.52 102.13 0.05
8/13/2021 3:45:00 AM 24.21 75.578 0.14 8.78 125.31 0.05
8/13/2021 4:00:00 AM 24.21 75.578 0.14 8.53 149.54 0.05
8/13/2021 4:15:00 AM 24.21 75.578 0.14 8.56 165.26 0.05
8/13/2021 4:30:00 AM 24.2 75.56 0.141 8.38 179.17 0.05
8/13/2021 4:45:00 AM 24.19 75.542 0.142 7.13 181.24 0.05
8/13/2021 5:00:00 AM 24.18 75.524 0.141 8.38 226.39 0.05
8/13/2021 5:15:00 AM 24.17 75.506 0.142 8.26 238.68 0.05
8/13/2021 5:30:00 AM 24.14 75.452 0.143 8.37 255.51 0.05
8/13/2021 5:45:00 AM 24.14 75.452 0.14 8.72 110.76 0.05
8/13/2021 6:00:00 AM 24.1 75.38 0.14 7.76 511.75 0.05
8/13/2021 6:15:00 AM 24.08 75.344 0.139 6.89 139.55 0.05
8/13/2021 6:30:00 AM 24.08 75.344 0.14 8.18 171.24 0.05
8/13/2021 6:45:00 AM 24.06 75.308 0.14 6.85 89.85 0.05
8/13/2021 7:00:00 AM 24.05 75.29 0.141 8.03 119.21 0.05
8/13/2021 7:15:00 AM 24.02 75.236 0.141 8.86 146.04 0.05
8/13/2021 7:30:00 AM 24 75.2 0.141 8.41 123.74 0.05
8/13/2021 7:45:00 AM 23.97 75.146 0.137 8.24 134.84 0.05
8/13/2021 8:00:00 AM 23.94 75.092 0.138 8.24 119.85 0.05
8/13/2021 8:15:00 AM 23.91 75.038 0.138 6.88 275.96 0.05
8/13/2021 8:30:00 AM 23.88 74.984 0.136 8.59 2204.67 0.05
8/13/2021 8:45:00 AM 23.85 74.93 0.136 8.41 114.27 0.05
8/13/2021 9:00:00 AM 23.82 74.876 0.136 8.2 131.38 0.05
8/13/2021 9:15:00 AM 23.79 74.82201 0.14 8.13 258.61 0.05
8/13/2021 9:30:00 AM 23.76 74.768 0.137 8.17 107.73 0.05
8/13/2021 9:45:00 AM 23.74 74.732 0.136 8.37 234.5 0.05
8/13/2021 10:00:00 AM 23.72 74.696 0.138 6.86 93.57 0.05
8/13/2021 10:15:00 AM 23.71 74.67799 0.139 6.77 103.51 0.05
8/13/2021 10:30:00 AM 23.7 74.66 0.139 8.39 225.93 0.05
8/13/2021 10:45:00 AM 23.69 74.642 0.133 8.12 261.6 0.05
8/13/2021 11:00:00 AM 23.68 74.624 0.132 6.83 149.4 0.05
8/13/2021 11:15:00 AM 23.68 74.624 0.132 8.09 119.55 0.05
8/13/2021 11:30:00 AM 23.69 74.642 0.135 6.81 161.95 0.05
8/13/2021 11:45:00 AM 23.71 74.67799 0.136 6.75 81.54 0.05
8/13/2021 12:00:00 PM 23.71 74.67799 0.137 6.74 103.16 0.05
8/13/2021 12:15:00 PM 23.74 74.732 0.135 8.52 84.86 0.05
8/13/2021 12:30:00 PM 23.76 74.768 0.134 7.27 126.9 0.05
8/13/2021 12:45:00 PM 23.78 74.804 0.133 8.09 88.81 0.05
8/13/2021 1:00:00 PM 23.79 74.82201 0.135 6.81 65.7 0.05
8/13/2021 1:15:00 PM 23.82 74.876 0.133 6.75 55.38 0.05
8/13/2021 1:30:00 PM 23.85 74.93 0.133 6.74 58.5 0.05
8/13/2021 1:45:00 PM 23.87 74.966 0.134 8.01 71.27 0.05
8/13/2021 2:00:00 PM 23.9 75.02 0.135 7.23 74.22 0.05
8/13/2021 2:15:00 PM 23.93 75.074 0.134 7.05 73.97 0.05
8/13/2021 2:30:00 PM 23.95 75.11 0.134 7.63 67.7 0.05
8/13/2021 2:45:00 PM 23.98 75.164 0.133 6.94 83.62 0.05
8/13/2021 3:00:00 PM 24.04 75.272 0.131 6.85 163.73 0.2
8/13/2021 3:15:00 PM 24.04 75.272 0.133 7.18 172.19 0.05
8/13/2021 3:30:00 PM 24.05 75.29 0.134 6.98 196.9 0.05
8/13/2021 3:45:00 PM 24.06 75.308 0.135 6.85 185.79 0.05
8/13/2021 4:00:00 PM 24.07 75.326 0.136 7.02 148.71 0.05
8/13/2021 4:15:00 PM 24.06 75.308 0.137 7.03 143.17 0.05
8/13/2021 4:30:00 PM 24.05 75.29 0.136 7.03 166.05 0.05
8/13/2021 4:45:00 PM 24.04 75.272 0.136 7.09 141.55 0.05
8/13/2021 5:00:00 PM 24.04 75.272 0.135 7 123.25 0.05
8/13/2021 5:15:00 PM 24.04 75.272 0.136 7.13 94.37 0.05
8/13/2021 5:30:00 PM 24.06 75.308 0.136 7.15 81.49 0.37
8/13/2021 5:45:00 PM 24.06 75.308 0.136 7.13 81.47 0.05
8/13/2021 6:00:00 PM 24.07 75.326 0.136 7.11 83.7 0.05
8/13/2021 6:15:00 PM 24.06 75.308 0.136 7.12 81.85 0.05
8/13/2021 6:30:00 PM 24.07 75.326 0.136 7.14 85.49 0.05
8/13/2021 6:45:00 PM 24.08 75.344 0.137 7.06 82.37 0.05
8/13/2021 7:00:00 PM 24.08 75.344 0.136 7.06 80.59 0.05
8/13/2021 7:15:00 PM 24.08 75.344 0.139 6.89 80.17 0.05
8/13/2021 7:30:00 PM 24.07 75.326 0.138 6.86 80.4 0.05
8/13/2021 7:45:00 PM 24.06 75.308 0.138 6.81 77.38 0.05
8/13/2021 8:00:00 PM 24.05 75.29 0.138 6.75 78.42 0.05
8/13/2021 8:15:00 PM 24.05 75.29 0.138 6.73 79.87 0.05
8/13/2021 8:30:00 PM 24.04 75.272 0.139 6.73 66.54 0.05
8/13/2021 8:45:00 PM 24.04 75.272 0.14 6.71 54.61 0.05
8/13/2021 9:00:00 PM 24.06 75.308 0.14 6.69 40.96 0.05
8/13/2021 9:15:00 PM 24.06 75.308 0.141 6.68 57.36 0.05
8/13/2021 9:30:00 PM 24.06 75.308 0.142 6.67 48.7 0.05
8/13/2021 9:45:00 PM 24.07 75.326 0.142 6.7 38.84 0.05
8/13/2021 10:00:00 PM 24.05 75.29 0.143 6.68 35.1 0.05
8/13/2021 10:15:00 PM 24.06 75.308 0.143 6.67 50.86 0.05
8/13/2021 10:30:00 PM 24.05 75.29 0.142 6.62 83.37 0.05
8/13/2021 10:45:00 PM 24.05 75.29 0.142 6.65 126.71 0.05
8/13/2021 11:00:00 PM 24.05 75.29 0.143 6.64 218.71 0.05
8/13/2021 11:15:00 PM 24.05 75.29 0.143 6.6 257.4 0.05
8/13/2021 11:30:00 PM 24.07 75.326 0.144 6.64 79.41 0.06
8/13/2021 11:45:00 PM 24.05 75.29 0.144 6.61 71.77 0.05
8/14/2021 12:00:00 AM 24.06 75.308 0.143 6.6 66.77 0.05
8/14/2021 12:15:00 AM 24.05 75.29 0.143 6.6 65.62 0.05
8/14/2021 12:30:00 AM 24.05 75.29 0.143 6.64 77.89 0.05
8/14/2021 12:45:00 AM 24.06 75.308 0.145 6.59 130.51 0.05
8/14/2021 1:00:00 AM 24.05 75.29 0.145 6.64 239.23 0.05
8/14/2021 1:15:00 AM 24.08 75.344 0.145 6.64 784.98 0.05
8/14/2021 1:30:00 AM 24.03 75.254 0.144 6.61 120.54 0.05
8/14/2021 1:45:00 AM 24.04 75.272 0.145 6.62 113 0.05
8/14/2021 2:00:00 AM 24.03 75.254 0.143 6.65 159.15 0.05
8/14/2021 2:15:00 AM 24.02 75.236 0.143 6.6 273.33 0.05
8/14/2021 2:30:00 AM 24.02 75.236 0.143 6.63 461.76 0.05
8/14/2021 2:45:00 AM 24.02 75.236 0.144 6.62 1250.47 0.05
8/14/2021 3:00:00 AM 24.05 75.29 0.144 6.61 295.25 0.05
8/14/2021 3:15:00 AM 24.03 75.254 0.145 6.63 385.29 0.05
8/14/2021 3:30:00 AM 24.03 75.254 0.144 6.62 319.03 0.05
8/14/2021 3:45:00 AM 24.01 75.218 0.145 6.63 201.96 0.05
8/14/2021 4:00:00 AM 24.01 75.218 0.145 6.63 135.39 0.05
8/14/2021 4:15:00 AM 23.99 75.182 0.146 6.61 128.12 0.05
8/14/2021 4:30:00 AM 23.98 75.164 0.146 6.61 134.62 0.05
8/14/2021 4:45:00 AM 23.98 75.164 0.146 6.6 114.09 0.05
8/14/2021 5:00:00 AM 23.97 75.146 0.146 6.59 99.32 0.05
8/14/2021 5:15:00 AM 23.96 75.128 0.145 6.62 89.83 0.05
8/14/2021 5:30:00 AM 23.99 75.182 0.146 6.61 86.58 0.05
8/14/2021 5:45:00 AM 24 75.2 0.146 6.58 92.03 0.05
8/14/2021 6:00:00 AM 24.07 75.326 0.145 6.58 94.17 0.05
8/14/2021 6:15:00 AM 24.11 75.398 0.146 6.62 108.95 0.05
8/14/2021 6:30:00 AM 24.14 75.452 0.146 6.62 149.3 0.05
8/14/2021 6:45:00 AM 24.2 75.56 0.147 6.59 225.64 0.05
8/14/2021 7:00:00 AM 24.24 75.632 0.148 6.61 370.16 0.05
8/14/2021 7:15:00 AM 24.24 75.632 0.146 6.61 331.2 0.05
8/14/2021 7:30:00 AM 24.28 75.704 0.145 6.6 86.74 0.05
8/14/2021 7:45:00 AM 24.24 75.632 0.148 6.59 80.57 0.05
8/14/2021 8:00:00 AM 24.25 75.65 0.149 6.61 85.56 0.05
8/14/2021 8:15:00 AM 24.26 75.668 0.148 6.59 94.03 0.05
8/14/2021 8:30:00 AM 24.27 75.686 0.147 6.61 106.46 0.05
8/14/2021 8:45:00 AM 24.28 75.704 0.147 6.62 102.47 0.05
8/14/2021 9:00:00 AM 24.31 75.758 0.147 6.61 106.02 0.05
8/14/2021 9:15:00 AM 24.32 75.776 0.147 6.62 110.57 0.05
8/14/2021 9:30:00 AM 24.33 75.794 0.147 6.6 113.57 0.05
8/14/2021 9:45:00 AM 24.33 75.794 0.147 6.58 113.75 0.05
8/14/2021 10:00:00 AM 24.34 75.812 0.148 6.59 115.73 0.05
8/14/2021 10:15:00 AM 24.34 75.812 0.148 6.6 111.9 0.05
8/14/2021 10:30:00 AM 24.35 75.83 0.149 6.58 108.03 0.05
8/14/2021 10:45:00 AM 24.36 75.848 0.149 6.61 108.31 0.05
8/14/2021 11:00:00 AM 24.36 75.848 0.15 6.61 104.13 0.05
8/14/2021 11:15:00 AM 24.36 75.848 0.15 6.6 100.23 0.05
8/14/2021 11:30:00 AM 24.35 75.83 0.15 6.61 98.1 0.05
8/14/2021 11:45:00 AM 24.35 75.83 0.151 6.63 94.28 0.05
8/14/2021 12:00:00 PM 24.34 75.812 0.152 6.61 89.27 0.05
8/14/2021 12:15:00 PM 24.34 75.812 0.152 6.61 87.82 0.05
8/14/2021 12:30:00 PM 24.35 75.83 0.152 6.62 87.57 0.05
8/14/2021 12:45:00 PM 24.35 75.83 0.152 6.61 87.05 0.05
8/14/2021 1:00:00 PM 24.35 75.83 0.153 6.64 85.02 0.05
8/14/2021 1:15:00 PM 24.35 75.83 0.153 6.61 81.98 0.05
8/14/2021 1:30:00 PM 24.36 75.848 0.154 6.62 81.61 0.05
8/14/2021 1:45:00 PM 24.38 75.884 0.154 6.62 81.55 0.05
8/14/2021 2:00:00 PM 24.41 75.938 0.154 6.62 80.92 0.05
8/14/2021 2:15:00 PM 24.42 75.956 0.154 6.64 80.07 0.05
8/14/2021 2:30:00 PM 24.46 76.028 0.155 6.64 79.88 0.05
8/14/2021 2:45:00 PM 24.49 76.082 0.155 6.65 81.44 0.05
8/14/2021 3:00:00 PM 24.52 76.136 0.155 6.67 80.95 0.05
8/14/2021 3:15:00 PM 24.55 76.19 0.155 6.66 79.83 0.05
8/14/2021 3:30:00 PM 24.58 76.244 0.156 6.69 79.88 0.05
8/14/2021 3:45:00 PM 24.61 76.298 0.156 6.7 79.01 0.05
8/14/2021 4:00:00 PM 24.63 76.334 0.156 6.71 79.75 0.05
8/14/2021 4:15:00 PM 24.66 76.388 0.157 6.7 79.95 0.05
8/14/2021 4:30:00 PM 24.69 76.442 0.157 6.69 80.07 0.05
8/14/2021 4:45:00 PM 24.71 76.478 0.158 6.73 84.04 0.05
8/14/2021 5:00:00 PM 24.72 76.496 0.159 6.75 83.53 0.05
8/14/2021 5:15:00 PM 24.72 76.496 0.16 6.78 84.29 0.05
8/14/2021 5:30:00 PM 24.72 76.496 0.16 6.79 84.64 0.05
8/14/2021 5:45:00 PM 24.72 76.496 0.161 6.76 88.55 0.05
8/14/2021 6:00:00 PM 24.72 76.496 0.161 6.77 91.3 0.05
8/14/2021 6:15:00 PM 24.72 76.496 0.159 6.79 93.62 0.05
8/14/2021 6:30:00 PM 24.74 76.532 0.16 6.79 93.91 0.05
8/14/2021 6:45:00 PM 24.74 76.532 0.159 6.79 98.82 0.05
8/14/2021 7:00:00 PM 24.74 76.532 0.159 6.8 100.5 0.05
8/14/2021 7:15:00 PM 24.76 76.568 0.158 6.81 104.47 0.05
8/14/2021 7:30:00 PM 24.78 76.604 0.159 6.82 107.36 0.05
8/14/2021 7:45:00 PM 24.79 76.622 0.159 6.91 107.27 0.05
8/14/2021 8:00:00 PM 24.8 76.64 0.159 6.91 102.84 0.05
8/14/2021 8:15:00 PM 24.82 76.676 0.16 6.9 101.42 0.05
8/14/2021 8:30:00 PM 24.83 76.694 0.16 6.9 96.73 0.05
8/14/2021 8:45:00 PM 24.85 76.73 0.161 6.91 109.47 0.05
8/14/2021 9:00:00 PM 24.89 76.802 0.16 6.92 96.6 0.05
8/14/2021 9:15:00 PM 24.89 76.802 0.161 6.94 80.94 0.05
8/14/2021 9:30:00 PM 24.87 76.766 0.162 6.93 92.81 0.05
8/14/2021 9:45:00 PM 24.87 76.766 0.163 6.94 88.14 0.05
8/14/2021 10:00:00 PM 24.88 76.784 0.163 6.99 100.79 0.05
8/14/2021 10:15:00 PM 24.87 76.766 0.163 6.98 109.59 0.05
8/14/2021 10:30:00 PM 24.86 76.748 0.164 6.96 96.5 0.05
8/14/2021 10:45:00 PM 24.85 76.73 0.165 6.98 79.5 0.05
8/14/2021 11:00:00 PM 24.83 76.694 0.164 6.94 104.14 0.05
8/14/2021 11:15:00 PM 24.81 76.658 0.166 6.95 3755.81 0.05
8/14/2021 11:30:00 PM 24.79 76.622 0.164 6.99 3347.75 0.05
8/14/2021 11:45:00 PM 24.76 76.568 0.166 6.95 3814.37 0.05
8/15/2021 12:00:00 AM 24.73 76.514 0.168 6.95 2019.84 0.05
8/15/2021 12:15:00 AM 24.71 76.478 0.16 6.91 88.4 0.12
8/15/2021 12:30:00 AM 24.67 76.406 0.16 6.93 126.27 0.05
8/15/2021 12:45:00 AM 24.63 76.334 0.16 6.93 130.76 0.05
8/15/2021 1:00:00 AM 24.59 76.262 0.161 6.89 135.56 0.05
8/15/2021 1:15:00 AM 24.55 76.19 0.162 6.93 147.42 0.05
8/15/2021 1:30:00 AM 24.51 76.118 0.162 6.88 82.44 0.05
8/15/2021 1:45:00 AM 24.46 76.028 0.163 6.92 89.6 0.05
8/15/2021 2:00:00 AM 24.4 75.92 0.162 6.89 121.93 0.05
8/15/2021 2:15:00 AM 24.33 75.794 0.16 6.77 111.46 0.06
8/15/2021 2:30:00 AM 24.29 75.722 0.162 6.9 115.22 0.05
8/15/2021 2:45:00 AM 24.25 75.65 0.162 6.93 128.65 0.05
8/15/2021 3:00:00 AM 24.18 75.524 0.162 6.84 202.14 0.05
8/15/2021 3:15:00 AM 24.11 75.398 0.163 6.85 311.67 0.05
8/15/2021 3:30:00 AM 24.04 75.272 0.163 6.83 933.46 0.05
8/15/2021 3:45:00 AM 23.96 75.128 0.163 6.76 564.14 0.05
8/15/2021 4:00:00 AM 23.88 74.984 0.164 6.76 687.54 0.05
8/15/2021 4:15:00 AM 23.79 74.82201 0.163 6.77 2745.37 0.05
8/15/2021 4:30:00 AM 23.67 74.606 0.155 6.78 172.09 0.06
8/15/2021 4:45:00 AM 23.61 74.498 0.155 6.82 82.97 0.05
8/15/2021 5:00:00 AM 23.58 74.444 0.155 6.85 104.54 0.05
8/15/2021 5:15:00 AM 23.49 74.282 0.155 6.85 217.59 0.05
8/15/2021 5:30:00 AM 23.4 74.12 0.155 6.84 201.73 0.05
8/15/2021 5:45:00 AM 23.32 73.976 0.155 6.8 190.78 0.05
8/15/2021 6:00:00 AM 23.24 73.832 0.156 6.81 197.15 0.05
8/15/2021 6:15:00 AM 23.15 73.67 0.156 6.75 180.7 0.05
8/15/2021 6:30:00 AM 23.08 73.544 0.156 6.78 182.7 0.05
8/15/2021 6:45:00 AM 23.01 73.418 0.156 6.72 323.49 0.05
8/15/2021 7:00:00 AM 22.94 73.292 0.157 6.72 321.67 0.05
8/15/2021 7:15:00 AM 22.88 73.184 0.157 6.71 386.34 0.05
8/15/2021 7:30:00 AM 22.81 73.058 0.157 6.69 656.81 0.05
8/15/2021 7:45:00 AM 22.75 72.95 0.158 6.69 868.59 0.05
8/15/2021 8:00:00 AM 22.7 72.86 0.158 6.71 1055.31 0.05
8/15/2021 8:15:00 AM 22.64 72.752 0.159 6.74 1229.96 0.05
8/15/2021 8:30:00 AM 22.58 72.644 0.159 6.77 1270.67 0.05
8/15/2021 8:45:00 AM 22.53 72.554 0.16 6.76 1301.84 0.05
8/15/2021 9:00:00 AM 22.48 72.464 0.16 6.77 1388.39 0.05
8/15/2021 9:15:00 AM 22.44 72.392 0.161 6.73 1608.46 0.05
8/15/2021 9:30:00 AM 22.4 72.32 0.161 6.75 1076.74 0.05
8/15/2021 9:45:00 AM 22.37 72.266 0.162 6.71 1017.62 0.05
8/15/2021 10:00:00 AM 22.34 72.212 0.162 6.73 1106.89 0.04
8/15/2021 10:15:00 AM 22.32 72.176 0.162 6.73 1098.49 0.04
8/15/2021 10:30:00 AM 22.3 72.14 0.163 6.73 674.64 0.04
8/15/2021 10:45:00 AM 22.28 72.104 0.163 6.71 727.45 0.04
8/15/2021 11:00:00 AM 22.26 72.068 0.164 6.69 811.17 0.04
8/15/2021 11:15:00 AM 22.25 72.05 0.164 6.71 836.21 0.04
8/15/2021 11:30:00 AM 22.25 72.05 0.165 6.74 870.52 0.04
8/15/2021 11:45:00 AM 22.26 72.068 0.165 6.72 879.52 0.04
8/15/2021 12:00:00 PM 22.28 72.104 0.165 6.74 853.94 0.04
8/15/2021 12:15:00 PM 22.29 72.122 0.166 6.77 838.11 0.04
8/15/2021 12:30:00 PM 22.32 72.176 0.166 6.75 854.11 0.04
8/15/2021 12:45:00 PM 22.35 72.23 0.167 6.76 861.76 0.04
8/15/2021 1:00:00 PM 22.38 72.284 0.167 6.68 858.08 0.04
8/15/2021 1:15:00 PM 22.41 72.338 0.167 6.68 811.58 0.04
8/15/2021 1:30:00 PM 22.44 72.392 0.167 6.68 812.95 0.04
8/15/2021 1:45:00 PM 22.47 72.446 0.168 6.74 793.64 0.04
8/15/2021 2:00:00 PM 22.5 72.5 0.168 6.75 784.25 0.05
8/15/2021 2:15:00 PM 22.53 72.554 0.168 6.74 784.86 0.05
8/15/2021 2:30:00 PM 22.57 72.626 0.169 6.75 579.2 0.04
8/15/2021 2:45:00 PM 22.6 72.68 0.169 6.76 598.87 0.05
8/15/2021 3:00:00 PM 22.64 72.752 0.169 6.75 445.89 0.04
8/15/2021 3:15:00 PM 22.66 72.788 0.17 6.77 504.33 0.04
8/15/2021 3:30:00 PM 22.68 72.824 0.17 6.75 521.28 0.04
8/15/2021 3:45:00 PM 22.7 72.86 0.17 6.74 540.65 0.04
8/15/2021 4:00:00 PM 22.72 72.896 0.171 6.76 541.83 0.04
8/15/2021 4:15:00 PM 22.74 72.932 0.171 6.75 551.34 0.05
8/15/2021 4:30:00 PM 22.75 72.95 0.171 6.75 566.22 0.05
8/15/2021 4:45:00 PM 22.76 72.968 0.171 6.71 240.9 0.05
8/15/2021 5:00:00 PM 22.78 73.004 0.171 6.75 313.19 0.05
8/15/2021 5:15:00 PM 22.79 73.022 0.172 6.76 455.34 0.05
8/15/2021 5:30:00 PM 22.81 73.058 0.172 6.72 492.86 0.05
8/15/2021 5:45:00 PM 22.82 73.076 0.172 6.72 510.23 0.05
8/15/2021 6:00:00 PM 22.83 73.094 0.172 6.75 542.45 0.05
8/15/2021 6:15:00 PM 22.84 73.112 0.173 6.78 583.92 0.05
8/15/2021 6:30:00 PM 22.86 73.148 0.174 6.78 610.9 0.05
8/15/2021 6:45:00 PM 22.88 73.184 0.174 6.77 596.34 0.05
8/15/2021 7:00:00 PM 22.89 73.202 0.174 6.75 591.9 0.05
8/15/2021 7:15:00 PM 22.9 73.22 0.175 6.75 320.13 0.05
8/15/2021 7:30:00 PM 22.9 73.22 0.175 6.76 233.46 0.05
8/15/2021 7:45:00 PM 22.91 73.238 0.175 6.76 223.6 0.05
8/15/2021 8:00:00 PM 22.92 73.256 0.174 6.78 200.24 0.05
8/15/2021 8:15:00 PM 22.92 73.256 0.175 6.78 203.58 0.05
8/15/2021 8:30:00 PM 22.92 73.256 0.176 6.78 222.51 0.05
8/15/2021 8:45:00 PM 22.92 73.256 0.176 6.79 208.34 0.05
8/15/2021 9:00:00 PM 22.93 73.274 0.176 6.75 92.92 0.05
8/15/2021 9:15:00 PM 22.93 73.274 0.176 6.77 111.58 0.05
8/15/2021 9:30:00 PM 22.94 73.292 0.177 6.75 132.12 0.05
8/15/2021 9:45:00 PM 22.95 73.31 0.177 6.68 259.06 0.05
8/15/2021 10:00:00 PM 22.97 73.346 0.175 6.62 115.93 0.05
8/15/2021 10:15:00 PM 22.97 73.346 0.177 6.72 211.22 0.05
8/15/2021 10:30:00 PM 22.98 73.364 0.178 6.73 158.61 0.05
8/15/2021 10:45:00 PM 22.99 73.382 0.177 6.72 137.76 0.05
8/15/2021 11:00:00 PM 23 73.4 0.177 6.7 123.12 0.05
8/15/2021 11:15:00 PM 23.01 73.418 0.177 6.7 128.4 0.05
8/15/2021 11:30:00 PM 23.02 73.436 0.178 6.7 140.39 0.05
8/15/2021 11:45:00 PM 23.02 73.436 0.178 6.72 155.73 0.05
8/16/2021 12:00:00 AM 23.03 73.454 0.178 6.69 177.06 0.05
8/16/2021 12:15:00 AM 23.03 73.454 0.18 6.69 188.74 0.05
8/16/2021 12:30:00 AM 23.03 73.454 0.179 6.7 251.64 0.05
8/16/2021 12:45:00 AM 23.04 73.472 0.18 6.74 225.02 0.05
8/16/2021 1:00:00 AM 23.05 73.49 0.18 6.76 227.1 0.05
8/16/2021 1:15:00 AM 23.07 73.526 0.182 6.78 248.92 0.05
8/16/2021 1:30:00 AM 23.09 73.562 0.182 6.77 251.34 0.05
8/16/2021 1:45:00 AM 23.1 73.58 0.182 6.79 282.05 0.05
8/16/2021 2:00:00 AM 23.13 73.634 0.183 6.81 315.99 0.05
8/16/2021 2:15:00 AM 23.16 73.688 0.184 6.81 324.52 0.05
8/16/2021 2:30:00 AM 23.19 73.742 0.184 6.82 315.69 0.05
8/16/2021 2:45:00 AM 23.21 73.778 0.184 6.87 384.19 0.05
8/16/2021 3:00:00 AM 23.23 73.814 0.183 6.87 430.15 0.05
8/16/2021 3:15:00 AM 23.27 73.886 0.182 6.9 501.97 0.05
8/16/2021 3:30:00 AM 23.31 73.958 0.18 6.86 199.28 0.05
8/16/2021 3:45:00 AM 23.29 73.922 0.182 6.9 208.84 0.05
8/16/2021 4:00:00 AM 23.27 73.886 0.182 6.89 211.02 0.05
8/16/2021 4:15:00 AM 23.25 73.85 0.183 6.85 139.61 0.05
8/16/2021 4:30:00 AM 23.22 73.796 0.184 6.83 198.48 0.05
8/16/2021 4:45:00 AM 23.18 73.724 0.184 6.84 242.57 0.05
8/16/2021 5:00:00 AM 23.14 73.652 0.18 6.88 99.79 0.05
8/16/2021 5:15:00 AM 23.1 73.58 0.181 6.87 92.84 0.05
8/16/2021 5:30:00 AM 23.06 73.508 0.182 6.86 101.87 0.05
8/16/2021 5:45:00 AM 23.01 73.418 0.183 6.83 106.52 0.05
8/16/2021 6:00:00 AM 22.96 73.328 0.179 6.84 87.22 0.05
8/16/2021 6:15:00 AM 22.92 73.256 0.181 6.81 77.75 0.05
8/16/2021 6:30:00 AM 22.88 73.184 0.182 6.85 65.83 0.05
8/16/2021 6:45:00 AM 22.82 73.076 0.175 6.85 82.98 0.05
8/16/2021 7:00:00 AM 22.77 72.986 0.176 6.84 54.7 0.05
8/16/2021 7:15:00 AM 22.7 72.86 0.173 6.81 92.77 0.05
8/16/2021 7:30:00 AM 22.66 72.788 0.168 6.83 82.64 0.04
8/16/2021 7:45:00 AM 22.64 72.752 0.166 6.86 73.07 0.05
8/16/2021 8:00:00 AM 22.6 72.68 0.166 6.79 73.45 0.05
8/16/2021 8:15:00 AM 22.57 72.626 0.166 6.8 76.37 0.05
8/16/2021 8:30:00 AM 22.54 72.57201 0.167 6.76 89.78 0.05
8/16/2021 8:45:00 AM 22.51 72.518 0.167 6.8 83.45 0.05
8/16/2021 9:00:00 AM 22.49 72.482 0.168 6.8 125.8 0.04
8/16/2021 9:15:00 AM 22.47 72.446 0.169 6.77 122.28 0.04
8/16/2021 9:30:00 AM 22.45 72.41 0.169 6.8 176.17 0.04
8/16/2021 9:45:00 AM 22.44 72.392 0.17 6.79 214.67 0.04
8/16/2021 10:00:00 AM 22.43 72.374 0.171 6.8 204.99 0.04
8/16/2021 10:15:00 AM 22.41 72.338 0.172 6.8 308.21 0.04
8/16/2021 10:30:00 AM 22.39 72.302 0.165 6.81 94.64 0.04
8/16/2021 10:45:00 AM 22.4 72.32 0.163 6.82 100.15 0.04
8/16/2021 11:00:00 AM 22.4 72.32 0.164 6.82 109.22 0.04
8/16/2021 11:15:00 AM 22.4 72.32 0.164 6.8 107.85 0.04
8/16/2021 11:30:00 AM 22.39 72.302 0.165 6.81 108.53 0.04
8/16/2021 11:45:00 AM 22.39 72.302 0.164 6.81 98.27 0.04
8/16/2021 12:00:00 PM 22.4 72.32 0.164 6.81 92.7 0.04
8/16/2021 12:15:00 PM 22.4 72.32 0.165 6.8 87.1 0.04
8/16/2021 12:30:00 PM 22.41 72.338 0.164 6.82 102.41 0.04
8/16/2021 12:45:00 PM 22.41 72.338 0.164 6.83 120.61 0.04
8/16/2021 1:00:00 PM 22.42 72.356 0.165 6.82 155.66 0.04
8/16/2021 1:15:00 PM 22.43 72.374 0.162 6.8 89.88 0.04
8/16/2021 1:30:00 PM 22.44 72.392 0.159 6.83 91.61 0.04
8/16/2021 1:45:00 PM 22.45 72.41 0.16 6.81 118.6 0.04
8/16/2021 2:00:00 PM 22.46 72.42799 0.16 6.83 308.52 0.04
8/16/2021 2:15:00 PM 22.48 72.464 0.158 6.76 87.76 0.04
8/16/2021 2:30:00 PM 22.49 72.482 0.157 6.82 93.21 0.04
8/16/2021 2:45:00 PM 22.5 72.5 0.157 6.83 121.57 0.04
8/16/2021 3:00:00 PM 22.52 72.536 0.158 6.8 393.18 0.04
8/16/2021 3:15:00 PM 22.54 72.57201 0.158 6.77 825.82 0.04
8/16/2021 3:30:00 PM 22.56 72.608 0.153 6.81 135.08 0.05
8/16/2021 3:45:00 PM 22.57 72.626 0.154 6.85 103.28 0.05
8/16/2021 4:00:00 PM 22.58 72.644 0.157 6.88 84.63 0.05
8/16/2021 4:15:00 PM 22.59 72.662 0.157 6.9 76.2 0.05
8/16/2021 4:30:00 PM 22.6 72.68 0.158 6.91 75.59 0.05
8/16/2021 4:45:00 PM 22.61 72.698 0.158 6.88 75.17 0.04
8/16/2021 5:00:00 PM 22.62 72.716 0.158 6.89 74.1 0.05
8/16/2021 5:15:00 PM 22.63 72.734 0.159 6.89 70.76 0.05
8/16/2021 5:30:00 PM 22.64 72.752 0.159 6.88 70.65 0.04
8/16/2021 5:45:00 PM 22.65 72.77 0.159 6.88 68.42 0.04
8/16/2021 6:00:00 PM 22.66 72.788 0.16 6.86 69.36 0.04
8/16/2021 6:15:00 PM 22.67 72.806 0.162 6.85 73.71 0.04
8/16/2021 6:30:00 PM 22.67 72.806 0.162 6.86 75.34 0.04
8/16/2021 6:45:00 PM 22.68 72.824 0.163 6.85 82.29 0.05
8/16/2021 7:00:00 PM 22.69 72.842 0.163 6.83 82.25 0.04
8/16/2021 7:15:00 PM 22.7 72.86 0.163 6.83 81.5 0.04
8/16/2021 7:30:00 PM 22.7 72.86 0.164 6.82 78.74 0.04
8/16/2021 7:45:00 PM 22.72 72.896 0.164 6.83 77.2 0.04
8/16/2021 8:00:00 PM 22.72 72.896 0.164 6.82 76.98 0.05
8/16/2021 8:15:00 PM 22.73 72.914 0.164 6.83 75.49 0.05
8/16/2021 8:30:00 PM 22.73 72.914 0.165 6.83 76.74 0.05
8/16/2021 8:45:00 PM 22.74 72.932 0.165 6.83 77.57 0.04
8/16/2021 9:00:00 PM 22.75 72.95 0.165 6.82 76.91 0.05
8/16/2021 9:15:00 PM 22.76 72.968 0.165 6.79 76.94 0.05
8/16/2021 9:30:00 PM 22.76 72.968 0.166 6.81 77.68 0.04
8/16/2021 9:45:00 PM 22.77 72.986 0.166 6.79 77.79 0.05
8/16/2021 10:00:00 PM 22.78 73.004 0.166 6.79 74.73 0.05
8/16/2021 10:15:00 PM 22.79 73.022 0.166 6.8 76.71 0.05
8/16/2021 10:30:00 PM 22.79 73.022 0.166 6.81 77.22 0.05
8/16/2021 10:45:00 PM 22.8 73.04 0.167 6.81 77.54 0.05
8/16/2021 11:00:00 PM 22.81 73.058 0.167 6.82 76.07 0.05
8/16/2021 11:15:00 PM 22.81 73.058 0.167 6.81 75.96 0.05
8/16/2021 11:30:00 PM 22.82 73.076 0.167 6.81 76.54 0.05
8/16/2021 11:45:00 PM 22.83 73.094 0.167 6.81 78.58 0.05
8/17/2021 12:00:00 AM 22.83 73.094 0.167 6.8 78.47 0.05
8/17/2021 12:15:00 AM 22.84 73.112 0.168 6.78 78.88 0.05
8/17/2021 12:30:00 AM 22.85 73.13 0.167 6.78 79.18 0.05
8/17/2021 12:45:00 AM 22.85 73.13 0.167 6.8 78.74 0.05
8/17/2021 1:00:00 AM 22.86 73.148 0.168 6.77 77.69 0.05
8/17/2021 1:15:00 AM 22.87 73.166 0.168 6.77 80.29 0.05
8/17/2021 1:30:00 AM 22.87 73.166 0.168 6.78 76.29 0.05
8/17/2021 1:45:00 AM 22.88 73.184 0.168 6.77 77.02 0.05
8/17/2021 2:00:00 AM 22.89 73.202 0.169 6.78 77.57 0.05
8/17/2021 2:15:00 AM 22.9 73.22 0.169 6.78 82.51 0.05
8/17/2021 2:30:00 AM 22.91 73.238 0.169 6.8 87.67 0.05
8/17/2021 2:45:00 AM 22.93 73.274 0.169 6.78 91.42 0.05
8/17/2021 3:00:00 AM 22.95 73.31 0.169 6.8 90.05 0.05
8/17/2021 3:15:00 AM 22.97 73.346 0.169 6.78 90.46 0.05
8/17/2021 3:30:00 AM 23 73.4 0.169 6.81 94.12 0.05
8/17/2021 3:45:00 AM 23.02 73.436 0.168 6.8 100.92 0.05
8/17/2021 4:00:00 AM 23.04 73.472 0.168 6.79 105.26 0.05
8/17/2021 4:15:00 AM 23.06 73.508 0.169 6.8 109.71 0.05
8/17/2021 4:30:00 AM 23.08 73.544 0.169 6.81 105.79 0.05
8/17/2021 4:45:00 AM 23.09 73.562 0.169 6.81 97.32 0.05
8/17/2021 5:00:00 AM 23.1 73.58 0.169 6.83 97.45 0.05
8/17/2021 5:15:00 AM 23.11 73.598 0.169 6.82 109.71 0.05
8/17/2021 5:30:00 AM 23.11 73.598 0.169 6.84 105.05 0.05
8/17/2021 5:45:00 AM 23.11 73.598 0.168 6.83 102.77 0.05
8/17/2021 6:00:00 AM 23.1 73.58 0.168 6.84 97.32 0.05
8/17/2021 6:15:00 AM 23.09 73.562 0.168 6.82 92.38 0.05
8/17/2021 6:30:00 AM 23.07 73.526 0.168 6.82 88.35 0.05
8/17/2021 6:45:00 AM 23.05 73.49 0.167 6.83 88.18 0.05
8/17/2021 7:00:00 AM 23.03 73.454 0.167 6.83 89.1 0.05
8/17/2021 7:15:00 AM 23.01 73.418 0.167 6.8 90.48 0.05
8/17/2021 7:30:00 AM 22.99 73.382 0.167 6.8 91.49 0.05
8/17/2021 7:45:00 AM 22.97 73.346 0.167 6.81 96.9 0.05
8/17/2021 8:00:00 AM 22.94 73.292 0.167 6.81 132.95 0.05
8/17/2021 8:15:00 AM 22.91 73.238 0.168 6.79 143.83 0.05
8/17/2021 8:30:00 AM 22.89 73.202 0.167 6.79 120.13 0.05
8/17/2021 8:45:00 AM 22.86 73.148 0.168 6.79 113.01 0.05
8/17/2021 9:00:00 AM 22.84 73.112 0.167 6.76 119.06 0.05
8/17/2021 9:15:00 AM 22.81 73.058 0.167 6.77 126.21 0.05
8/17/2021 9:30:00 AM 22.79 73.022 0.166 6.76 110.72 0.05
8/17/2021 9:45:00 AM 22.77 72.986 0.166 6.76 92.71 0.05
8/17/2021 10:00:00 AM 22.75 72.95 0.165 6.74 88.18 0.05
8/17/2021 10:15:00 AM 22.73 72.914 0.165 6.76 90.67 0.05
8/17/2021 10:30:00 AM 22.71 72.878 0.164 6.74 101.41 0.05
8/17/2021 10:45:00 AM 22.69 72.842 0.164 6.75 103.13 0.05
8/17/2021 11:00:00 AM 22.67 72.806 0.163 6.74 82.42 0.05
8/17/2021 11:15:00 AM 22.65 72.77 0.162 6.73 86.83 0.05
8/17/2021 11:30:00 AM 22.63 72.734 0.163 6.73 79.89 0.05
8/17/2021 11:45:00 AM 22.62 72.716 0.162 6.72 82.99 0.05
8/17/2021 12:00:00 PM 22.6 72.68 0.163 6.69 82.42 0.05
8/17/2021 12:15:00 PM 22.59 72.662 0.163 6.7 79.72 0.05
8/17/2021 12:30:00 PM 22.57 72.626 0.162 6.72 79.23 0.05
8/17/2021 12:45:00 PM 22.56 72.608 0.162 6.71 80.68 0.05
8/17/2021 1:00:00 PM 22.56 72.608 0.161 6.72 78.08 0.05
8/17/2021 1:15:00 PM 22.55 72.59 0.161 6.71 79.3 0.05
8/17/2021 1:30:00 PM 22.54 72.57201 0.161 6.73 78.19 0.05
8/17/2021 1:45:00 PM 22.54 72.57201 0.161 6.7 81.35 0.05
8/17/2021 2:00:00 PM 22.54 72.57201 0.161 6.71 78 0.05
8/17/2021 2:15:00 PM 22.54 72.57201 0.162 6.74 78.2 0.05
8/17/2021 2:30:00 PM 22.53 72.554 0.162 6.73 77.56 0.05
8/17/2021 2:45:00 PM 22.53 72.554 0.162 6.75 74.23 0.05
8/17/2021 3:00:00 PM 22.53 72.554 0.162 6.75 73.02 0.05
8/17/2021 3:15:00 PM 22.52 72.536 0.161 6.77 70.19 0.05
8/17/2021 3:30:00 PM 22.52 72.536 0.162 6.76 70.86 0.05
8/17/2021 3:45:00 PM 22.53 72.554 0.162 6.76 70.95 0.05
8/17/2021 4:00:00 PM 22.53 72.554 0.162 6.77 70.5 0.05
8/17/2021 4:15:00 PM 22.53 72.554 0.162 6.78 71.03 0.05
8/17/2021 4:30:00 PM 22.54 72.57201 0.162 6.78 69.82 0.05
8/17/2021 4:45:00 PM 22.55 72.59 0.162 6.78 69.41 0.05
8/17/2021 5:00:00 PM 22.55 72.59 0.161 6.77 68.51 0.05
8/17/2021 5:15:00 PM 22.56 72.608 0.161 6.75 70.87 0.05
8/17/2021 5:30:00 PM 22.57 72.626 0.161 6.78 68.03 0.05
8/17/2021 5:45:00 PM 22.58 72.644 0.161 6.78 72.26 0.05
8/17/2021 6:00:00 PM 22.59 72.662 0.161 6.78 69.04 0.05
8/17/2021 6:15:00 PM 22.59 72.662 0.161 6.78 69.98 0.05
8/17/2021 6:30:00 PM 22.6 72.68 0.161 6.8 72.9 0.05
8/17/2021 6:45:00 PM 22.6 72.68 0.161 6.8 74.35 0.05
8/17/2021 7:00:00 PM 22.61 72.698 0.161 6.8 67.87 0.05
8/17/2021 7:15:00 PM 22.61 72.698 0.161 6.8 78.97 0.05
8/17/2021 7:30:00 PM 22.61 72.698 0.16 6.8 75.23 0.05
8/17/2021 7:45:00 PM 22.62 72.716 0.16 6.8 64.47 0.05
8/17/2021 8:00:00 PM 22.62 72.716 0.16 6.81 71.78 0.05
8/17/2021 8:15:00 PM 22.63 72.734 0.159 6.79 73.99 0.05
8/17/2021 8:30:00 PM 22.63 72.734 0.159 6.79 79.59 0.05
8/17/2021 8:45:00 PM 22.64 72.752 0.159 6.8 76.05 0.05
8/17/2021 9:00:00 PM 22.64 72.752 0.158 6.8 66.22 0.05
8/17/2021 9:15:00 PM 22.65 72.77 0.158 6.79 60.66 0.05
8/17/2021 9:30:00 PM 22.66 72.788 0.158 6.79 63.23 0.05
8/17/2021 9:45:00 PM 22.66 72.788 0.158 6.79 68.08 0.05
8/17/2021 10:00:00 PM 22.67 72.806 0.158 6.77 64.58 0.05
8/17/2021 10:15:00 PM 22.68 72.824 0.157 6.82 62.43 0.05
8/17/2021 10:30:00 PM 22.68 72.824 0.158 6.79 69.9 0.05
8/17/2021 10:45:00 PM 22.69 72.842 0.157 6.79 62.63 0.05
8/17/2021 11:00:00 PM 22.7 72.86 0.158 6.79 67.66 0.05
8/17/2021 11:15:00 PM 22.7 72.86 0.157 6.79 75.1 0.05
8/17/2021 11:30:00 PM 22.7 72.86 0.158 6.79 86.55 0.05
8/17/2021 11:45:00 PM 22.71 72.878 0.157 6.81 92.63 0.05
8/18/2021 12:00:00 AM 22.71 72.878 0.157 6.8 94.51 0.05
8/18/2021 12:15:00 AM 22.71 72.878 0.157 6.78 74.69 0.05
8/18/2021 12:30:00 AM 22.71 72.878 0.156 6.82 68.62 0.05
8/18/2021 12:45:00 AM 22.72 72.896 0.155 6.77 68.43 0.05
8/18/2021 1:00:00 AM 22.72 72.896 0.155 6.77 77.95 0.05
8/18/2021 1:15:00 AM 22.73 72.914 0.153 6.8 75.92 0.05
8/18/2021 1:30:00 AM 22.74 72.932 0.154 6.79 73.2 0.05
8/18/2021 1:45:00 AM 22.75 72.95 0.153 6.75 67.42 0.05
8/18/2021 2:00:00 AM 22.77 72.986 0.153 6.76 61.6 0.05
8/18/2021 2:15:00 AM 22.78 73.004 0.152 6.76 60.01 0.05
8/18/2021 2:30:00 AM 22.79 73.022 0.152 6.78 64.83 0.05
8/18/2021 2:45:00 AM 22.81 73.058 0.152 6.75 66.96 0.05
8/18/2021 3:00:00 AM 22.82 73.076 0.152 6.79 62.5 0.05
8/18/2021 3:15:00 AM 22.84 73.112 0.153 6.76 57.41 0.05
8/18/2021 3:30:00 AM 22.85 73.13 0.153 6.75 60.25 0.05
8/18/2021 3:45:00 AM 22.86 73.148 0.153 6.76 61.09 0.05
8/18/2021 4:00:00 AM 22.86 73.148 0.154 6.78 67.81 0.05
8/18/2021 4:15:00 AM 22.87 73.166 0.154 6.8 55.8 0.05
8/18/2021 4:30:00 AM 22.87 73.166 0.155 6.81 45.64 0.05
8/18/2021 4:45:00 AM 22.87 73.166 0.155 6.85 49.04 0.05
8/18/2021 5:00:00 AM 22.87 73.166 0.156 6.85 66.54 0.05
8/18/2021 5:15:00 AM 22.87 73.166 0.156 6.86 59.38 0.05
8/18/2021 5:30:00 AM 22.86 73.148 0.157 6.84 61.47 0.05
8/18/2021 5:45:00 AM 22.85 73.13 0.157 6.84 52.42 0.05
8/18/2021 6:00:00 AM 22.84 73.112 0.158 6.78 94.99 0.05
8/18/2021 6:15:00 AM 22.83 73.094 0.158 6.82 71.94 0.05
8/18/2021 6:30:00 AM 22.81 73.058 0.158 6.8 78.73 0.05
8/18/2021 6:45:00 AM 22.8 73.04 0.158 6.81 82.15 0.05
8/18/2021 7:00:00 AM 22.78 73.004 0.159 6.83 92.6 0.05
8/18/2021 7:15:00 AM 22.76 72.968 0.159 6.79 99.84 0.05
8/18/2021 7:30:00 AM 22.74 72.932 0.159 6.8 93.6 0.05
8/18/2021 7:45:00 AM 22.72 72.896 0.159 6.84 96.77 0.05
8/18/2021 8:00:00 AM 22.71 72.878 0.159 6.81 88.28 0.05
8/18/2021 8:15:00 AM 22.69 72.842 0.159 6.82 100.01 0.05
8/18/2021 8:30:00 AM 22.68 72.824 0.158 6.84 81.62 0.05
8/18/2021 8:45:00 AM 22.66 72.788 0.158 6.85 72.24 0.05
8/18/2021 9:00:00 AM 22.65 72.77 0.157 6.9 70.82 0.05
8/18/2021 9:15:00 AM 22.63 72.734 0.158 6.87 87.32 0.05
8/18/2021 9:30:00 AM 22.62 72.716 0.158 6.89 82.72 0.05
8/18/2021 9:45:00 AM 22.61 72.698 0.157 6.85 88.79 0.05
8/18/2021 10:00:00 AM 22.6 72.68 0.157 6.9 83.36 0.05
8/18/2021 10:15:00 AM 22.59 72.662 0.157 6.88 81.95 0.05
8/18/2021 10:30:00 AM 22.58 72.644 0.157 6.89 72.88 0.05
8/18/2021 10:45:00 AM 22.58 72.644 0.157 6.9 80.02 0.05
8/18/2021 11:00:00 AM 22.57 72.626 0.157 6.91 68.41 0.05
8/18/2021 11:15:00 AM 22.57 72.626 0.157 6.89 79.42 0.05
8/18/2021 11:30:00 AM 22.57 72.626 0.157 6.9 76.95 0.05
8/18/2021 11:45:00 AM 22.56 72.608 0.158 6.89 75.21 0.05
8/18/2021 12:00:00 PM 22.56 72.608 0.158 6.91 75.39 0.05
8/18/2021 12:15:00 PM 22.56 72.608 0.158 6.9 78.67 0.05
8/18/2021 12:30:00 PM 22.56 72.608 0.158 6.93 66.73 0.05
8/18/2021 12:45:00 PM 22.57 72.626 0.158 6.91 63.84 0.05
8/18/2021 1:00:00 PM 22.58 72.644 0.158 6.88 78.36 0.05
8/18/2021 1:15:00 PM 22.58 72.644 0.158 6.88 69.81 0.05
8/18/2021 1:30:00 PM 22.59 72.662 0.159 6.88 61.8 0.05
8/18/2021 1:45:00 PM 22.6 72.68 0.159 6.86 65.74 0.05
8/18/2021 2:00:00 PM 22.61 72.698 0.159 6.85 67.91 0.05
8/18/2021 2:15:00 PM 22.63 72.734 0.16 6.86 62.14 0.05
8/18/2021 2:30:00 PM 22.64 72.752 0.16 6.87 63.89 0.05
8/18/2021 2:45:00 PM 22.66 72.788 0.16 6.83 60.11 0.05
8/18/2021 3:00:00 PM 22.68 72.824 0.159 6.84 60.18 0.05
8/18/2021 3:15:00 PM 22.7 72.86 0.16 6.83 56.21 0.05
8/18/2021 3:30:00 PM 22.72 72.896 0.16 6.85 66.93 0.05
8/18/2021 3:45:00 PM 22.74 72.932 0.16 6.84 63.44 0.05
8/18/2021 4:00:00 PM 22.76 72.968 0.161 6.81 65.15 0.05
8/18/2021 4:15:00 PM 22.78 73.004 0.162 6.82 68.64 0.05
8/18/2021 4:30:00 PM 22.8 73.04 0.162 6.83 69.48 0.05
8/18/2021 4:45:00 PM 22.82 73.076 0.162 6.83 65.69 0.05
8/18/2021 5:00:00 PM 22.84 73.112 0.163 6.82 64.35 0.05
8/18/2021 5:15:00 PM 22.86 73.148 0.163 6.82 67.53 0.05
8/18/2021 5:30:00 PM 22.88 73.184 0.163 6.79 68.8 0.05
8/18/2021 5:45:00 PM 22.9 73.22 0.163 6.78 68.45 0.05
8/18/2021 6:00:00 PM 22.92 73.256 0.163 6.82 71.03 0.05
8/18/2021 6:15:00 PM 22.94 73.292 0.163 6.79 69.71 0.05
8/18/2021 6:30:00 PM 22.96 73.328 0.164 6.78 67.98 0.05
8/18/2021 6:45:00 PM 22.97 73.346 0.163 6.78 75.14 0.05
8/18/2021 7:00:00 PM 22.99 73.382 0.164 6.78 70.91 0.05
8/18/2021 7:15:00 PM 23 73.4 0.164 6.77 73.81 0.05
8/18/2021 7:30:00 PM 23.02 73.436 0.164 6.79 78.95 0.05
8/18/2021 7:45:00 PM 23.04 73.472 0.165 6.79 68.03 0.05
8/18/2021 8:00:00 PM 23.04 73.472 0.164 6.8 64.14 0.05
8/18/2021 8:15:00 PM 23.06 73.508 0.164 6.82 63.25 0.05
8/18/2021 8:30:00 PM 23.08 73.544 0.165 6.83 87.92 0.05
8/18/2021 8:45:00 PM 23.11 73.598 0.165 6.83 80.88 0.05
8/18/2021 9:00:00 PM 23.13 73.634 0.165 6.84 80.66 0.05
8/18/2021 9:15:00 PM 23.15 73.67 0.165 6.85 76.5 0.05
8/18/2021 9:30:00 PM 23.17 73.706 0.165 6.85 71.06 0.05
8/18/2021 9:45:00 PM 23.2 73.76 0.165 6.89 67.6 0.05
8/18/2021 10:00:00 PM 23.23 73.814 0.164 6.89 68.47 0.05
8/18/2021 10:15:00 PM 23.26 73.868 0.166 6.88 94.22 0.05
8/18/2021 10:30:00 PM 23.29 73.922 0.166 6.88 74.06 0.05
8/18/2021 10:45:00 PM 23.31 73.958 0.167 6.88 81.63 0.05
8/18/2021 11:00:00 PM 23.33 73.994 0.167 6.85 70.76 0.05
8/18/2021 11:15:00 PM 23.36 74.048 0.167 6.84 69.47 0.05
8/18/2021 11:30:00 PM 23.38 74.084 0.167 6.85 72.26 0.05
8/18/2021 11:45:00 PM 23.4 74.12 0.167 6.85 67.21 0.05
8/19/2021 12:00:00 AM 23.43 74.174 0.168 6.87 69.84 0.05
8/19/2021 12:15:00 AM 23.45 74.21 0.168 6.86 59.95 0.05
8/19/2021 12:30:00 AM 23.47 74.246 0.168 6.87 60.23 0.05
8/19/2021 12:45:00 AM 23.48 74.264 0.168 6.87 118.54 0.05
8/19/2021 1:00:00 AM 23.5 74.3 0.168 6.85 118.37 0.05
8/19/2021 1:15:00 AM 23.5 74.3 0.168 6.88 108.5 0.05
8/19/2021 1:30:00 AM 23.5 74.3 0.169 6.88 84.14 0.05
8/19/2021 1:45:00 AM 23.49 74.282 0.169 6.86 89.16 0.05
8/19/2021 2:00:00 AM 23.48 74.264 0.169 6.86 71.4 0.05
8/19/2021 2:15:00 AM 23.46 74.228 0.17 6.85 90.01 0.05
8/19/2021 2:30:00 AM 23.43 74.174 0.17 6.87 95.89 0.05
8/19/2021 2:45:00 AM 23.4 74.12 0.17 6.87 102.73 0.05
8/19/2021 3:00:00 AM 23.37 74.066 0.169 6.87 139.87 0.05
8/19/2021 3:15:00 AM 23.34 74.012 0.17 6.85 213.74 0.05
8/19/2021 3:30:00 AM 23.31 73.958 0.171 6.85 129.06 0.05
8/19/2021 3:45:00 AM 23.28 73.904 0.171 6.84 98.98 0.05
8/19/2021 4:00:00 AM 23.25 73.85 0.169 6.83 98.8 0.05
8/19/2021 4:15:00 AM 23.22 73.796 0.17 6.84 133.41 0.05
8/19/2021 4:30:00 AM 23.19 73.742 0.17 6.85 105.65 0.05
8/19/2021 4:45:00 AM 23.16 73.688 0.171 6.81 98.61 0.05
8/19/2021 5:00:00 AM 23.13 73.634 0.171 6.83 80.38 0.05
8/19/2021 5:15:00 AM 23.11 73.598 0.172 6.84 107.13 0.05
8/19/2021 5:30:00 AM 23.08 73.544 0.172 6.81 118.31 0.05
8/19/2021 5:45:00 AM 23.05 73.49 0.172 6.82 92.94 0.05
8/19/2021 6:00:00 AM 23.03 73.454 0.172 6.79 90.89 0.05
8/19/2021 6:15:00 AM 23.01 73.418 0.172 6.81 107.54 0.05
8/19/2021 6:30:00 AM 22.98 73.364 0.173 6.81 104.85 0.05
8/19/2021 6:45:00 AM 22.96 73.328 0.173 6.81 94.63 0.05
8/19/2021 7:00:00 AM 22.94 73.292 0.173 6.79 84.7 0.05
8/19/2021 7:15:00 AM 22.92 73.256 0.173 6.81 76.28 0.05
8/19/2021 7:30:00 AM 22.9 73.22 0.172 6.82 87.5 0.05
8/19/2021 7:45:00 AM 22.88 73.184 0.173 6.8 91.35 0.05
8/19/2021 8:00:00 AM 22.86 73.148 0.174 6.8 68.37 0.05
8/19/2021 8:15:00 AM 22.85 73.13 0.174 6.8 53.17 0.05
8/19/2021 8:30:00 AM 22.84 73.112 0.173 6.82 76.44 0.05
8/19/2021 8:45:00 AM 22.83 73.094 0.173 6.8 85.31 0.05
8/19/2021 9:00:00 AM 22.82 73.076 0.174 6.81 87.52 0.05
8/19/2021 9:15:00 AM 22.81 73.058 0.174 6.79 149.77 0.05
8/19/2021 9:30:00 AM 22.81 73.058 0.174 6.79 112.86 0.05
8/19/2021 9:45:00 AM 22.8 73.04 0.175 6.8 100.5 0.05
8/19/2021 10:00:00 AM 22.8 73.04 0.174 6.79 73.34 0.05
8/19/2021 10:15:00 AM 22.8 73.04 0.173 6.8 76.78 0.05
8/19/2021 10:30:00 AM 22.8 73.04 0.173 6.78 66.69 0.05
8/19/2021 10:45:00 AM 22.8 73.04 0.173 6.78 76.66 0.05
8/19/2021 11:00:00 AM 22.81 73.058 0.172 6.79 90.82 0.05
8/19/2021 11:15:00 AM 22.82 73.076 0.172 6.78 67.66 0.05
8/19/2021 11:30:00 AM 22.82 73.076 0.172 6.8 69.65 0.05
8/19/2021 11:45:00 AM 22.83 73.094 0.171 6.81 75.28 0.05
8/19/2021 12:00:00 PM 22.84 73.112 0.171 6.82 58.18 0.05
8/19/2021 12:15:00 PM 22.85 73.13 0.171 6.79 72.57 0.05
8/19/2021 12:30:00 PM 22.86 73.148 0.171 6.79 68.65 0.05
8/19/2021 12:45:00 PM 22.87 73.166 0.171 6.81 65.29 0.05
8/19/2021 1:00:00 PM 22.88 73.184 0.17 6.8 59.73 0.05
8/19/2021 1:15:00 PM 22.89 73.202 0.171 6.84 54.27 0.05
8/19/2021 1:30:00 PM 22.9 73.22 0.17 6.83 68.53 0.05
8/19/2021 1:45:00 PM 22.91 73.238 0.169 6.83 60.73 0.05
8/19/2021 2:00:00 PM 22.93 73.274 0.169 6.84 80.42 0.05
8/19/2021 2:15:00 PM 22.94 73.292 0.169 6.86 90.33 0.05
8/19/2021 2:30:00 PM 22.97 73.346 0.169 6.82 103.14 0.05
8/19/2021 2:45:00 PM 22.99 73.382 0.169 6.82 93.41 0.05
8/19/2021 3:00:00 PM 23.01 73.418 0.17 6.83 117.2 0.05
8/19/2021 3:15:00 PM 23.03 73.454 0.169 6.84 94.26 0.05
8/19/2021 3:30:00 PM 23.05 73.49 0.169 6.83 156.7 0.05
8/19/2021 3:45:00 PM 23.07 73.526 0.169 6.86 94.87 0.05
8/19/2021 4:00:00 PM 23.09 73.562 0.168 6.85 94.34 0.05
8/19/2021 4:15:00 PM 23.12 73.616 0.168 6.86 138.2 0.05
8/19/2021 4:30:00 PM 23.14 73.652 0.166 6.86 109.15 0.05
8/19/2021 4:45:00 PM 23.16 73.688 0.166 6.89 183.37 0.05
8/19/2021 5:00:00 PM 23.19 73.742 0.166 6.88 89.02 0.05
8/19/2021 5:15:00 PM 23.21 73.778 0.166 6.94 111.87 0.05
8/19/2021 5:30:00 PM 23.24 73.832 0.166 6.89 111.99 0.05
8/19/2021 5:45:00 PM 23.27 73.886 0.166 6.93 92.82 0.05
8/19/2021 6:00:00 PM 23.3 73.94 0.165 6.88 75.69 0.05
8/19/2021 6:15:00 PM 23.33 73.994 0.164 6.94 95.26 0.05
8/19/2021 6:30:00 PM 23.35 74.03 0.164 6.9 95.82 0.05
8/19/2021 6:45:00 PM 23.37 74.066 0.164 6.89 89.17 0.05
8/19/2021 7:00:00 PM 23.38 74.084 0.164 6.96 86.45 0.05
8/19/2021 7:15:00 PM 23.4 74.12 0.164 6.95 60.98 0.05
8/19/2021 7:30:00 PM 23.41 74.138 0.163 6.94 87.95 0.05
8/19/2021 7:45:00 PM 23.42 74.156 0.162 6.96 94.44 0.05
8/19/2021 8:00:00 PM 23.43 74.174 0.161 6.94 97.7 0.05
8/19/2021 8:15:00 PM 23.44 74.192 0.161 6.95 76.85 0.05
8/19/2021 8:30:00 PM 23.45 74.21 0.16 6.94 75.02 0.05
8/19/2021 8:45:00 PM 23.45 74.21 0.159 6.97 85.37 0.05
8/19/2021 9:00:00 PM 23.46 74.228 0.16 6.98 73.36 0.05
8/19/2021 9:15:00 PM 23.47 74.246 0.161 7 81.5 0.05
8/19/2021 9:30:00 PM 23.47 74.246 0.161 6.99 86.84 0.05
8/19/2021 9:45:00 PM 23.47 74.246 0.16 7.05 64.21 0.05
8/19/2021 10:00:00 PM 23.47 74.246 0.159 7.04 51.92 0.05
8/19/2021 10:15:00 PM 23.46 74.228 0.156 6.96 86.36 0.05
8/19/2021 10:30:00 PM 23.45 74.21 0.156 7.02 97.42 0.05
8/19/2021 10:45:00 PM 23.44 74.192 0.157 7.05 91.26 0.05
8/19/2021 11:00:00 PM 23.42 74.156 0.157 7.04 86.01 0.05
8/19/2021 11:15:00 PM 23.4 74.12 0.157 7.13 89.4 0.05
8/19/2021 11:30:00 PM 23.38 74.084 0.157 7.16 70.92 0.05
8/19/2021 11:45:00 PM 23.35 74.03 0.157 7.02 96.94 0.05
8/20/2021 12:00:00 AM 23.33 73.994 0.157 7.12 79.39 0.05
8/20/2021 12:15:00 AM 23.3 73.94 0.157 7.13 97.58 0.05
8/20/2021 12:30:00 AM 23.26 73.868 0.158 7.18 171.03 0.05
8/20/2021 12:45:00 AM 23.23 73.814 0.158 7.2 138.22 0.05
8/20/2021 1:00:00 AM 23.2 73.76 0.157 7.18 133.73 0.05
8/20/2021 1:15:00 AM 23.16 73.688 0.158 7.23 108.98 0.05
8/20/2021 1:30:00 AM 23.12 73.616 0.158 7.32 77.92 0.05
8/20/2021 1:45:00 AM 23.08 73.544 0.158 7.43 83.54 0.05
8/20/2021 2:00:00 AM 23.04 73.472 0.158 7.39 83.01 0.05
8/20/2021 2:15:00 AM 23 73.4 0.159 7.41 142.35 0.05
8/20/2021 2:30:00 AM 22.96 73.328 0.158 7.69 88.96 0.05
8/20/2021 2:45:00 AM 22.93 73.274 0.159 7.43 86.67 0.05
8/20/2021 3:00:00 AM 22.9 73.22 0.161 7.51 124.8 0.05
8/20/2021 3:15:00 AM 22.87 73.166 0.161 7.26 89.1 0.05
8/20/2021 3:30:00 AM 22.84 73.112 0.161 7.03 85.2 0.05
8/20/2021 3:45:00 AM 22.81 73.058 0.162 7 106.39 0.05
8/20/2021 4:00:00 AM 22.79 73.022 0.163 6.99 138.53 0.05
8/20/2021 4:15:00 AM 22.77 72.986 0.163 7.29 90.91 0.05
8/20/2021 4:30:00 AM 22.75 72.95 0.164 7.11 113.56 0.05
8/20/2021 4:45:00 AM 22.73 72.914 0.164 6.95 98.77 0.05
8/20/2021 5:00:00 AM 22.71 72.878 0.163 6.88 73.85 0.05
8/20/2021 5:15:00 AM 22.69 72.842 0.162 6.88 46.54 0.05
8/20/2021 5:30:00 AM 22.67 72.806 0.161 6.94 75.79 0.05
8/20/2021 5:45:00 AM 22.65 72.77 0.163 6.92 101.52 0.05
8/20/2021 6:00:00 AM 22.64 72.752 0.164 6.97 107 0.05
8/20/2021 6:15:00 AM 22.62 72.716 0.165 6.93 205.38 0.05
8/20/2021 6:30:00 AM 22.6 72.68 0.164 6.89 72.16 0.05
8/20/2021 6:45:00 AM 22.59 72.662 0.165 6.85 74.77 0.05
8/20/2021 7:00:00 AM 22.57 72.626 0.164 6.85 65.33 0.05
8/20/2021 7:15:00 AM 22.56 72.608 0.163 6.84 65.61 0.05
8/20/2021 7:30:00 AM 22.55 72.59 0.164 6.85 64.73 0.05
8/20/2021 7:45:00 AM 22.54 72.57201 0.164 6.84 98.46 0.05
8/20/2021 8:00:00 AM 22.53 72.554 0.165 6.8 93.65 0.05
8/20/2021 8:15:00 AM 22.52 72.536 0.165 6.81 101.75 0.05
8/20/2021 8:30:00 AM 22.51 72.518 0.166 6.81 133.44 0.05
8/20/2021 8:45:00 AM 22.51 72.518 0.166 6.78 120.76 0.05
8/20/2021 9:00:00 AM 22.5 72.5 0.166 6.83 105.75 0.05
8/20/2021 9:15:00 AM 22.5 72.5 0.165 6.79 121.7 0.05
8/20/2021 9:30:00 AM 22.51 72.518 0.165 6.78 54.39 0.05
8/20/2021 9:45:00 AM 22.51 72.518 0.165 6.78 82.85 0.05
8/20/2021 10:00:00 AM 22.51 72.518 0.165 6.76 175.9 0.05
8/20/2021 10:15:00 AM 22.53 72.554 0.166 6.75 117.71 0.05
8/20/2021 10:30:00 AM 22.54 72.57201 0.165 6.75 86.6 0.05
8/20/2021 10:45:00 AM 22.55 72.59 0.166 6.78 88.49 0.05
8/20/2021 11:00:00 AM 22.57 72.626 0.166 6.74 107.66 0.05
8/20/2021 11:15:00 AM 22.59 72.662 0.166 6.79 98.68 0.05
8/20/2021 11:30:00 AM 22.61 72.698 0.166 6.78 88.93 0.05
8/20/2021 11:45:00 AM 22.63 72.734 0.166 6.8 91.99 0.05
8/20/2021 12:00:00 PM 22.66 72.788 0.167 6.77 103.69 0.05
8/20/2021 12:15:00 PM 22.69 72.842 0.167 6.8 111.9 0.05
8/20/2021 12:30:00 PM 22.73 72.914 0.167 6.83 114.22 0.05
8/20/2021 12:45:00 PM 22.77 72.986 0.167 6.82 96.69 0.05
8/20/2021 1:00:00 PM 22.8 73.04 0.168 6.83 104.78 0.05
8/20/2021 1:15:00 PM 22.84 73.112 0.168 6.81 85.14 0.05
8/20/2021 1:30:00 PM 22.88 73.184 0.168 6.83 71.45 0.05
8/20/2021 1:45:00 PM 22.91 73.238 0.168 6.83 100.69 0.05
8/20/2021 2:00:00 PM 22.96 73.328 0.169 6.82 86.36 0.05
8/20/2021 2:15:00 PM 22.99 73.382 0.169 6.87 83.79 0.05
8/20/2021 2:30:00 PM 23.03 73.454 0.169 6.87 68.93 0.05
8/20/2021 2:45:00 PM 23.07 73.526 0.169 6.89 95.7 0.05
8/20/2021 3:00:00 PM 23.11 73.598 0.169 6.89 86.02 0.05
8/20/2021 3:15:00 PM 23.15 73.67 0.169 6.91 75.8 0.05
8/20/2021 3:30:00 PM 23.19 73.742 0.169 6.92 71.66 0.05
8/20/2021 3:45:00 PM 23.23 73.814 0.169 6.88 81.74 0.05
8/20/2021 4:00:00 PM 23.28 73.904 0.169 6.9 88.33 0.05
8/20/2021 4:15:00 PM 23.32 73.976 0.169 6.95 87.21 0.05
8/20/2021 4:30:00 PM 23.36 74.048 0.169 6.97 95.11 0.05
8/20/2021 4:45:00 PM 23.4 74.12 0.169 6.97 94.19 0.05
8/20/2021 5:00:00 PM 23.44 74.192 0.17 6.98 72.98 0.05
8/20/2021 5:15:00 PM 23.47 74.246 0.169 6.99 75.27 0.05
8/20/2021 5:30:00 PM 23.5 74.3 0.169 6.99 83.17 0.05
8/20/2021 5:45:00 PM 23.52 74.336 0.169 6.99 81.07 0.05
8/20/2021 6:00:00 PM 23.54 74.372 0.17 7 91.91 0.05
8/20/2021 6:15:00 PM 23.56 74.408 0.17 7.01 95.25 0.05
8/20/2021 6:30:00 PM 23.58 74.444 0.17 7.01 100.52 0.05
8/20/2021 6:45:00 PM 23.59 74.462 0.17 7.01 89.96 0.05
8/20/2021 7:00:00 PM 23.6 74.48 0.17 6.98 92.01 0.05
8/20/2021 7:15:00 PM 23.6 74.48 0.17 7.02 88.04 0.05
8/20/2021 7:30:00 PM 23.6 74.48 0.17 6.97 90.48 0.05
8/20/2021 7:45:00 PM 23.59 74.462 0.17 6.99 90.06 0.05
8/20/2021 8:00:00 PM 23.59 74.462 0.171 6.99 98.57 0.05
8/20/2021 8:15:00 PM 23.58 74.444 0.171 6.99 102.42 0.05
8/20/2021 8:30:00 PM 23.57 74.426 0.171 6.99 99.29 0.05
8/20/2021 8:45:00 PM 23.55 74.39 0.171 6.98 95.12 0.05
8/20/2021 9:00:00 PM 23.54 74.372 0.171 6.95 88.01 0.05
8/20/2021 9:15:00 PM 23.52 74.336 0.171 6.98 81.45 0.05
8/20/2021 9:30:00 PM 23.5 74.3 0.171 6.96 70.48 0.05
8/20/2021 9:45:00 PM 23.48 74.264 0.17 6.95 86.08 0.05
8/20/2021 10:00:00 PM 23.46 74.228 0.171 6.98 97.01 0.05
8/20/2021 10:15:00 PM 23.44 74.192 0.17 6.95 99.39 0.05
8/20/2021 10:30:00 PM 23.42 74.156 0.171 6.93 90.5 0.05
8/20/2021 10:45:00 PM 23.4 74.12 0.17 6.92 92.37 0.05
8/20/2021 11:00:00 PM 23.37 74.066 0.17 6.92 84.22 0.05
8/20/2021 11:15:00 PM 23.35 74.03 0.17 6.91 84.62 0.05
8/20/2021 11:30:00 PM 23.32 73.976 0.169 6.91 80.85 0.05
8/20/2021 11:45:00 PM 23.3 73.94 0.169 6.9 78.06 0.05
8/21/2021 12:00:00 AM 23.27 73.886 0.169 6.9 83.6 0.05
8/21/2021 12:15:00 AM 23.25 73.85 0.167 6.91 87.6 0.05
8/21/2021 12:30:00 AM 23.23 73.814 0.167 6.9 94.91 0.05
8/21/2021 12:45:00 AM 23.21 73.778 0.168 6.89 92.73 0.05
8/21/2021 1:00:00 AM 23.19 73.742 0.167 6.89 96.25 0.05
8/21/2021 1:15:00 AM 23.16 73.688 0.168 6.87 88.35 0.05
8/21/2021 1:30:00 AM 23.14 73.652 0.166 6.86 86.38 0.05
8/21/2021 1:45:00 AM 23.12 73.616 0.167 6.84 91.66 0.05
8/21/2021 2:00:00 AM 23.1 73.58 0.167 6.86 92.67 0.05
8/21/2021 2:15:00 AM 23.09 73.562 0.167 6.83 78.66 0.05
8/21/2021 2:30:00 AM 23.07 73.526 0.168 6.83 85.93 0.05
8/21/2021 2:45:00 AM 23.05 73.49 0.167 6.84 91.61 0.05
8/21/2021 3:00:00 AM 23.03 73.454 0.168 6.84 92.56 0.05
8/21/2021 3:15:00 AM 23.02 73.436 0.167 6.83 87.13 0.05
8/21/2021 3:30:00 AM 23 73.4 0.168 6.84 109.99 0.05
8/21/2021 3:45:00 AM 22.98 73.364 0.168 6.82 89.63 0.05
8/21/2021 4:00:00 AM 22.97 73.346 0.168 6.83 108.26 0.05
8/21/2021 4:15:00 AM 22.95 73.31 0.168 6.82 81.53 0.05
8/21/2021 4:30:00 AM 22.94 73.292 0.168 6.82 105.69 0.05
8/21/2021 4:45:00 AM 22.92 73.256 0.168 6.82 67.07 0.05
8/21/2021 5:00:00 AM 22.91 73.238 0.167 6.8 83.88 0.05
8/21/2021 5:15:00 AM 22.9 73.22 0.167 6.8 91.85 0.05
8/21/2021 5:30:00 AM 22.88 73.184 0.166 6.79 80.65 0.05
8/21/2021 5:45:00 AM 22.87 73.166 0.165 6.77 97.67 0.05
8/21/2021 6:00:00 AM 22.85 73.13 0.165 6.78 102.42 0.05
8/21/2021 6:15:00 AM 22.84 73.112 0.165 6.77 103.48 0.05
8/21/2021 6:30:00 AM 22.82 73.076 0.165 6.76 92.21 0.05
8/21/2021 6:45:00 AM 22.81 73.058 0.165 6.76 90.8 0.05
8/21/2021 7:00:00 AM 22.8 73.04 0.164 6.76 78.5 0.05
8/21/2021 7:15:00 AM 22.79 73.022 0.164 6.75 69.74 0.05
8/21/2021 7:30:00 AM 22.78 73.004 0.164 6.76 89.37 0.05
8/21/2021 7:45:00 AM 22.77 72.986 0.162 6.76 95.74 0.05
8/21/2021 8:00:00 AM 22.76 72.968 0.161 6.75 93.53 0.05
8/21/2021 8:15:00 AM 22.75 72.95 0.161 6.75 66.13 0.05
8/21/2021 8:30:00 AM 22.74 72.932 0.16 6.75 81.4 0.05
8/21/2021 8:45:00 AM 22.73 72.914 0.159 6.74 88.39 0.05
8/21/2021 9:00:00 AM 22.72 72.896 0.159 6.75 88.65 0.05
8/21/2021 9:15:00 AM 22.71 72.878 0.159 6.75 92.61 0.05
8/21/2021 9:30:00 AM 22.71 72.878 0.158 6.73 95.75 0.05
8/21/2021 9:45:00 AM 22.7 72.86 0.157 6.75 73.13 0.05
8/21/2021 10:00:00 AM 22.7 72.86 0.158 6.75 68.17 0.05
8/21/2021 10:15:00 AM 22.7 72.86 0.158 6.76 81.5 0.05
8/21/2021 10:30:00 AM 22.69 72.842 0.157 6.73 85.05 0.05
8/21/2021 10:45:00 AM 22.69 72.842 0.157 6.73 97.41 0.05
8/21/2021 11:00:00 AM 22.69 72.842 0.157 6.72 85.34 0.05
8/21/2021 11:15:00 AM 22.69 72.842 0.157 6.73 119.62 0.05
8/21/2021 11:30:00 AM 22.7 72.86 0.157 6.73 191.05 0.05
8/21/2021 11:45:00 AM 22.71 72.878 0.157 6.75 179.08 0.05
8/21/2021 12:00:00 PM 22.72 72.896 0.157 6.74 207.07 0.05
8/21/2021 12:15:00 PM 22.74 72.932 0.157 6.78 107.81 0.05
8/21/2021 12:30:00 PM 22.75 72.95 0.157 6.76 114.25 0.05
8/21/2021 12:45:00 PM 22.77 72.986 0.157 6.77 82.2 0.05
8/21/2021 1:00:00 PM 22.79 73.022 0.156 6.8 100.92 0.05
8/21/2021 1:15:00 PM 22.82 73.076 0.157 6.8 88.81 0.05
8/21/2021 1:30:00 PM 22.85 73.13 0.156 6.82 89.06 0.05
8/21/2021 1:45:00 PM 22.88 73.184 0.156 6.83 104.19 0.05
8/21/2021 2:00:00 PM 22.91 73.238 0.156 6.84 97.78 0.05
8/21/2021 2:15:00 PM 22.95 73.31 0.155 6.84 97.81 0.05
8/21/2021 2:30:00 PM 22.98 73.364 0.155 6.82 94.04 0.05
8/21/2021 2:45:00 PM 23.01 73.418 0.156 6.86 163.45 0.05
8/21/2021 3:00:00 PM 23.05 73.49 0.156 6.82 143.48 0.05
8/21/2021 3:15:00 PM 23.09 73.562 0.157 6.86 154.15 0.05
8/21/2021 3:30:00 PM 23.13 73.634 0.157 6.84 177.55 0.05
8/21/2021 3:45:00 PM 23.17 73.706 0.157 6.84 221.52 0.05
8/21/2021 4:00:00 PM 23.21 73.778 0.157 6.88 228.71 0.05
8/21/2021 4:15:00 PM 23.25 73.85 0.157 6.88 258.2 0.05
8/21/2021 4:30:00 PM 23.29 73.922 0.157 6.9 191.03 0.05
8/21/2021 4:45:00 PM 23.33 73.994 0.157 6.85 247.77 0.05
8/21/2021 5:00:00 PM 23.38 74.084 0.157 6.91 131.57 0.05
8/21/2021 5:15:00 PM 23.43 74.174 0.158 6.91 256.36 0.05
8/21/2021 5:30:00 PM 23.48 74.264 0.158 6.91 247.62 0.05
8/21/2021 5:45:00 PM 23.54 74.372 0.158 6.92 333.09 0.05
8/21/2021 6:00:00 PM 23.59 74.462 0.158 6.92 238.39 0.05
8/21/2021 6:15:00 PM 23.65 74.57 0.159 6.94 194.83 0.05
8/21/2021 6:30:00 PM 23.7 74.66 0.158 6.94 309.9 0.05
8/21/2021 6:45:00 PM 23.75 74.75 0.159 6.91 378.26 0.05
8/21/2021 7:00:00 PM 23.8 74.84 0.159 6.93 294.11 0.05
8/21/2021 7:15:00 PM 23.85 74.93 0.16 6.95 234.29 0.05
8/21/2021 7:30:00 PM 23.9 75.02 0.161 6.94 189.59 0.05
8/21/2021 7:45:00 PM 23.95 75.11 0.16 6.98 170.24 0.05
8/21/2021 8:00:00 PM 24 75.2 0.16 6.93 84.52 0.05
8/21/2021 8:15:00 PM 24.05 75.29 0.16 6.96 105.53 0.05
8/21/2021 8:30:00 PM 24.08 75.344 0.16 7 94.49 0.05
8/21/2021 8:45:00 PM 24.11 75.398 0.16 7 90.8 0.05
8/21/2021 9:00:00 PM 24.13 75.434 0.16 6.97 73.12 0.05
8/21/2021 9:15:00 PM 24.15 75.47 0.16 7.01 93.04 0.05
8/21/2021 9:30:00 PM 24.16 75.488 0.16 7.03 79.94 0.05
8/21/2021 9:45:00 PM 24.16 75.488 0.16 6.99 74.29 0.05
8/21/2021 10:00:00 PM 24.16 75.488 0.16 7.04 62.37 0.05
8/21/2021 10:15:00 PM 24.16 75.488 0.16 7.04 103.46 0.05
8/21/2021 10:30:00 PM 24.15 75.47 0.159 7.04 100.96 0.05
8/21/2021 10:45:00 PM 24.13 75.434 0.16 6.97 116.14 0.05
8/21/2021 11:00:00 PM 24.11 75.398 0.16 7.01 72.1 0.05
8/21/2021 11:15:00 PM 24.09 75.362 0.16 7.01 65.04 0.05
8/21/2021 11:30:00 PM 24.06 75.308 0.159 7.01 76.39 0.05
8/21/2021 11:45:00 PM 24.03 75.254 0.159 7.01 79.09 0.05
8/22/2021 12:00:00 AM 24 75.2 0.159 7 88.38 0.05
8/22/2021 12:15:00 AM 23.96 75.128 0.16 7 85.35 0.05
8/22/2021 12:30:00 AM 23.92 75.056 0.16 6.99 83.53 0.05
8/22/2021 12:45:00 AM 23.89 75.002 0.159 6.97 111.45 0.05
8/22/2021 1:00:00 AM 23.85 74.93 0.16 6.97 81.09 0.05
8/22/2021 1:15:00 AM 23.81 74.858 0.159 6.94 105.61 0.05
8/22/2021 1:30:00 AM 23.76 74.768 0.159 6.94 54.08 0.05
8/22/2021 1:45:00 AM 23.72 74.696 0.159 6.94 61.13 0.05
8/22/2021 2:00:00 AM 23.68 74.624 0.159 6.93 90 0.05
8/22/2021 2:15:00 AM 23.64 74.552 0.159 6.93 88.73 0.05
8/22/2021 2:30:00 AM 23.6 74.48 0.159 6.87 106.06 0.05
8/22/2021 2:45:00 AM 23.56 74.408 0.159 6.92 104.39 0.05
8/22/2021 3:00:00 AM 23.53 74.354 0.159 6.88 102.88 0.05
8/22/2021 3:15:00 AM 23.49 74.282 0.159 6.91 77.15 0.05
8/22/2021 3:30:00 AM 23.46 74.228 0.158 6.9 85.98 0.05
8/22/2021 3:45:00 AM 23.43 74.174 0.158 6.9 97.8 0.05
8/22/2021 4:00:00 AM 23.4 74.12 0.157 6.88 65.13 0.05
8/22/2021 4:15:00 AM 23.38 74.084 0.157 6.88 66.64 0.05
8/22/2021 4:30:00 AM 23.35 74.03 0.157 6.88 52.05 0.05
8/22/2021 4:45:00 AM 23.32 73.976 0.156 6.86 77.38 0.05
8/22/2021 5:00:00 AM 23.3 73.94 0.157 6.86 92.14 0.05
8/22/2021 5:15:00 AM 23.28 73.904 0.156 6.83 67.87 0.05
8/22/2021 5:30:00 AM 23.26 73.868 0.155 6.84 80.86 0.05
8/22/2021 5:45:00 AM 23.23 73.814 0.155 6.86 68.88 0.05
8/22/2021 6:00:00 AM 23.21 73.778 0.155 6.83 67.58 0.05
8/22/2021 6:15:00 AM 23.19 73.742 0.154 6.84 64.11 0.05
8/22/2021 6:30:00 AM 23.17 73.706 0.153 6.85 82.3 0.05
8/22/2021 6:45:00 AM 23.15 73.67 0.153 6.79 76.24 0.05
8/22/2021 7:00:00 AM 23.13 73.634 0.153 6.82 93.95 0.05
8/22/2021 7:15:00 AM 23.11 73.598 0.152 6.81 76.79 0.05
8/22/2021 7:30:00 AM 23.09 73.562 0.153 6.82 84.13 0.05
8/22/2021 7:45:00 AM 23.07 73.526 0.152 6.81 117.38 0.05
8/22/2021 8:00:00 AM 23.05 73.49 0.152 6.82 94.58 0.05
8/22/2021 8:15:00 AM 23.04 73.472 0.151 6.8 88.37 0.05
8/22/2021 8:30:00 AM 23.02 73.436 0.152 6.83 62.31 0.05
8/22/2021 8:45:00 AM 23.01 73.418 0.15 6.81 104.86 0.05
8/22/2021 9:00:00 AM 22.99 73.382 0.15 6.82 63.77 0.05
8/22/2021 9:15:00 AM 22.98 73.364 0.148 6.82 66.99 0.05
8/22/2021 9:30:00 AM 22.97 73.346 0.149 6.81 72.72 0.05
8/22/2021 9:45:00 AM 22.96 73.328 0.149 6.81 72.39 0.05
8/22/2021 10:00:00 AM 22.96 73.328 0.148 6.82 76.22 0.05
8/22/2021 10:15:00 AM 22.95 73.31 0.147 6.82 85.37 0.05
8/22/2021 10:30:00 AM 22.95 73.31 0.146 6.81 71.04 0.05
8/22/2021 10:45:00 AM 22.95 73.31 0.146 6.8 76.98 0.05
8/22/2021 11:00:00 AM 22.95 73.31 0.146 6.81 74.62 0.05
8/22/2021 11:15:00 AM 22.94 73.292 0.145 6.81 67.65 0.05
8/22/2021 11:30:00 AM 22.94 73.292 0.145 6.78 60.88 0.05
8/22/2021 11:45:00 AM 22.94 73.292 0.144 6.82 89.2 0.05
8/22/2021 12:00:00 PM 22.94 73.292 0.143 6.82 82.3 0.05
8/22/2021 12:15:00 PM 22.94 73.292 0.143 6.82 87.94 0.05
8/22/2021 12:30:00 PM 22.94 73.292 0.142 6.83 84.59 0.05
8/22/2021 12:45:00 PM 22.95 73.31 0.142 6.84 81.64 0.05
8/22/2021 1:00:00 PM 22.95 73.31 0.142 6.85 73.5 0.05
8/22/2021 1:15:00 PM 22.96 73.328 0.142 6.85 86.87 0.05
8/22/2021 1:30:00 PM 22.97 73.346 0.142 6.85 87.68 0.05
8/22/2021 1:45:00 PM 22.98 73.364 0.142 6.85 93.14 0.05
8/22/2021 2:00:00 PM 23 73.4 0.142 6.86 74.04 0.05
8/22/2021 2:15:00 PM 23.01 73.418 0.142 6.87 74.56 0.05
8/22/2021 2:30:00 PM 23.03 73.454 0.141 6.87 107.14 0.05
8/22/2021 2:45:00 PM 23.05 73.49 0.142 6.88 99.29 0.05
8/22/2021 3:00:00 PM 23.07 73.526 0.142 6.89 152.91 0.05
8/22/2021 3:15:00 PM 23.09 73.562 0.142 6.9 77.3 0.05
8/22/2021 3:30:00 PM 23.11 73.598 0.142 6.9 113.96 0.05
8/22/2021 3:45:00 PM 23.13 73.634 0.141 6.91 138.46 0.05
8/22/2021 4:00:00 PM 23.15 73.67 0.142 6.91 102.85 0.05
8/22/2021 4:15:00 PM 23.17 73.706 0.142 6.91 123.14 0.05
8/22/2021 4:30:00 PM 23.19 73.742 0.141 6.91 91.11 0.05
8/22/2021 4:45:00 PM 23.21 73.778 0.141 6.92 87.17 0.05
8/22/2021 5:00:00 PM 23.22 73.796 0.141 6.92 89.08 0.05
8/22/2021 5:15:00 PM 23.24 73.832 0.141 6.92 53.12 0.05
8/22/2021 5:30:00 PM 23.25 73.85 0.141 6.94 55.97 0.05
8/22/2021 5:45:00 PM 23.25 73.85 0.141 6.94 79.98 0.05
8/22/2021 6:00:00 PM 23.26 73.868 0.142 6.95 95.91 0.05
8/22/2021 6:15:00 PM 23.27 73.886 0.142 6.95 72.81 0.05
8/22/2021 6:30:00 PM 23.27 73.886 0.141 6.96 68.03 0.05
8/22/2021 6:45:00 PM 23.27 73.886 0.142 6.96 95.48 0.05
8/22/2021 7:00:00 PM 23.27 73.886 0.142 6.97 93.96 0.05
8/22/2021 7:15:00 PM 23.26 73.868 0.141 6.98 131.03 0.05
8/22/2021 7:30:00 PM 23.25 73.85 0.141 6.91 126.12 0.05
8/22/2021 7:45:00 PM 23.25 73.85 0.143 6.94 164.97 0.05
8/22/2021 8:00:00 PM 23.24 73.832 0.143 6.98 135.66 0.05
8/22/2021 8:15:00 PM 23.23 73.814 0.143 6.98 165.36 0.05
8/22/2021 8:30:00 PM 23.21 73.778 0.143 6.98 78.08 0.05
8/22/2021 8:45:00 PM 23.17 73.706 0.143 7 114.37 0.05
8/22/2021 9:00:00 PM 23.14 73.652 0.143 6.97 124.97 0.05
8/22/2021 9:15:00 PM 23.12 73.616 0.142 6.94 131.39 0.05
8/22/2021 9:30:00 PM 23.1 73.58 0.143 6.97 131.08 0.05
8/22/2021 9:45:00 PM 23.08 73.544 0.141 6.94 149.1 0.05
8/22/2021 10:00:00 PM 23.06 73.508 0.142 6.92 164.83 0.05
8/22/2021 10:15:00 PM 23.03 73.454 0.142 6.96 115.72 0.05
8/22/2021 10:30:00 PM 23.01 73.418 0.142 6.91 93.9 0.05
8/22/2021 10:45:00 PM 22.99 73.382 0.142 6.93 115.54 0.05
8/22/2021 11:00:00 PM 22.96 73.328 0.141 6.89 106.98 0.05
8/22/2021 11:15:00 PM 22.94 73.292 0.141 6.89 80.75 0.05
8/22/2021 11:30:00 PM 22.91 73.238 0.141 6.89 142.69 0.05
8/22/2021 11:45:00 PM 22.89 73.202 0.14 6.88 83.66 0.05
8/23/2021 12:00:00 AM 22.86 73.148 0.141 6.87 127.89 0.05
8/23/2021 12:15:00 AM 22.84 73.112 0.14 6.9 134.96 0.05
8/23/2021 12:30:00 AM 22.81 73.058 0.14 6.87 104.14 0.05
8/23/2021 12:45:00 AM 22.78 73.004 0.14 6.86 133.5 0.05
8/23/2021 1:00:00 AM 22.76 72.968 0.14 6.88 76.08 0.05
8/23/2021 1:15:00 AM 22.73 72.914 0.14 6.86 114.18 0.05
8/23/2021 1:30:00 AM 22.7 72.86 0.141 6.87 119.77 0.05
8/23/2021 1:45:00 AM 22.66 72.788 0.141 6.87 113.34 0.05
8/23/2021 2:00:00 AM 22.61 72.698 0.14 6.85 117.69 0.05
8/23/2021 2:15:00 AM 22.58 72.644 0.141 6.82 125.07 0.05
8/23/2021 2:30:00 AM 22.55 72.59 0.141 6.82 105.57 0.05
8/23/2021 2:45:00 AM 22.53 72.554 0.14 6.81 118.4 0.05
8/23/2021 3:00:00 AM 22.5 72.5 0.14 6.82 106.38 0.05
8/23/2021 3:15:00 AM 22.47 72.446 0.14 6.79 115.17 0.05
8/23/2021 3:30:00 AM 22.44 72.392 0.14 6.78 98.09 0.05
8/23/2021 3:45:00 AM 22.41 72.338 0.14 6.78 158.43 0.05
8/23/2021 4:00:00 AM 22.37 72.266 0.141 6.79 91.7 0.05
8/23/2021 4:15:00 AM 22.34 72.212 0.141 6.78 109 0.05
8/23/2021 4:30:00 AM 22.3 72.14 0.141 6.76 63.71 0.05
8/23/2021 4:45:00 AM 22.27 72.086 0.141 6.73 85.64 0.05
8/23/2021 5:00:00 AM 22.23 72.014 0.141 6.74 100.98 0.05
8/23/2021 5:15:00 AM 22.19 71.942 0.142 6.76 107.05 0.05
8/23/2021 5:30:00 AM 22.15 71.87 0.141 6.71 61.84 0.05
8/23/2021 5:45:00 AM 22.11 71.798 0.144 6.71 60.23 0.05
8/23/2021 6:00:00 AM 22.07 71.726 0.14 6.71 77.56 0.05
8/23/2021 6:15:00 AM 22.04 71.672 0.14 6.7 66.67 0.05
8/23/2021 6:30:00 AM 22 71.6 0.14 6.69 120.82 0.05
8/23/2021 6:45:00 AM 21.96 71.528 0.14 6.72 93.6 0.05
8/23/2021 7:00:00 AM 21.93 71.474 0.139 6.7 85.91 0.05
8/23/2021 7:15:00 AM 21.9 71.42 0.139 6.67 94.73 0.05
8/23/2021 7:30:00 AM 21.87 71.366 0.138 6.68 66.49 0.05
8/23/2021 7:45:00 AM 21.84 71.312 0.139 6.67 81.87 0.05
8/23/2021 8:00:00 AM 21.8 71.24 0.139 6.65 77.43 0.05
8/23/2021 8:15:00 AM 21.77 71.186 0.138 6.65 69.2 0.05
8/23/2021 8:30:00 AM 21.75 71.15 0.138 6.65 74.43 0.05
8/23/2021 8:45:00 AM 21.73 71.114 0.137 6.65 70.69 0.05
8/23/2021 9:00:00 AM 21.7 71.06 0.137 6.62 79.72 0.05
8/23/2021 9:15:00 AM 21.67 71.006 0.136 6.6 91.81 0.05
8/23/2021 9:30:00 AM 21.64 70.952 0.136 6.59 80.02 0.05
8/23/2021 9:45:00 AM 21.61 70.898 0.136 6.6 77.16 0.05
8/23/2021 10:00:00 AM 21.59 70.862 0.135 6.6 77.5 0.05
8/23/2021 10:15:00 AM 21.56 70.808 0.135 6.57 81.88 0.05
8/23/2021 10:30:00 AM 21.56 70.808 0.136 6.59 85.03 0.05
8/23/2021 10:45:00 AM 21.58 70.844 0.135 6.6 81.39 0.05
8/23/2021 11:00:00 AM 21.62 70.916 0.135 6.6 85.2 0.05
8/23/2021 11:15:00 AM 21.67 71.006 0.134 6.62 78.2 0.05
8/23/2021 11:30:00 AM 21.75 71.15 0.134 6.63 84.1 0.05
8/23/2021 11:45:00 AM 21.83 71.294 0.133 6.64 86.83 0.05
8/23/2021 12:00:00 PM 21.92 71.456 0.134 6.67 82.53 0.05
8/23/2021 12:15:00 PM 22.01 71.618 0.134 6.68 78.16 0.05
8/23/2021 12:30:00 PM 22.11 71.798 0.134 6.7 86.38 0.05
8/23/2021 12:45:00 PM 22.19 71.942 0.133 6.71 76.35 0.05
8/23/2021 1:00:00 PM 22.25 72.05 0.134 6.72 81.54 0.05
8/23/2021 1:15:00 PM 22.3 72.14 0.134 6.74 81.16 0.05
8/23/2021 1:30:00 PM 22.36 72.248 0.134 6.76 77.74 0.05
8/23/2021 1:45:00 PM 22.43 72.374 0.134 6.78 73.28 0.05
8/23/2021 2:00:00 PM 22.52 72.536 0.134 6.8 68.82 0.05
8/23/2021 2:15:00 PM 22.63 72.734 0.134 6.82 74.36 0.05
8/23/2021 2:30:00 PM 22.76 72.968 0.134 6.86 75.16 0.05
8/23/2021 2:45:00 PM 22.88 73.184 0.135 6.88 78.35 0.05
8/23/2021 3:00:00 PM 22.99 73.382 0.134 6.89 73.73 0.05
8/23/2021 3:15:00 PM 23.07 73.526 0.134 6.85 71.89 0.05
8/23/2021 3:30:00 PM 23.14 73.652 0.134 6.86 65.73 0.05
8/23/2021 3:45:00 PM 23.21 73.778 0.134 6.85 68.76 0.05
8/23/2021 4:00:00 PM 23.28 73.904 0.134 6.86 68.19 0.05
8/23/2021 4:15:00 PM 23.35 74.03 0.135 6.87 64.71 0.05
8/23/2021 4:30:00 PM 23.42 74.156 0.134 6.85 70.74 0.05
8/23/2021 4:45:00 PM 23.49 74.282 0.134 6.85 68.75 0.05
8/23/2021 5:00:00 PM 23.53 74.354 0.134 6.83 68.38 0.05
8/23/2021 5:15:00 PM 23.56 74.408 0.133 6.86 74.01 0.05
8/23/2021 5:30:00 PM 23.57 74.426 0.133 6.87 60.05 0.05
8/23/2021 5:45:00 PM 23.57 74.426 0.132 6.84 68.06 0.05
8/23/2021 6:00:00 PM 23.57 74.426 0.132 6.84 73.69 0.05
8/23/2021 6:15:00 PM 23.56 74.408 0.131 6.88 73.77 0.05
8/23/2021 6:30:00 PM 23.55 74.39 0.131 6.85 74.42 0.05
8/23/2021 6:45:00 PM 23.52 74.336 0.13 6.82 69.78 0.05
8/23/2021 7:00:00 PM 23.49 74.282 0.129 6.83 69.31 0.05
8/23/2021 7:15:00 PM 23.46 74.228 0.128 6.73 76.89 0.05
8/23/2021 7:30:00 PM 23.43 74.174 0.127 6.8 73.17 0.05
8/23/2021 7:45:00 PM 23.4 74.12 0.127 6.78 76.81 0.05
8/23/2021 8:00:00 PM 23.37 74.066 0.126 6.82 76.62 0.05
8/23/2021 8:15:00 PM 23.34 74.012 0.127 6.74 71.96 0.05
8/23/2021 8:30:00 PM 23.3 73.94 0.126 6.79 73.16 0.05
8/23/2021 8:45:00 PM 23.27 73.886 0.125 6.74 70.8 0.05
8/23/2021 9:00:00 PM 23.23 73.814 0.124 6.76 72.91 0.05
8/23/2021 9:15:00 PM 23.2 73.76 0.124 6.75 70.24 0.05
8/23/2021 9:30:00 PM 23.17 73.706 0.123 6.71 69.82 0.05
8/23/2021 9:45:00 PM 23.14 73.652 0.123 6.73 69.01 0.05
8/23/2021 10:00:00 PM 23.11 73.598 0.123 6.71 74.09 0.05
8/23/2021 10:15:00 PM 23.08 73.544 0.121 6.71 75.83 0.05
8/23/2021 10:30:00 PM 23.06 73.508 0.12 6.76 78.25 0.05
8/23/2021 10:45:00 PM 23.05 73.49 0.119 6.77 79.5 0.05
8/23/2021 11:00:00 PM 23.03 73.454 0.119 6.72 80.06 0.05
8/23/2021 11:15:00 PM 23.02 73.436 0.118 6.71 78.78 0.05
8/23/2021 11:30:00 PM 23.01 73.418 0.117 6.73 73.77 0.05
8/23/2021 11:45:00 PM 23 73.4 0.118 6.74 71.98 0.05
8/24/2021 12:00:00 AM 22.99 73.382 0.118 6.72 69.17 0.05
8/24/2021 12:15:00 AM 22.97 73.346 0.118 6.67 67.37 0.05
8/24/2021 12:30:00 AM 22.95 73.31 0.119 6.69 69.07 0.05
8/24/2021 12:45:00 AM 22.93 73.274 0.119 6.73 70.41 0.05
8/24/2021 1:00:00 AM 22.9 73.22 0.118 6.71 69.93 0.05
8/24/2021 1:15:00 AM 22.88 73.184 0.117 6.69 74.48 0.05
8/24/2021 1:30:00 AM 22.85 73.13 0.118 6.71 75.04 0.05
8/24/2021 1:45:00 AM 22.83 73.094 0.118 6.68 75.09 0.05
8/24/2021 2:00:00 AM 22.8 73.04 0.117 6.65 73.57 0.05
8/24/2021 2:15:00 AM 22.77 72.986 0.117 6.68 73.97 0.05
8/24/2021 2:30:00 AM 22.74 72.932 0.117 6.63 73.46 0.05
8/24/2021 2:45:00 AM 22.71 72.878 0.117 6.64 76.79 0.05
8/24/2021 3:00:00 AM 22.68 72.824 0.117 6.65 75.95 0.05
8/24/2021 3:15:00 AM 22.66 72.788 0.117 6.73 72.83 0.05
8/24/2021 3:30:00 AM 22.62 72.716 0.116 6.71 76.2 0.05
8/24/2021 3:45:00 AM 22.6 72.68 0.116 6.69 78.5 0.05
8/24/2021 4:00:00 AM 22.57 72.626 0.115 6.69 77.49 0.05
8/24/2021 4:15:00 AM 22.54 72.57201 0.116 6.68 79.88 0.05
8/24/2021 4:30:00 AM 22.51 72.518 0.116 6.69 85.31 0.05
8/24/2021 4:45:00 AM 22.49 72.482 0.118 6.69 83.88 0.05
8/24/2021 5:00:00 AM 22.46 72.42799 0.119 6.68 81 0.05
8/24/2021 5:15:00 AM 22.44 72.392 0.119 6.68 82.14 0.05
8/24/2021 5:30:00 AM 22.41 72.338 0.119 6.65 82.43 0.05
8/24/2021 5:45:00 AM 22.38 72.284 0.119 6.67 81 0.05
8/24/2021 6:00:00 AM 22.35 72.23 0.12 6.66 85.1 0.05
8/24/2021 6:15:00 AM 22.33 72.194 0.12 6.64 80.53 0.05
8/24/2021 6:30:00 AM 22.3 72.14 0.12 6.63 78.97 0.05
8/24/2021 6:45:00 AM 22.26 72.068 0.121 6.72 124.07 0.05
8/24/2021 7:00:00 AM 22.22 71.996 0.121 6.78 72.6 0.05
8/24/2021 7:15:00 AM 22.19 71.942 0.121 6.76 146.98 0.05
8/24/2021 7:30:00 AM 22.16 71.888 0.122 6.77 237.9 0.05
8/24/2021 7:45:00 AM 22.13 71.834 0.122 6.79 270.77 0.05
8/24/2021 8:00:00 AM 22.11 71.798 0.123 6.79 302.15 0.05
8/24/2021 8:15:00 AM 22.09 71.762 0.123 6.79 294.24 0.05
8/24/2021 8:30:00 AM 22.08 71.744 0.123 6.8 168.28 0.05
8/24/2021 8:45:00 AM 22.08 71.744 0.123 6.82 202.77 0.05
8/24/2021 9:00:00 AM 22.09 71.762 0.124 6.84 192.92 0.05
8/24/2021 9:15:00 AM 22.11 71.798 0.124 6.83 171.84 0.05
8/24/2021 9:30:00 AM 22.14 71.852 0.124 6.85 168.58 0.05
8/24/2021 9:45:00 AM 22.17 71.906 0.124 6.87 169.98 0.05
8/24/2021 10:00:00 AM 22.22 71.996 0.125 6.87 175.58 0.05
8/24/2021 10:15:00 AM 22.27 72.086 0.125 6.89 178.18 0.05
8/24/2021 10:30:00 AM 22.32 72.176 0.126 6.9 177.27 0.05
8/24/2021 10:45:00 AM 22.37 72.266 0.126 6.91 173.75 0.05
8/24/2021 11:00:00 AM 22.43 72.374 0.126 6.94 174.54 0.05
8/24/2021 11:15:00 AM 22.5 72.5 0.126 6.94 172.82 0.05
8/24/2021 11:30:00 AM 22.57 72.626 0.127 6.95 168.36 0.05
8/24/2021 11:45:00 AM 22.65 72.77 0.127 6.96 168.24 0.05
8/24/2021 12:00:00 PM 22.73 72.914 0.128 6.97 192.04 0.05
8/24/2021 12:15:00 PM 22.82 73.076 0.128 6.98 192.09 0.05
8/24/2021 12:30:00 PM 22.92 73.256 0.128 6.99 187.48 0.05
8/24/2021 12:45:00 PM 23.01 73.418 0.128 7 204.47 0.05
8/24/2021 1:00:00 PM 23.1 73.58 0.128 7.01 194.7 0.05
8/24/2021 1:15:00 PM 23.19 73.742 0.128 7.02 191.19 0.05
8/24/2021 1:30:00 PM 23.28 73.904 0.128 7.05 192.53 0.05
8/24/2021 1:45:00 PM 23.37 74.066 0.128 7.03 176.47 0.05
8/24/2021 2:00:00 PM 23.46 74.228 0.128 7.02 188.56 0.05
8/24/2021 2:15:00 PM 23.53 74.354 0.13 7.05 203.9 0.05
8/24/2021 2:30:00 PM 23.61 74.498 0.132 7.06 197.07 0.05
8/24/2021 2:45:00 PM 23.68 74.624 0.133 7.04 219.89 0.05
8/24/2021 3:00:00 PM 23.76 74.768 0.134 7.06 225.87 0.05
8/24/2021 3:15:00 PM 23.83 74.894 0.134 7.06 220.21 0.05
8/24/2021 3:30:00 PM 23.89 75.002 0.136 7.08 242.34 0.05
8/24/2021 3:45:00 PM 23.96 75.128 0.137 7.06 246.65 0.05
8/24/2021 4:00:00 PM 24.02 75.236 0.137 7.08 209.78 0.05
8/24/2021 4:15:00 PM 24.06 75.308 0.138 7.06 241.55 0.05
8/24/2021 4:30:00 PM 24.1 75.38 0.14 7.05 224.68 0.05
8/24/2021 4:45:00 PM 24.14 75.452 0.14 7.07 265.32 0.05
8/24/2021 5:00:00 PM 24.17 75.506 0.141 7.03 280.89 0.05
8/24/2021 5:15:00 PM 24.2 75.56 0.141 7.05 211.95 0.05
8/24/2021 5:30:00 PM 24.23 75.614 0.142 7.03 206.84 0.05
8/24/2021 5:45:00 PM 24.27 75.686 0.141 7.06 246.75 0.05
8/24/2021 6:00:00 PM 24.29 75.722 0.141 7.05 242.36 0.05
8/24/2021 6:15:00 PM 24.3 75.74 0.143 7.04 220.91 0.05
8/24/2021 6:30:00 PM 24.31 75.758 0.143 7.05 258.47 0.05
8/24/2021 6:45:00 PM 24.3 75.74 0.144 7.04 261.35 0.05
8/24/2021 7:00:00 PM 24.29 75.722 0.145 7.03 275.8 0.05
8/24/2021 7:15:00 PM 24.27 75.686 0.143 7 271.76 0.05
8/24/2021 7:30:00 PM 24.25 75.65 0.143 7 220.86 0.05
8/24/2021 7:45:00 PM 24.23 75.614 0.142 7 245.46 0.05
8/24/2021 8:00:00 PM 24.2 75.56 0.143 6.98 237.47 0.05
8/24/2021 8:15:00 PM 24.17 75.506 0.143 6.98 248.21 0.05
8/24/2021 8:30:00 PM 24.14 75.452 0.143 6.96 239.25 0.05
8/24/2021 8:45:00 PM 24.1 75.38 0.143 6.97 248.52 0.05
8/24/2021 9:00:00 PM 24.06 75.308 0.142 6.95 210.08 0.05
8/24/2021 9:15:00 PM 24.02 75.236 0.141 6.94 217.97 0.05
8/24/2021 9:30:00 PM 23.98 75.164 0.142 6.95 207.93 0.05
8/24/2021 9:45:00 PM 23.95 75.11 0.141 6.93 191.62 0.05
8/24/2021 10:00:00 PM 23.91 75.038 0.141 6.92 202.42 0.05
8/24/2021 10:15:00 PM 23.88 74.984 0.14 6.92 197.79 0.05
8/24/2021 10:30:00 PM 23.85 74.93 0.139 6.9 220.7 0.05
8/24/2021 10:45:00 PM 23.81 74.858 0.138 6.91 180.9 0.05
8/24/2021 11:00:00 PM 23.78 74.804 0.138 6.91 193.55 0.05
8/24/2021 11:15:00 PM 23.75 74.75 0.137 6.91 212.86 0.05
8/24/2021 11:30:00 PM 23.72 74.696 0.136 6.89 213.2 0.05
8/24/2021 11:45:00 PM 23.68 74.624 0.136 6.89 205.25 0.05
8/25/2021 12:00:00 AM 23.65 74.57 0.136 6.89 220.6 0.05
8/25/2021 12:15:00 AM 23.62 74.516 0.136 6.89 197.77 0.05
8/25/2021 12:30:00 AM 23.58 74.444 0.135 6.88 192.3 0.05
8/25/2021 12:45:00 AM 23.55 74.39 0.135 6.89 229.87 0.05
8/25/2021 1:00:00 AM 23.51 74.318 0.136 6.9 205 0.05
8/25/2021 1:15:00 AM 23.46 74.228 0.135 6.89 197.28 0.05
8/25/2021 1:30:00 AM 23.42 74.156 0.134 6.87 192.6 0.05
8/25/2021 1:45:00 AM 23.37 74.066 0.134 6.87 190.43 0.05
8/25/2021 2:00:00 AM 23.32 73.976 0.133 6.86 189.52 0.05
8/25/2021 2:15:00 AM 23.28 73.904 0.133 6.86 179.88 0.05
8/25/2021 2:30:00 AM 23.23 73.814 0.133 6.85 176.07 0.05
8/25/2021 2:45:00 AM 23.18 73.724 0.133 6.84 173.62 0.05
8/25/2021 3:00:00 AM 23.14 73.652 0.132 6.85 179.18 0.05
8/25/2021 3:15:00 AM 23.09 73.562 0.132 6.84 185.65 0.05
8/25/2021 3:30:00 AM 23.05 73.49 0.132 6.86 198.94 0.05
8/25/2021 3:45:00 AM 23 73.4 0.132 6.84 209.4 0.05
8/25/2021 4:00:00 AM 22.96 73.328 0.132 6.84 210.39 0.05
8/25/2021 4:15:00 AM 22.92 73.256 0.133 6.84 210.97 0.05
8/25/2021 4:30:00 AM 22.87 73.166 0.131 6.85 187.33 0.05
8/25/2021 4:45:00 AM 22.83 73.094 0.131 6.83 160.7 0.05
8/25/2021 5:00:00 AM 22.79 73.022 0.132 6.84 159.95 0.05
8/25/2021 5:15:00 AM 22.75 72.95 0.131 6.83 163.6 0.05
8/25/2021 5:30:00 AM 22.71 72.878 0.13 6.84 173.27 0.05
8/25/2021 5:45:00 AM 22.67 72.806 0.131 6.83 173.86 0.05
8/25/2021 6:00:00 AM 22.63 72.734 0.133 6.83 216.09 0.05
8/25/2021 6:15:00 AM 22.59 72.662 0.132 6.83 167.26 0.05
8/25/2021 6:30:00 AM 22.55 72.59 0.133 6.83 190.32 0.05
8/25/2021 6:45:00 AM 22.51 72.518 0.134 6.82 170.44 0.05
8/25/2021 7:00:00 AM 22.47 72.446 0.131 6.82 185.56 0.05
8/25/2021 7:15:00 AM 22.43 72.374 0.13 6.82 162.02 0.05
8/25/2021 7:30:00 AM 22.39 72.302 0.128 6.83 160.85 0.05
8/25/2021 7:45:00 AM 22.35 72.23 0.128 6.83 182.82 0.05
8/25/2021 8:00:00 AM 22.32 72.176 0.127 6.81 183.19 0.05
8/25/2021 8:15:00 AM 22.29 72.122 0.127 6.82 182.49 0.05
8/25/2021 8:30:00 AM 22.27 72.086 0.126 6.82 189.64 0.05
8/25/2021 8:45:00 AM 22.25 72.05 0.126 6.83 173.35 0.05
8/25/2021 9:00:00 AM 22.25 72.05 0.126 6.83 172.91 0.05
8/25/2021 9:15:00 AM 22.25 72.05 0.125 6.84 165.82 0.05
8/25/2021 9:30:00 AM 22.27 72.086 0.125 6.85 181.27 0.05
8/25/2021 9:45:00 AM 22.3 72.14 0.126 6.86 152.62 0.05
8/25/2021 10:00:00 AM 22.34 72.212 0.125 6.86 166.15 0.05
8/25/2021 10:15:00 AM 22.39 72.302 0.127 6.87 137.7 0.05
8/25/2021 10:30:00 AM 22.46 72.42799 0.128 6.89 154.41 0.05
8/25/2021 10:45:00 AM 22.53 72.554 0.127 6.9 174.2 0.05
8/25/2021 11:00:00 AM 22.62 72.716 0.129 6.91 155.97 0.05
8/25/2021 11:15:00 AM 22.71 72.878 0.128 6.91 154.93 0.05
8/25/2021 11:30:00 AM 22.8 73.04 0.128 6.93 164.99 0.05
8/25/2021 11:45:00 AM 22.89 73.202 0.126 6.93 149.77 0.05
8/25/2021 12:00:00 PM 22.99 73.382 0.127 6.95 144.27 0.05
8/25/2021 12:15:00 PM 23.09 73.562 0.128 6.96 128.88 0.05
8/25/2021 12:30:00 PM 23.19 73.742 0.127 6.96 123.43 0.05
8/25/2021 12:45:00 PM 23.28 73.904 0.128 6.95 104.33 0.05
8/25/2021 1:00:00 PM 23.37 74.066 0.127 6.97 103.5 0.05
8/25/2021 1:15:00 PM 23.46 74.228 0.128 6.98 100.49 0.05
8/25/2021 1:30:00 PM 23.54 74.372 0.128 6.98 96.43 0.05
8/25/2021 1:45:00 PM 23.64 74.552 0.129 6.99 94.24 0.05
8/25/2021 2:00:00 PM 23.74 74.732 0.13 7.01 88.97 0.05
8/25/2021 2:15:00 PM 23.84 74.912 0.13 7.03 92.43 0.05
8/25/2021 2:30:00 PM 23.94 75.092 0.131 7.04 93.53 0.05
8/25/2021 2:45:00 PM 24.05 75.29 0.131 7.04 94.96 0.05
8/25/2021 3:00:00 PM 24.16 75.488 0.132 7.03 86.3 0.05
8/25/2021 3:15:00 PM 24.27 75.686 0.133 7.06 85.39 0.05
8/25/2021 3:30:00 PM 24.37 75.866 0.135 7.07 98.33 0.05
8/25/2021 3:45:00 PM 24.47 76.046 0.136 7.05 87.12 0.05
8/25/2021 4:00:00 PM 24.55 76.19 0.136 7.09 88.05 0.05
8/25/2021 4:15:00 PM 24.62 76.316 0.136 7.06 89.82 0.05
8/25/2021 4:30:00 PM 24.68 76.424 0.135 7.09 98.42 0.05
8/25/2021 4:45:00 PM 24.73 76.514 0.136 7.09 96.19 0.05
8/25/2021 5:00:00 PM 24.77 76.586 0.136 7.1 92.49 0.05
8/25/2021 5:15:00 PM 24.8 76.64 0.136 7.07 98.7 0.05
8/25/2021 5:30:00 PM 24.82 76.676 0.138 7.06 92.15 0.05
8/25/2021 5:45:00 PM 24.84 76.712 0.138 7.07 87.7 0.05
8/25/2021 6:00:00 PM 24.85 76.73 0.137 7.08 85.08 0.05
8/25/2021 6:15:00 PM 24.86 76.748 0.137 7.06 78.61 0.05
8/25/2021 6:30:00 PM 24.85 76.73 0.137 7.08 84.87 0.05
8/25/2021 6:45:00 PM 24.84 76.712 0.138 7.07 84.28 0.05
8/25/2021 7:00:00 PM 24.82 76.676 0.138 7.04 75.48 0.05
8/25/2021 7:15:00 PM 24.79 76.622 0.139 7.07 75.79 0.05
8/25/2021 7:30:00 PM 24.76 76.568 0.14 7.06 80.65 0.05
8/25/2021 7:45:00 PM 24.72 76.496 0.14 7.02 73.89 0.05
8/25/2021 8:00:00 PM 24.67 76.406 0.139 7.04 76.48 0.05
8/25/2021 8:15:00 PM 24.62 76.316 0.14 7 87.82 0.05
8/25/2021 8:30:00 PM 24.56 76.208 0.14 7.02 86.39 0.05
8/25/2021 8:45:00 PM 24.49 76.082 0.139 7.01 83.84 0.05
8/25/2021 9:00:00 PM 24.42 75.956 0.14 6.99 86.23 0.05
8/25/2021 9:15:00 PM 24.36 75.848 0.139 6.94 88.66 0.05
8/25/2021 9:30:00 PM 24.29 75.722 0.138 6.93 122.88 0.05
8/25/2021 9:45:00 PM 24.22 75.596 0.138 6.96 122.74 0.05
8/25/2021 10:00:00 PM 24.16 75.488 0.139 6.94 121.58 0.05
8/25/2021 10:15:00 PM 24.09 75.362 0.139 6.95 100.74 0.05
8/25/2021 10:30:00 PM 24.03 75.254 0.138 6.9 94.62 0.05
8/25/2021 10:45:00 PM 23.97 75.146 0.14 6.92 101.38 0.05
8/25/2021 11:00:00 PM 23.92 75.056 0.14 6.92 107.41 0.05
8/25/2021 11:15:00 PM 23.87 74.966 0.141 6.88 108.83 0.05
8/25/2021 11:30:00 PM 23.82 74.876 0.142 6.88 106.19 0.05
8/25/2021 11:45:00 PM 23.78 74.804 0.14 6.88 95.59 0.05
8/26/2021 12:00:00 AM 23.75 74.75 0.141 6.87 94.14 0.05
8/26/2021 12:15:00 AM 23.72 74.696 0.141 6.88 125.19 0.05
8/26/2021 12:30:00 AM 23.69 74.642 0.141 6.87 125.91 0.05
8/26/2021 12:45:00 AM 23.67 74.606 0.14 6.86 127.37 0.05
8/26/2021 1:00:00 AM 23.64 74.552 0.139 6.88 132.98 0.05
8/26/2021 1:15:00 AM 23.62 74.516 0.139 6.85 133.94 0.05
8/26/2021 1:30:00 AM 23.6 74.48 0.14 6.88 141.24 0.05
8/26/2021 1:45:00 AM 23.59 74.462 0.142 6.87 137.41 0.05
8/26/2021 2:00:00 AM 23.57 74.426 0.143 6.85 145.88 0.05
8/26/2021 2:15:00 AM 23.55 74.39 0.14 6.88 138 0.05
8/26/2021 2:30:00 AM 23.53 74.354 0.141 6.87 128.09 0.05
8/26/2021 2:45:00 AM 23.51 74.318 0.141 6.85 125.12 0.05
8/26/2021 3:00:00 AM 23.49 74.282 0.141 6.86 130.81 0.05
8/26/2021 3:15:00 AM 23.47 74.246 0.141 6.83 122.3 0.05
8/26/2021 3:30:00 AM 23.45 74.21 0.141 6.84 121.44 0.05
8/26/2021 3:45:00 AM 23.43 74.174 0.141 6.84 134.25 0.05
8/26/2021 4:00:00 AM 23.4 74.12 0.141 6.86 128.67 0.05
8/26/2021 4:15:00 AM 23.38 74.084 0.141 6.82 128.24 0.05
8/26/2021 4:30:00 AM 23.35 74.03 0.143 6.85 151.25 0.05
8/26/2021 4:45:00 AM 23.33 73.994 0.143 6.85 147.14 0.05
8/26/2021 5:00:00 AM 23.3 73.94 0.143 6.84 153.69 0.05
8/26/2021 5:15:00 AM 23.28 73.904 0.144 6.84 156.56 0.05
8/26/2021 5:30:00 AM 23.25 73.85 0.145 6.82 169.98 0.05
8/26/2021 5:45:00 AM 23.22 73.796 0.145 6.84 172.64 0.05
8/26/2021 6:00:00 AM 23.2 73.76 0.146 6.85 148.83 0.05
8/26/2021 6:15:00 AM 23.17 73.706 0.147 6.81 144.49 0.05
8/26/2021 6:30:00 AM 23.15 73.67 0.146 6.81 157.14 0.05
8/26/2021 6:45:00 AM 23.12 73.616 0.146 6.81 162.12 0.05
8/26/2021 7:00:00 AM 23.09 73.562 0.146 6.84 187.18 0.05
8/26/2021 7:15:00 AM 23.07 73.526 0.146 6.84 181.12 0.05
8/26/2021 7:30:00 AM 23.04 73.472 0.148 6.86 181.16 0.05
8/26/2021 7:45:00 AM 23.02 73.436 0.147 6.82 171.35 0.05
8/26/2021 8:00:00 AM 22.99 73.382 0.148 6.84 184.34 0.05
8/26/2021 8:15:00 AM 22.97 73.346 0.149 6.83 174.74 0.05
8/26/2021 8:30:00 AM 22.95 73.31 0.149 6.8 177.08 0.05
8/26/2021 8:45:00 AM 22.93 73.274 0.151 6.84 191.57 0.05
8/26/2021 9:00:00 AM 22.92 73.256 0.151 6.81 181.62 0.05
8/26/2021 9:15:00 AM 22.91 73.238 0.151 6.85 161.38 0.05
8/26/2021 9:30:00 AM 22.92 73.256 0.151 6.83 206.78 0.05
8/26/2021 9:45:00 AM 22.95 73.31 0.151 6.86 199.57 0.05
8/26/2021 10:00:00 AM 22.99 73.382 0.15 6.83 188.15 0.05
8/26/2021 10:15:00 AM 23.05 73.49 0.149 6.89 208.7 0.05
8/26/2021 10:30:00 AM 23.12 73.616 0.149 6.9 233.54 0.05
8/26/2021 10:45:00 AM 23.21 73.778 0.15 6.9 198.81 0.05
8/26/2021 11:00:00 AM 23.31 73.958 0.15 6.94 203.87 0.05
8/26/2021 11:15:00 AM 23.41 74.138 0.15 6.93 199.33 0.05
8/26/2021 11:30:00 AM 23.53 74.354 0.15 6.91 208.18 0.05
8/26/2021 11:45:00 AM 23.65 74.57 0.15 6.96 203.55 0.05
8/26/2021 12:00:00 PM 23.77 74.786 0.15 6.96 189.92 0.05
8/26/2021 12:15:00 PM 23.9 75.02 0.151 6.93 208.28 0.05
8/26/2021 12:30:00 PM 24.02 75.236 0.151 6.99 199.55 0.05
8/26/2021 12:45:00 PM 24.14 75.452 0.151 7.01 200.03 0.05
8/26/2021 1:00:00 PM 24.26 75.668 0.151 7.03 201.97 0.05
8/26/2021 1:15:00 PM 24.38 75.884 0.152 7.03 206.42 0.05
8/26/2021 1:30:00 PM 24.5 76.1 0.152 7.06 199.15 0.05
8/26/2021 1:45:00 PM 24.62 76.316 0.15 7.03 171.34 0.05
8/26/2021 2:00:00 PM 24.74 76.532 0.151 7.09 182.28 0.05
8/26/2021 2:15:00 PM 24.85 76.73 0.149 7.1 200.1 0.05
8/26/2021 2:30:00 PM 24.96 76.92799 0.149 7.08 207.88 0.05
8/26/2021 2:45:00 PM 25.06 77.108 0.148 7.1 224.79 0.05
8/26/2021 3:00:00 PM 25.17 77.306 0.148 7.12 199.01 0.05
8/26/2021 3:15:00 PM 25.26 77.468 0.149 7.17 179.99 0.05
8/26/2021 3:30:00 PM 25.36 77.648 0.148 7.14 205.86 0.05
8/26/2021 3:45:00 PM 25.45 77.81 0.147 7.17 186.6 0.05
8/26/2021 4:00:00 PM 25.54 77.972 0.146 8.34 206.76 0.05
8/26/2021 4:15:00 PM 25.62 78.116 0.148 7.84 213.04 0.05
8/26/2021 4:30:00 PM 25.7 78.26 0.148 7.94 201.64 0.05
8/26/2021 4:45:00 PM 25.76 78.368 0.147 7.98 202.06 0.05
8/26/2021 5:00:00 PM 25.81 78.458 0.147 8.01 210.27 0.05
8/26/2021 5:15:00 PM 25.86 78.548 0.146 8.05 216.03 0.05
8/26/2021 5:30:00 PM 25.9 78.62 0.146 8.07 209.16 0.05
8/26/2021 5:45:00 PM 25.92 78.656 0.146 8.08 191.86 0.05
8/26/2021 6:00:00 PM 25.93 78.674 0.146 8.09 205.13 0.05
8/26/2021 6:15:00 PM 25.93 78.674 0.147 8.06 179.94 0.05
8/26/2021 6:30:00 PM 25.92 78.656 0.147 8.11 183.77 0.05
8/26/2021 6:45:00 PM 25.9 78.62 0.148 8.07 173.18 0.05
8/26/2021 7:00:00 PM 25.86 78.548 0.148 8.1 157.92 0.05
8/26/2021 7:15:00 PM 25.82 78.476 0.149 8.09 164.24 0.05
8/26/2021 7:30:00 PM 25.78 78.404 0.149 8.09 163.05 0.05
8/26/2021 7:45:00 PM 25.72 78.296 0.148 8.11 169.72 0.05
8/26/2021 8:00:00 PM 25.66 78.188 0.148 8.12 168.95 0.05
8/26/2021 8:15:00 PM 25.6 78.08 0.149 8.11 177.57 0.05
8/26/2021 8:30:00 PM 25.54 77.972 0.149 8.1 172.07 0.05
8/26/2021 8:45:00 PM 25.48 77.864 0.148 8.08 184.04 0.05
8/26/2021 9:00:00 PM 25.42 77.756 0.148 8.11 183.61 0.05
8/26/2021 9:15:00 PM 25.37 77.666 0.148 8.08 181.7 0.05
8/26/2021 9:30:00 PM 25.32 77.576 0.147 8.08 173.44 0.05
8/26/2021 9:45:00 PM 25.27 77.486 0.147 8.04 152.64 0.05
8/26/2021 10:00:00 PM 25.22 77.396 0.147 8.06 170.36 0.05
8/26/2021 10:15:00 PM 25.17 77.306 0.146 8.04 197.09 0.05
8/26/2021 10:30:00 PM 25.11 77.198 0.145 8.03 201.01 0.05
8/26/2021 10:45:00 PM 25.05 77.09 0.144 8.03 202.17 0.05
8/26/2021 11:00:00 PM 24.99 76.982 0.144 8.01 214.24 0.05
8/26/2021 11:15:00 PM 24.93 76.874 0.142 8.02 208.6 0.05
8/26/2021 11:30:00 PM 24.86 76.748 0.142 8 186.72 0.05
8/26/2021 11:45:00 PM 24.79 76.622 0.141 8.01 206.23 0.05
8/27/2021 12:00:00 AM 24.72 76.496 0.141 8.01 200.69 0.05
8/27/2021 12:15:00 AM 24.65 76.37 0.141 7.96 176.11 0.05
8/27/2021 12:30:00 AM 24.59 76.262 0.142 8 174.81 0.05
8/27/2021 12:45:00 AM 24.52 76.136 0.142 8 180.09 0.05
8/27/2021 1:00:00 AM 24.46 76.028 0.141 7.99 190.63 0.05
8/27/2021 1:15:00 AM 24.41 75.938 0.141 7.98 185.22 0.05
8/27/2021 1:30:00 AM 24.35 75.83 0.14 7.99 170.88 0.05
8/27/2021 1:45:00 AM 24.31 75.758 0.14 7.99 175.25 0.05
8/27/2021 2:00:00 AM 24.26 75.668 0.14 7.99 188.51 0.05
8/27/2021 2:15:00 AM 24.22 75.596 0.139 7.98 190.74 0.05
8/27/2021 2:30:00 AM 24.19 75.542 0.139 7.98 194.13 0.05
8/27/2021 2:45:00 AM 24.15 75.47 0.138 7.98 190.19 0.05
8/27/2021 3:00:00 AM 24.12 75.416 0.138 7.98 196.6 0.05
8/27/2021 3:15:00 AM 24.09 75.362 0.138 7.97 208.59 0.05
8/27/2021 3:30:00 AM 24.06 75.308 0.137 7.97 205.7 0.05
8/27/2021 3:45:00 AM 24.03 75.254 0.136 7.93 208.78 0.05
8/27/2021 4:00:00 AM 23.99 75.182 0.136 7.97 174.53 0.05
8/27/2021 4:15:00 AM 23.96 75.128 0.136 7.97 163.39 0.05
8/27/2021 4:30:00 AM 23.92 75.056 0.136 7.93 159.46 0.05
8/27/2021 4:45:00 AM 23.89 75.002 0.136 7.93 160.35 0.05
8/27/2021 5:00:00 AM 23.85 74.93 0.135 7.94 171.57 0.05
8/27/2021 5:15:00 AM 23.8 74.84 0.135 7.94 172.99 0.05
8/27/2021 5:30:00 AM 23.76 74.768 0.135 7.95 194.41 0.05
8/27/2021 5:45:00 AM 23.72 74.696 0.135 7.95 189.56 0.05
8/27/2021 6:00:00 AM 23.67 74.606 0.135 7.94 184.48 0.05
8/27/2021 6:15:00 AM 23.62 74.516 0.135 7.94 181.73 0.05
8/27/2021 6:30:00 AM 23.58 74.444 0.135 7.97 196.71 0.05
8/27/2021 6:45:00 AM 23.54 74.372 0.134 7.96 183.53 0.05
8/27/2021 7:00:00 AM 23.5 74.3 0.134 7.93 201.05 0.05
8/27/2021 7:15:00 AM 23.46 74.228 0.134 7.96 208.63 0.05
8/27/2021 7:30:00 AM 23.42 74.156 0.134 7.95 201.14 0.05
8/27/2021 7:45:00 AM 23.38 74.084 0.134 7.91 215.04 0.05
8/27/2021 8:00:00 AM 23.35 74.03 0.135 7.95 219.92 0.05
8/27/2021 8:15:00 AM 23.32 73.976 0.135 7.91 239.21 0.05
8/27/2021 8:30:00 AM 23.3 73.94 0.136 7.94 234.78 0.05
8/27/2021 8:45:00 AM 23.28 73.904 0.136 7.93 241.41 0.05
8/27/2021 9:00:00 AM 23.27 73.886 0.136 7.94 202.48 0.05
8/27/2021 9:15:00 AM 23.26 73.868 0.136 7.91 191.67 0.05
8/27/2021 9:30:00 AM 23.26 73.868 0.136 7.91 227.23 0.05
8/27/2021 9:45:00 AM 23.26 73.868 0.137 7.91 210.75 0.05
8/27/2021 10:00:00 AM 23.28 73.904 0.137 7.92 175.96 0.05
8/27/2021 10:15:00 AM 23.31 73.958 0.137 7.9 208.46 0.05
8/27/2021 10:30:00 AM 23.35 74.03 0.137 7.92 223.55 0.05
8/27/2021 10:45:00 AM 23.39 74.102 0.137 7.91 214.54 0.05
8/27/2021 11:00:00 AM 23.43 74.174 0.137 7.91 241.41 0.05
8/27/2021 11:15:00 AM 23.48 74.264 0.137 7.92 217.55 0.05
8/27/2021 11:30:00 AM 23.54 74.372 0.137 7.91 203.97 0.05
8/27/2021 11:45:00 AM 23.59 74.462 0.137 7.91 219.66 0.05
8/27/2021 12:00:00 PM 23.64 74.552 0.137 7.94 200.97 0.05
8/27/2021 12:15:00 PM 23.68 74.624 0.137 7.94 205.75 0.05
8/27/2021 12:30:00 PM 23.73 74.714 0.136 7.94 203.89 0.05
8/27/2021 12:45:00 PM 23.79 74.82201 0.137 7.94 203.98 0.05
8/27/2021 1:00:00 PM 23.85 74.93 0.137 7.93 189.7 0.05
8/27/2021 1:15:00 PM 23.93 75.074 0.136 7.95 202.37 0.05
8/27/2021 1:30:00 PM 24 75.2 0.136 7.95 202.81 0.05
8/27/2021 1:45:00 PM 24.08 75.344 0.137 7.95 211.82 0.05
8/27/2021 2:00:00 PM 24.15 75.47 0.137 7.91 203.55 0.05
8/27/2021 2:15:00 PM 24.23 75.614 0.137 7.93 185.93 0.05
8/27/2021 2:30:00 PM 24.3 75.74 0.137 7.95 215.29 0.05
8/27/2021 2:45:00 PM 24.37 75.866 0.137 7.94 205.91 0.05
8/27/2021 3:00:00 PM 24.45 76.01 0.136 7.94 252.22 0.05
8/27/2021 3:15:00 PM 24.51 76.118 0.136 7.96 198.12 0.05
8/27/2021 3:30:00 PM 24.56 76.208 0.136 7.97 247.53 0.05
8/27/2021 3:45:00 PM 24.61 76.298 0.137 7.95 267.3 0.05
8/27/2021 4:00:00 PM 24.67 76.406 0.136 7.98 238.07 0.05
8/27/2021 4:15:00 PM 24.71 76.478 0.136 8 278.13 0.05
8/27/2021 4:30:00 PM 24.74 76.532 0.136 8 280.15 0.05
8/27/2021 4:45:00 PM 24.77 76.586 0.135 8.02 288.75 0.05
8/27/2021 5:00:00 PM 24.81 76.658 0.135 7.97 263.3 0.05
8/27/2021 5:15:00 PM 24.84 76.712 0.135 7.99 224.37 0.05
8/27/2021 5:30:00 PM 24.85 76.73 0.135 8.02 234.47 0.05
8/27/2021 5:45:00 PM 24.84 76.712 0.135 8.03 239.69 0.05
8/27/2021 6:00:00 PM 24.81 76.658 0.133 8.02 267.5 0.05
8/27/2021 6:15:00 PM 24.76 76.568 0.132 8.02 242.74 0.05
8/27/2021 6:30:00 PM 24.7 76.46 0.131 8.03 236.11 0.05
8/27/2021 6:45:00 PM 24.63 76.334 0.131 8.03 253.75 0.05
8/27/2021 7:00:00 PM 24.56 76.208 0.132 8.02 282.4 0.05
8/27/2021 7:15:00 PM 24.49 76.082 0.131 8.05 241.58 0.05
8/27/2021 7:30:00 PM 24.42 75.956 0.131 8 260.99 0.05
8/27/2021 7:45:00 PM 24.36 75.848 0.129 8.04 246.29 0.05
8/27/2021 8:00:00 PM 24.31 75.758 0.129 8.03 239.35 0.05
8/27/2021 8:15:00 PM 24.27 75.686 0.128 8.02 239.19 0.05
8/27/2021 8:30:00 PM 24.23 75.614 0.127 7.97 218.71 0.05
8/27/2021 8:45:00 PM 24.19 75.542 0.127 7.99 198.81 0.05
8/27/2021 9:00:00 PM 24.15 75.47 0.126 8.01 208.59 0.05
8/27/2021 9:15:00 PM 24.11 75.398 0.126 7.98 218.6 0.05
8/27/2021 9:30:00 PM 24.07 75.326 0.126 8 161.68 0.05
8/27/2021 9:45:00 PM 24.03 75.254 0.126 7.99 175.05 0.05
8/27/2021 10:00:00 PM 23.99 75.182 0.125 7.94 199.42 0.05
8/27/2021 10:15:00 PM 23.95 75.11 0.125 7.94 193.02 0.05
8/27/2021 10:30:00 PM 23.91 75.038 0.124 7.93 210.18 0.05
8/27/2021 10:45:00 PM 23.87 74.966 0.124 7.93 211.88 0.05
8/27/2021 11:00:00 PM 23.83 74.894 0.125 7.95 205.14 0.05
8/27/2021 11:15:00 PM 23.8 74.84 0.124 7.91 215.04 0.05
8/27/2021 11:30:00 PM 23.77 74.786 0.123 7.94 199.29 0.05
8/27/2021 11:45:00 PM 23.74 74.732 0.123 7.93 231.98 0.05
8/28/2021 12:00:00 AM 23.72 74.696 0.122 7.93 220.67 0.05
8/28/2021 12:15:00 AM 23.69 74.642 0.122 7.9 182.88 0.05
8/28/2021 12:30:00 AM 23.66 74.588 0.121 7.89 195.65 0.05
8/28/2021 12:45:00 AM 23.63 74.534 0.122 7.92 89.09 0.05
8/28/2021 1:00:00 AM 23.61 74.498 0.12 7.92 175.15 0.05
8/28/2021 1:15:00 AM 23.58 74.444 0.119 7.91 196.75 0.05
8/28/2021 1:30:00 AM 23.55 74.39 0.118 7.9 236.13 0.05
8/28/2021 1:45:00 AM 23.52 74.336 0.118 7.9 165.67 0.05
8/28/2021 2:00:00 AM 23.49 74.282 0.119 7.88 240.43 0.05
8/28/2021 2:15:00 AM 23.46 74.228 0.12 7.89 232.18 0.05
8/28/2021 2:30:00 AM 23.42 74.156 0.121 7.88 241.14 0.05
8/28/2021 2:45:00 AM 23.39 74.102 0.119 7.87 193.45 0.05
8/28/2021 3:00:00 AM 23.35 74.03 0.118 7.87 148.57 0.05
8/28/2021 3:15:00 AM 23.31 73.958 0.117 7.85 220.69 0.05
8/28/2021 3:30:00 AM 23.27 73.886 0.116 7.86 220.55 0.05
8/28/2021 3:45:00 AM 23.22 73.796 0.115 7.88 252.01 0.05
8/28/2021 4:00:00 AM 23.18 73.724 0.115 7.89 230.41 0.05
8/28/2021 4:15:00 AM 23.13 73.634 0.113 7.87 247.18 0.05
8/28/2021 4:30:00 AM 23.09 73.562 0.109 7.85 232.36 0.05
8/28/2021 4:45:00 AM 23.04 73.472 0.106 7.88 254.06 0.05
8/28/2021 5:00:00 AM 23 73.4 0.104 7.88 223.06 0.05
8/28/2021 5:15:00 AM 22.96 73.328 0.103 7.88 195.28 0.05
8/28/2021 5:30:00 AM 22.92 73.256 0.101 7.88 225.92 0.05
8/28/2021 5:45:00 AM 22.88 73.184 0.101 7.89 217.32 0.05
8/28/2021 6:00:00 AM 22.85 73.13 0.1 7.9 234.93 0.05
8/28/2021 6:15:00 AM 22.82 73.076 0.099 7.9 214.93 0.05
8/28/2021 6:30:00 AM 22.78 73.004 0.099 7.89 198.46 0.05
8/28/2021 6:45:00 AM 22.75 72.95 0.098 7.89 274.22 0.05
8/28/2021 7:00:00 AM 22.72 72.896 0.097 7.9 234.93 0.05
8/28/2021 7:15:00 AM 22.7 72.86 0.096 7.89 258.79 0.05
8/28/2021 7:30:00 AM 22.67 72.806 0.096 7.9 308.79 0.05
8/28/2021 7:45:00 AM 22.64 72.752 0.095 7.89 321.24 0.05
8/28/2021 8:00:00 AM 22.62 72.716 0.095 7.88 322.15 0.05
8/28/2021 8:15:00 AM 22.6 72.68 0.095 7.89 314.32 0.05
8/28/2021 8:30:00 AM 22.58 72.644 0.095 7.88 312.33 0.05
8/28/2021 8:45:00 AM 22.56 72.608 0.096 7.9 317.47 0.05
8/28/2021 9:00:00 AM 22.54 72.57201 0.096 7.9 312.19 0.05
8/28/2021 9:15:00 AM 22.52 72.536 0.097 7.91 334.75 0.05
8/28/2021 9:30:00 AM 22.5 72.5 0.098 7.9 316.84 0.05
8/28/2021 9:45:00 AM 22.48 72.464 0.098 7.89 316.31 0.05
8/28/2021 10:00:00 AM 22.46 72.42799 0.099 7.92 311.1 0.05
8/28/2021 10:15:00 AM 22.44 72.392 0.099 7.93 300.34 0.05
8/28/2021 10:30:00 AM 22.42 72.356 0.098 7.93 317.18 0.05
8/28/2021 10:45:00 AM 22.4 72.32 0.098 7.91 279.82 0.05
8/28/2021 11:00:00 AM 22.39 72.302 0.099 7.93 293.74 0.05
8/28/2021 11:15:00 AM 22.38 72.284 0.099 7.95 313.15 0.05
8/28/2021 11:30:00 AM 22.38 72.284 0.099 7.95 400.99 0.05
8/28/2021 11:45:00 AM 22.38 72.284 0.1 7.94 392.03 0.05
8/28/2021 12:00:00 PM 22.38 72.284 0.101 7.95 441.07 0.05
8/28/2021 12:15:00 PM 22.39 72.302 0.102 7.96 366.32 0.05
8/28/2021 12:30:00 PM 22.4 72.32 0.102 7.95 334.36 0.05
8/28/2021 12:45:00 PM 22.41 72.338 0.102 7.96 329.76 0.05
8/28/2021 1:00:00 PM 22.43 72.374 0.102 7.99 303.4 0.05
8/28/2021 1:15:00 PM 22.45 72.41 0.102 8 272.04 0.05
8/28/2021 1:30:00 PM 22.46 72.42799 0.101 7.99 308.64 0.05
8/28/2021 1:45:00 PM 22.48 72.464 0.1 8.01 325.26 0.05
8/28/2021 2:00:00 PM 22.5 72.5 0.1 8.01 290.58 0.05
8/28/2021 2:15:00 PM 22.52 72.536 0.1 8.01 242.56 0.05
8/28/2021 2:30:00 PM 22.55 72.59 0.101 8 219.55 0.05
8/28/2021 2:45:00 PM 22.58 72.644 0.101 8.03 197.16 0.05
8/28/2021 3:00:00 PM 22.61 72.698 0.102 8.03 165.01 0.05
8/28/2021 3:15:00 PM 22.65 72.77 0.102 8.05 176.77 0.05
8/28/2021 3:30:00 PM 22.69 72.842 0.103 8.03 204.68 0.05
8/28/2021 3:45:00 PM 22.72 72.896 0.103 8.05 285.6 0.05
8/28/2021 4:00:00 PM 22.75 72.95 0.104 8.05 286.94 0.05
8/28/2021 4:15:00 PM 22.77 72.986 0.104 8.05 307.94 0.05
8/28/2021 4:30:00 PM 22.8 73.04 0.104 8.05 312.35 0.05
8/28/2021 4:45:00 PM 22.82 73.076 0.105 8.06 333.87 0.05
8/28/2021 5:00:00 PM 22.83 73.094 0.105 8.07 332.77 0.05
8/28/2021 5:15:00 PM 22.84 73.112 0.105 8.08 355.52 0.05
8/28/2021 5:30:00 PM 22.85 73.13 0.106 8.08 139.61 0.05
8/28/2021 5:45:00 PM 22.85 73.13 0.106 8.09 229.28 0.05
8/28/2021 6:00:00 PM 22.85 73.13 0.107 8.1 358.71 0.05
8/28/2021 6:15:00 PM 22.84 73.112 0.108 8.1 246.79 0.05
8/28/2021 6:30:00 PM 22.83 73.094 0.108 8.1 335.74 0.05
8/28/2021 6:45:00 PM 22.82 73.076 0.109 8.1 239.4 0.05
8/28/2021 7:00:00 PM 22.81 73.058 0.109 8.1 210.78 0.05
8/28/2021 7:15:00 PM 22.79 73.022 0.11 8.12 233.17 0.05
8/28/2021 7:30:00 PM 22.76 72.968 0.11 8.1 266.72 0.05
8/28/2021 7:45:00 PM 22.73 72.914 0.111 8.1 153.24 0.05
8/28/2021 8:00:00 PM 22.69 72.842 0.111 8.1 218.86 0.05
8/28/2021 8:15:00 PM 22.65 72.77 0.111 8.1 113.31 0.05
8/28/2021 8:30:00 PM 22.6 72.68 0.112 8.1 205.41 0.05
8/28/2021 8:45:00 PM 22.54 72.57201 0.113 8.08 237.09 0.05
8/28/2021 9:00:00 PM 22.48 72.464 0.113 8.08 130.43 0.05
8/28/2021 9:15:00 PM 22.42 72.356 0.114 8.03 112.4 0.05
8/28/2021 9:30:00 PM 22.37 72.266 0.114 8.07 177.44 0.05
8/28/2021 9:45:00 PM 22.31 72.158 0.114 8.06 358.96 0.05
8/28/2021 10:00:00 PM 22.26 72.068 0.114 8.07 213.57 0.05
8/28/2021 10:15:00 PM 22.2 71.96 0.115 8.06 116.43 0.05
8/28/2021 10:30:00 PM 22.14 71.852 0.115 7.79 220.39 0.05
8/28/2021 10:45:00 PM 22.08 71.744 0.115 7.78 323.06 0.05
8/28/2021 11:00:00 PM 22.03 71.654 0.116 7.77 399.52 0.05
8/28/2021 11:15:00 PM 21.98 71.564 0.118 7.76 338.57 0.05
8/28/2021 11:30:00 PM 21.93 71.474 0.118 7.76 191.15 0.05
8/28/2021 11:45:00 PM 21.89 71.402 0.117 7.75 308.14 0.05
8/29/2021 12:00:00 AM 21.84 71.312 0.117 7.75 376.72 0.05
8/29/2021 12:15:00 AM 21.81 71.258 0.117 7.75 271.26 0.05
8/29/2021 12:30:00 AM 21.77 71.186 0.114 7.75 239.02 0.05
8/29/2021 12:45:00 AM 21.74 71.132 0.114 7.75 240.03 0.05
8/29/2021 1:00:00 AM 21.71 71.078 0.114 7.75 409.39 0.05
8/29/2021 1:15:00 AM 21.68 71.024 0.114 7.74 342.04 0.05
8/29/2021 1:30:00 AM 21.65 70.97 0.114 7.74 218.18 0.05
8/29/2021 1:45:00 AM 21.63 70.934 0.113 7.75 238.06 0.05
8/29/2021 2:00:00 AM 21.61 70.898 0.113 7.74 247.71 0.05
8/29/2021 2:15:00 AM 21.58 70.844 0.112 7.78 206.05 0.05
8/29/2021 2:30:00 AM 21.56 70.808 0.112 7.96 329.46 0.05
8/29/2021 2:45:00 AM 21.54 70.772 0.112 8.02 419.37 0.05
8/29/2021 3:00:00 AM 21.52 70.736 0.113 8.03 395.73 0.05
8/29/2021 3:15:00 AM 21.5 70.7 0.113 8.04 251.59 0.05
8/29/2021 3:30:00 AM 21.48 70.664 0.113 8.03 361.1 0.05
8/29/2021 3:45:00 AM 21.46 70.628 0.113 8.04 343.11 0.05
8/29/2021 4:00:00 AM 21.44 70.592 0.113 8.03 298.56 0.05
8/29/2021 4:15:00 AM 21.42 70.556 0.112 8.04 396.6 0.05
8/29/2021 4:30:00 AM 21.4 70.52 0.112 8.03 304.37 0.05
8/29/2021 4:45:00 AM 21.39 70.502 0.112 7.99 190.94 0.05
8/29/2021 5:00:00 AM 21.37 70.466 0.111 7.98 233.77 0.05
8/29/2021 5:15:00 AM 21.35 70.43 0.11 7.84 225.1 0.05
8/29/2021 5:30:00 AM 21.33 70.394 0.11 7.75 281.83 0.05
8/29/2021 5:45:00 AM 21.3 70.34 0.11 7.74 389.97 0.05
8/29/2021 6:00:00 AM 21.28 70.304 0.11 7.75 319.13 0.05
8/29/2021 6:15:00 AM 21.26 70.268 0.111 7.73 196.31 0.05
8/29/2021 6:30:00 AM 21.24 70.232 0.112 7.75 281.53 0.05
8/29/2021 6:45:00 AM 21.22 70.196 0.114 7.74 234.81 0.05
8/29/2021 7:00:00 AM 21.2 70.16 0.114 7.74 406.98 0.05
8/29/2021 7:15:00 AM 21.18 70.124 0.114 7.72 452.31 0.05
8/29/2021 7:30:00 AM 21.16 70.088 0.115 7.74 523.58 0.05
8/29/2021 7:45:00 AM 21.15 70.07 0.114 7.74 353.27 0.05
8/29/2021 8:00:00 AM 21.14 70.052 0.115 7.72 243.55 0.05
8/29/2021 8:15:00 AM 21.11 69.998 0.115 7.74 394.69 0.05
8/29/2021 8:30:00 AM 21.1 69.98 0.115 7.71 534.47 0.05
8/29/2021 8:45:00 AM 21.09 69.962 0.115 7.72 504.2 0.05
8/29/2021 9:00:00 AM 21.07 69.926 0.115 7.72 634.9 0.05
8/29/2021 9:15:00 AM 21.06 69.908 0.116 7.72 781.75 0.05
8/29/2021 9:30:00 AM 21.06 69.908 0.115 7.74 664.21 0.05
8/29/2021 9:45:00 AM 21.05 69.89 0.115 7.76 712.87 0.05
8/29/2021 10:00:00 AM 21.05 69.89 0.114 8.05 455.74 0.05
8/29/2021 10:15:00 AM 21.06 69.908 0.112 8.04 440.13 0.05
8/29/2021 10:30:00 AM 21.06 69.908 0.112 8.02 507.71 0.05
8/29/2021 10:45:00 AM 21.08 69.944 0.112 7.93 440.43 0.05
8/29/2021 11:00:00 AM 21.09 69.962 0.112 7.9 373.95 0.05
8/29/2021 11:15:00 AM 21.11 69.998 0.113 7.77 440.71 0.05
8/29/2021 11:30:00 AM 21.14 70.052 0.112 7.72 350.03 0.05
8/29/2021 11:45:00 AM 21.18 70.124 0.111 7.78 321.3 0.05
8/29/2021 12:00:00 PM 21.22 70.196 0.112 8.03 378.88 0.05
8/29/2021 12:15:00 PM 21.26 70.268 0.112 8.02 473.22 0.05
8/29/2021 12:30:00 PM 21.31 70.358 0.112 8.02 514.74 0.05
8/29/2021 12:45:00 PM 21.36 70.448 0.113 8.03 440.27 0.05
8/29/2021 1:00:00 PM 21.42 70.556 0.113 8.03 416.41 0.05
8/29/2021 1:15:00 PM 21.48 70.664 0.113 8.03 286.08 0.05
8/29/2021 1:30:00 PM 21.54 70.772 0.114 8.03 409.48 0.05
8/29/2021 1:45:00 PM 21.61 70.898 0.114 8.05 279.7 0.05
8/29/2021 2:00:00 PM 21.68 71.024 0.115 8.04 310.1 0.05
8/29/2021 2:15:00 PM 21.76 71.168 0.115 8.04 460.15 0.05
8/29/2021 2:30:00 PM 21.83 71.294 0.115 7.81 246.57 0.05
8/29/2021 2:45:00 PM 21.91 71.438 0.115 7.96 196.95 0.05
8/29/2021 3:00:00 PM 21.99 71.582 0.116 7.99 361.45 0.05
8/29/2021 3:15:00 PM 22.07 71.726 0.115 7.98 388.47 0.05
8/29/2021 3:30:00 PM 22.16 71.888 0.116 8 358.44 0.05
8/29/2021 3:45:00 PM 22.25 72.05 0.117 7.88 334.36 0.05
8/29/2021 4:00:00 PM 22.34 72.212 0.116 7.92 189.34 0.05
8/29/2021 4:15:00 PM 22.41 72.338 0.116 7.96 223.42 0.05
8/29/2021 4:30:00 PM 22.48 72.464 0.117 7.8 278.25 0.05
8/29/2021 4:45:00 PM 22.55 72.59 0.118 7.79 160.23 0.05
8/29/2021 5:00:00 PM 22.62 72.716 0.119 7.79 186.68 0.05
8/29/2021 5:15:00 PM 22.68 72.824 0.119 7.81 223.59 0.05
8/29/2021 5:30:00 PM 22.73 72.914 0.119 7.79 403.31 0.05
8/29/2021 5:45:00 PM 22.77 72.986 0.12 7.79 115.04 0.05
8/29/2021 6:00:00 PM 22.8 73.04 0.12 7.79 106.41 0.05
8/29/2021 6:15:00 PM 22.81 73.058 0.121 7.81 149.18 0.05
8/29/2021 6:30:00 PM 22.82 73.076 0.121 7.8 125.66 0.05
8/29/2021 6:45:00 PM 22.82 73.076 0.122 7.81 75.82 0.05
8/29/2021 7:00:00 PM 22.81 73.058 0.122 7.78 184.42 0.05
8/29/2021 7:15:00 PM 22.8 73.04 0.122 7.77 193.8 0.05
8/29/2021 7:30:00 PM 22.79 73.022 0.122 7.79 215.05 0.05
8/29/2021 7:45:00 PM 22.78 73.004 0.122 7.79 119.08 0.05
8/29/2021 8:00:00 PM 22.76 72.968 0.123 7.79 174.93 0.05
8/29/2021 8:15:00 PM 22.75 72.95 0.123 7.78 118.99 0.05
8/29/2021 8:30:00 PM 22.72 72.896 0.123 7.78 354.79 0.05
8/29/2021 8:45:00 PM 22.7 72.86 0.123 7.79 260.38 0.05
8/29/2021 9:00:00 PM 22.67 72.806 0.124 7.78 424.01 0.05
8/29/2021 9:15:00 PM 22.64 72.752 0.123 7.76 457.56 0.05
8/29/2021 9:30:00 PM 22.61 72.698 0.124 7.78 356.09 0.05
8/29/2021 9:45:00 PM 22.57 72.626 0.124 7.77 335.82 0.05
8/29/2021 10:00:00 PM 22.54 72.57201 0.124 7.77 387.16 0.05
8/29/2021 10:15:00 PM 22.5 72.5 0.124 7.76 268.37 0.05
8/29/2021 10:30:00 PM 22.47 72.446 0.124 7.76 362.37 0.05
8/29/2021 10:45:00 PM 22.43 72.374 0.125 7.77 407.03 0.05
8/29/2021 11:00:00 PM 22.4 72.32 0.125 7.76 204.77 0.05
8/29/2021 11:15:00 PM 22.36 72.248 0.125 7.76 225.51 0.05
8/29/2021 11:30:00 PM 22.33 72.194 0.126 7.76 264.37 0.05
8/29/2021 11:45:00 PM 22.3 72.14 0.126 7.76 364.3 0.05
8/30/2021 12:00:00 AM 22.26 72.068 0.126 7.74 237.41 0.05
8/30/2021 12:15:00 AM 22.23 72.014 0.127 7.74 372.15 0.05
8/30/2021 12:30:00 AM 22.2 71.96 0.128 7.75 400.33 0.05
8/30/2021 12:45:00 AM 22.17 71.906 0.129 7.76 500.91 0.05
8/30/2021 1:00:00 AM 22.14 71.852 0.128 7.73 432.01 0.05
8/30/2021 1:15:00 AM 22.11 71.798 0.129 7.75 463.71 0.05
8/30/2021 1:30:00 AM 22.09 71.762 0.128 7.75 454.45 0.05
8/30/2021 1:45:00 AM 22.07 71.726 0.128 7.74 612.71 0.05
8/30/2021 2:00:00 AM 22.05 71.69 0.128 7.73 596.52 0.05
8/30/2021 2:15:00 AM 22.03 71.654 0.128 7.75 512.07 0.05
8/30/2021 2:30:00 AM 22.01 71.618 0.128 7.73 405.58 0.05
8/30/2021 2:45:00 AM 21.99 71.582 0.128 7.73 483.58 0.05
8/30/2021 3:00:00 AM 21.97 71.546 0.128 7.72 691.05 0.05
8/30/2021 3:15:00 AM 21.96 71.528 0.128 7.72 517.51 0.05
8/30/2021 3:30:00 AM 21.94 71.492 0.128 7.72 498.3 0.05
8/30/2021 3:45:00 AM 21.92 71.456 0.129 7.72 553.79 0.05
8/30/2021 4:00:00 AM 21.91 71.438 0.129 7.71 459.98 0.05
8/30/2021 4:15:00 AM 21.9 71.42 0.129 7.69 474.4 0.05
8/30/2021 4:30:00 AM 21.88 71.384 0.13 7.71 585.66 0.05
8/30/2021 4:45:00 AM 21.87 71.366 0.13 7.72 751.1 0.05
8/30/2021 5:00:00 AM 21.86 71.348 0.131 7.68 805.74 0.05
8/30/2021 5:15:00 AM 21.84 71.312 0.131 7.7 610.12 0.05
8/30/2021 5:30:00 AM 21.83 71.294 0.132 7.71 563.2 0.05
8/30/2021 5:45:00 AM 21.81 71.258 0.132 7.69 648.27 0.05
8/30/2021 6:00:00 AM 21.8 71.24 0.132 7.69 636.71 0.05
8/30/2021 6:15:00 AM 21.78 71.204 0.132 7.69 464.96 0.05
8/30/2021 6:30:00 AM 21.77 71.186 0.133 7.7 362.8 0.05
8/30/2021 6:45:00 AM 21.76 71.168 0.133 7.69 429.01 0.05
8/30/2021 7:00:00 AM 21.74 71.132 0.133 7.69 529.15 0.05
8/30/2021 7:15:00 AM 21.73 71.114 0.133 7.69 683.96 0.05
8/30/2021 7:30:00 AM 21.71 71.078 0.133 7.69 404.58 0.05
8/30/2021 7:45:00 AM 21.7 71.06 0.133 7.7 638.59 0.05
8/30/2021 8:00:00 AM 21.69 71.042 0.134 7.71 660.25 0.05
8/30/2021 8:15:00 AM 21.68 71.024 0.133 7.7 503.83 0.05
8/30/2021 8:30:00 AM 21.68 71.024 0.134 7.7 539.09 0.05
8/30/2021 8:45:00 AM 21.67 71.006 0.134 7.71 644.54 0.05
8/30/2021 9:00:00 AM 21.66 70.988 0.134 7.71 264.42 0.05
8/30/2021 9:15:00 AM 21.66 70.988 0.135 7.7 316.64 0.05
8/30/2021 9:30:00 AM 21.66 70.988 0.133 7.69 411.58 0.05
8/30/2021 9:45:00 AM 21.66 70.988 0.134 7.71 284.06 0.05
8/30/2021 10:00:00 AM 21.66 70.988 0.134 7.71 270.87 0.05
8/30/2021 10:15:00 AM 21.66 70.988 0.134 7.7 309.89 0.05
8/30/2021 10:30:00 AM 0 32 0 0 0 0
8/30/2021 10:45:00 AM 0 32 0 0 0 0
8/30/2021 11:00:00 AM 0 32 0 0 0 0
8/30/2021 11:15:00 AM 0 32 0 0 0 0
8/30/2021 11:30:00 AM 0 32 0 0 0 0
8/30/2021 11:45:00 AM 0 32 0 0 0 0
8/30/2021 12:00:00 PM 0 32 0 0 0 0
8/30/2021 12:15:00 PM 0 32 0 0 0 0
8/30/2021 12:30:00 PM 0 32 0 0 0 0
8/30/2021 12:45:00 PM 0 32 0 0 0 0
8/30/2021 1:00:00 PM 0 32 0 0 0 0
8/30/2021 1:15:00 PM 0 32 0 0 0 0
8/30/2021 1:30:00 PM 0 32 0 0 0 0
8/30/2021 1:45:00 PM 0 32 0 0 0 0
8/30/2021 2:00:00 PM 0 32 0 0 0 0
8/30/2021 2:15:00 PM 0 32 0 0 0 0
8/30/2021 2:30:00 PM 0 32 0 0 0 0
8/30/2021 2:45:00 PM 0 32 0 0 0 0
8/30/2021 3:00:00 PM 0 32 0 0 0 0
8/30/2021 3:15:00 PM 0 32 0 0 0 0
8/30/2021 3:30:00 PM 0 32 0 0 0 0
8/30/2021 3:45:00 PM 0 32 0 0 0 0
8/30/2021 4:00:00 PM 0 32 0 0 0 0
8/30/2021 4:15:00 PM 0 32 0 0 0 0
8/30/2021 4:30:00 PM 0 32 0 0 0 0
8/30/2021 4:45:00 PM 0 32 0 0 0 0
8/30/2021 5:00:00 PM 0 32 0 0 0 0
8/30/2021 5:15:00 PM 0 32 0 0 0 0
8/30/2021 5:30:00 PM 0 32 0 0 0 0
8/30/2021 5:45:00 PM 0 32 0 0 0 0
8/30/2021 6:00:00 PM 0 32 0 0 0 0
8/30/2021 6:15:00 PM 0 32 0 0 0 0
8/30/2021 6:30:00 PM 0 32 0 0 0 0
8/30/2021 6:45:00 PM 0 32 0 0 0 0
8/30/2021 7:00:00 PM 0 32 0 0 0 0
8/30/2021 7:15:00 PM 0 32 0 0 0 0
8/30/2021 7:30:00 PM 0 32 0 0 0 0
8/30/2021 7:45:00 PM 0 32 0 0 0 0
8/30/2021 8:00:00 PM 0 32 0 0 0 0
8/30/2021 8:15:00 PM 0 32 0 0 0 0
8/30/2021 8:30:00 PM 0 32 0 0 0 0
8/30/2021 8:45:00 PM 0 32 0 0 0 0
8/30/2021 9:00:00 PM 0 32 0 0 0 0
8/30/2021 9:15:00 PM 0 32 0 0 0 0
8/30/2021 9:30:00 PM 0 32 0 0 0 0
8/30/2021 9:45:00 PM 0 32 0 0 0 0
8/30/2021 10:00:00 PM 0 32 0 0 0 0
8/30/2021 10:15:00 PM 0 32 0 0 0 0
8/30/2021 10:30:00 PM 0 32 0 0 0 0
8/30/2021 10:45:00 PM 0 32 0 0 0 0
8/30/2021 11:00:00 PM 0 32 0 0 0 0
8/30/2021 11:15:00 PM 0 32 0 0 0 0
8/30/2021 11:30:00 PM 0 32 0 0 0 0
8/30/2021 11:45:00 PM 0 32 0 0 0 0
8/31/2021 12:00:00 AM 0 32 0 0 0 0
8/31/2021 12:15:00 AM 0 32 0 0 0 0
8/31/2021 12:30:00 AM 0 32 0 0 0 0
8/31/2021 12:45:00 AM 0 32 0 0 0 0
8/31/2021 1:00:00 AM 0 32 0 0 0 0
8/31/2021 1:15:00 AM 0 32 0 0 0 0
8/31/2021 1:30:00 AM 0 32 0 0 0 0
8/31/2021 1:45:00 AM 0 32 0 0 0 0
8/31/2021 2:00:00 AM 0 32 0 0 0 0
8/31/2021 2:15:00 AM 0 32 0 0 0 0
8/31/2021 2:30:00 AM 0 32 0 0 0 0
8/31/2021 2:45:00 AM 0 32 0 0 0 0
8/31/2021 3:00:00 AM 0 32 0 0 0 0
8/31/2021 3:15:00 AM 0 32 0 0 0 0
8/31/2021 3:30:00 AM 0 32 0 0 0 0
8/31/2021 3:45:00 AM 0 32 0 0 0 0
8/31/2021 4:00:00 AM 0 32 0 0 0 0
8/31/2021 4:15:00 AM 0 32 0 0 0 0
8/31/2021 4:30:00 AM 0 32 0 0 0 0
8/31/2021 4:45:00 AM 0 32 0 0 0 0
8/31/2021 5:00:00 AM 0 32 0 0 0 0
8/31/2021 5:15:00 AM 0 32 0 0 0 0
8/31/2021 5:30:00 AM 0 32 0 0 0 0
8/31/2021 5:45:00 AM 0 32 0 0 0 0
8/31/2021 6:00:00 AM 0 32 0 0 0 0
8/31/2021 6:15:00 AM 0 32 0 0 0 0
8/31/2021 6:30:00 AM 0 32 0 0 0 0
8/31/2021 6:45:00 AM 0 32 0 0 0 0
8/31/2021 7:00:00 AM 0 32 0 0 0 0
8/31/2021 7:15:00 AM 0 32 0 0 0 0
8/31/2021 7:30:00 AM 0 32 0 0 0 0
8/31/2021 7:45:00 AM 0 32 0 0 0 0
8/31/2021 8:00:00 AM 0 32 0 0 0 0
8/31/2021 8:15:00 AM 0 32 0 0 0 0
8/31/2021 8:30:00 AM 0 32 0 0 0 0
8/31/2021 8:45:00 AM 0 32 0 0 0 0
8/31/2021 9:00:00 AM 0 32 0 0 0 0
8/31/2021 9:15:00 AM 0 32 0 0 0 0
8/31/2021 9:30:00 AM 0 32 0 0 0 0
8/31/2021 9:45:00 AM 0 32 0 0 0 0
8/31/2021 10:00:00 AM 0 32 0 0 0 0
8/31/2021 10:15:00 AM 0 32 0 0 0 0
8/31/2021 10:30:00 AM 0 32 0 0 0 0
8/31/2021 10:45:00 AM 0 32 0 0 0 0
8/31/2021 11:00:00 AM 0 32 0 0 0 0
8/31/2021 11:15:00 AM 0 32 0 0 0 0
8/31/2021 11:30:00 AM 0 32 0 0 0 0
8/31/2021 11:45:00 AM 0 32 0 0 0 0
8/31/2021 12:00:00 PM 0 32 0 0 0 0
8/31/2021 12:15:00 PM 0 32 0 0 0 0
8/31/2021 12:30:00 PM 0 32 0 0 0 0
8/31/2021 12:45:00 PM 0 32 0 0 0 0
8/31/2021 1:00:00 PM 0 32 0 0 0 0
8/31/2021 1:15:00 PM 0 32 0 0 0 0
8/31/2021 1:30:00 PM 0 32 0 0 0 0
8/31/2021 1:45:00 PM 0 32 0 0 0 0
8/31/2021 2:00:00 PM 0 32 0 0 0 0
8/31/2021 2:15:00 PM 0 32 0 0 0 0
8/31/2021 2:30:00 PM 0 32 0 0 0 0
8/31/2021 2:45:00 PM 0 32 0 0 0 0
8/31/2021 3:00:00 PM 0 32 0 0 0 0
8/31/2021 3:15:00 PM 0 32 0 0 0 0
8/31/2021 3:30:00 PM 0 32 0 0 0 0
8/31/2021 3:45:00 PM 0 32 0 0 0 0
8/31/2021 4:00:00 PM 0 32 0 0 0 0
8/31/2021 4:15:00 PM 0 32 0 0 0 0
8/31/2021 4:30:00 PM 0 32 0 0 0 0
8/31/2021 4:45:00 PM 0 32 0 0 0 0
8/31/2021 5:00:00 PM 0 32 0 0 0 0
8/31/2021 5:15:00 PM 0 32 0 0 0 0
8/31/2021 5:30:00 PM 0 32 0 0 0 0
8/31/2021 5:45:00 PM 0 32 0 0 0 0
8/31/2021 6:00:00 PM 0 32 0 0 0 0
8/31/2021 6:15:00 PM 0 32 0 0 0 0
8/31/2021 6:30:00 PM 0 32 0 0 0 0
8/31/2021 6:45:00 PM 0 32 0 0 0 0
8/31/2021 7:00:00 PM 0 32 0 0 0 0
8/31/2021 7:15:00 PM 0 32 0 0 0 0
8/31/2021 7:30:00 PM 0 32 0 0 0 0
8/31/2021 7:45:00 PM 0 32 0 0 0 0
8/31/2021 8:00:00 PM 0 32 0 0 0 0
8/31/2021 8:15:00 PM 0 32 0 0 0 0
8/31/2021 8:30:00 PM 0 32 0 0 0 0
8/31/2021 8:45:00 PM 0 32 0 0 0 0
8/31/2021 9:00:00 PM 0 32 0 0 0 0
8/31/2021 9:15:00 PM 0 32 0 0 0 0
8/31/2021 9:30:00 PM 0 32 0 0 0 0
8/31/2021 9:45:00 PM 0 32 0 0 0 0
8/31/2021 10:00:00 PM 0 32 0 0 0 0
8/31/2021 10:15:00 PM 0 32 0 0 0 0
8/31/2021 10:30:00 PM 0 32 0 0 0 0
8/31/2021 10:45:00 PM 0 32 0 0 0 0
8/31/2021 11:00:00 PM 0 32 0 0 0 0
8/31/2021 11:15:00 PM 0 32 0 0 0 0
8/31/2021 11:30:00 PM 0 32 0 0 0 0
8/31/2021 11:45:00 PM 0 32 0 0 0 0
9/1/2021 12:00:00 AM 0 32 0 0 0 0
9/1/2021 12:15:00 AM 0 32 0 0 0 0
9/1/2021 12:30:00 AM 0 32 0 0 0 0
9/1/2021 12:45:00 AM 0 32 0 0 0 0
9/1/2021 1:00:00 AM 0 32 0 0 0 0
9/1/2021 1:15:00 AM 0 32 0 0 0 0
9/1/2021 1:30:00 AM 0 32 0 0 0 0
9/1/2021 1:45:00 AM 0 32 0 0 0 0
9/1/2021 2:00:00 AM 0 32 0 0 0 0
9/1/2021 2:15:00 AM 0 32 0 0 0 0
9/1/2021 2:30:00 AM 0 32 0 0 0 0
9/1/2021 2:45:00 AM 0 32 0 0 0 0
9/1/2021 3:00:00 AM 0 32 0 0 0 0
9/1/2021 3:15:00 AM 0 32 0 0 0 0
9/1/2021 3:30:00 AM 0 32 0 0 0 0
9/1/2021 3:45:00 AM 0 32 0 0 0 0
9/1/2021 4:00:00 AM 0 32 0 0 0 0
9/1/2021 4:15:00 AM 0 32 0 0 0 0
9/1/2021 4:30:00 AM 0 32 0 0 0 0
9/1/2021 4:45:00 AM 0 32 0 0 0 0
9/1/2021 5:00:00 AM 0 32 0 0 0 0
9/1/2021 5:15:00 AM 0 32 0 0 0 0
9/1/2021 5:30:00 AM 0 32 0 0 0 0
9/1/2021 5:45:00 AM 0 32 0 0 0 0
9/1/2021 6:00:00 AM 0 32 0 0 0 0
9/1/2021 6:15:00 AM 0 32 0 0 0 0
9/1/2021 6:30:00 AM 0 32 0 0 0 0
9/1/2021 6:45:00 AM 0 32 0 0 0 0
9/1/2021 7:00:00 AM 0 32 0 0 0 0
9/1/2021 7:15:00 AM 0 32 0 0 0 0
9/1/2021 7:30:00 AM 0 32 0 0 0 0
9/1/2021 7:45:00 AM 0 32 0 0 0 0
9/1/2021 8:00:00 AM 0 32 0 0 0 0
9/1/2021 8:15:00 AM 0 32 0 0 0 0
9/1/2021 8:30:00 AM 0 32 0 0 0 0
9/1/2021 8:45:00 AM 0 32 0 0 0 0
9/1/2021 9:00:00 AM 0 32 0 0 0 0
9/1/2021 9:15:00 AM 0 32 0 0 0 0
9/1/2021 9:30:00 AM 0 32 0 0 0 0
9/1/2021 9:45:00 AM 0 32 0 0 0 0
9/1/2021 10:00:00 AM 0 32 0 0 0 0
9/1/2021 10:15:00 AM 0 32 0 0 0 0
9/1/2021 10:30:00 AM 0 32 0 0 0 0
9/1/2021 10:45:00 AM 0 32 0 0 0 0
9/1/2021 11:00:00 AM 0 32 0 0 0 0
9/1/2021 11:15:00 AM 0 32 0 0 0 0
9/1/2021 11:30:00 AM 0 32 0 0 0 0
9/1/2021 11:45:00 AM 0 32 0 0 0 0
9/1/2021 12:00:00 PM 0 32 0 0 0 0
9/1/2021 12:15:00 PM 0 32 0 0 0 0
9/1/2021 12:30:00 PM 0 32 0 0 0 0
9/1/2021 12:45:00 PM 0 32 0 0 0 0
9/1/2021 1:00:00 PM 0 32 0 0 0 0
9/1/2021 1:15:00 PM 0 32 0 0 0 0
9/1/2021 1:30:00 PM 0 32 0 0 0 0
9/1/2021 1:45:00 PM 0 32 0 0 0 0
9/1/2021 2:00:00 PM 0 32 0 0 0 0
9/1/2021 2:15:00 PM 0 32 0 0 0 0
9/1/2021 2:30:00 PM 0 32 0 0 0 0
9/1/2021 2:45:00 PM 0 32 0 0 0 0
9/1/2021 3:00:00 PM 0 32 0 0 0 0
9/1/2021 3:15:00 PM 0 32 0 0 0 0
9/1/2021 3:30:00 PM 0 32 0 0 0 0
9/1/2021 3:45:00 PM 0 32 0 0 0 0
9/1/2021 4:00:00 PM 0 32 0 0 0 0
9/1/2021 4:15:00 PM 0 32 0 0 0 0
9/1/2021 4:30:00 PM 0 32 0 0 0 0
9/1/2021 4:45:00 PM 0 32 0 0 0 0
9/1/2021 5:00:00 PM 0 32 0 0 0 0
9/1/2021 5:15:00 PM 0 32 0 0 0 0
9/1/2021 5:30:00 PM 0 32 0 0 0 0
9/1/2021 5:45:00 PM 0 32 0 0 0 0
9/1/2021 6:00:00 PM 0 32 0 0 0 0
9/1/2021 6:15:00 PM 0 32 0 0 0 0
9/1/2021 6:30:00 PM 0 32 0 0 0 0
9/1/2021 6:45:00 PM 0 32 0 0 0 0
9/1/2021 7:00:00 PM 0 32 0 0 0 0
9/1/2021 7:15:00 PM 0 32 0 0 0 0
9/1/2021 7:30:00 PM 0 32 0 0 0 0
9/1/2021 7:45:00 PM 0 32 0 0 0 0
9/1/2021 8:00:00 PM 0 32 0 0 0 0
9/1/2021 8:15:00 PM 0 32 0 0 0 0
9/1/2021 8:30:00 PM 0 32 0 0 0 0
9/1/2021 8:45:00 PM 0 32 0 0 0 0
9/1/2021 9:00:00 PM 0 32 0 0 0 0
9/1/2021 9:15:00 PM 0 32 0 0 0 0
9/1/2021 9:30:00 PM 0 32 0 0 0 0
9/1/2021 9:45:00 PM 0 32 0 0 0 0
9/1/2021 10:00:00 PM 0 32 0 0 0 0
9/1/2021 10:15:00 PM 0 32 0 0 0 0
9/1/2021 10:30:00 PM 0 32 0 0 0 0
9/1/2021 10:45:00 PM 0 32 0 0 0 0
9/1/2021 11:00:00 PM 0 32 0 0 0 0
9/1/2021 11:15:00 PM 0 32 0 0 0 0
9/1/2021 11:30:00 PM 0 32 0 0 0 0
9/1/2021 11:45:00 PM 0 32 0 0 0 0
9/2/2021 12:00:00 AM 0 32 0 0 0 0
9/2/2021 12:15:00 AM 0 32 0 0 0 0
9/2/2021 12:30:00 AM 0 32 0 0 0 0
9/2/2021 12:45:00 AM 0 32 0 0 0 0
9/2/2021 1:00:00 AM 0 32 0 0 0 0
9/2/2021 1:15:00 AM 0 32 0 0 0 0
9/2/2021 1:30:00 AM 0 32 0 0 0 0
9/2/2021 1:45:00 AM 0 32 0 0 0 0
9/2/2021 2:00:00 AM 0 32 0 0 0 0
9/2/2021 2:15:00 AM 0 32 0 0 0 0
9/2/2021 2:30:00 AM 0 32 0 0 0 0
9/2/2021 2:45:00 AM 0 32 0 0 0 0
9/2/2021 3:00:00 AM 0 32 0 0 0 0
9/2/2021 3:15:00 AM 0 32 0 0 0 0
9/2/2021 3:30:00 AM 0 32 0 0 0 0
9/2/2021 3:45:00 AM 0 32 0 0 0 0
9/2/2021 4:00:00 AM 0 32 0 0 0 0
9/2/2021 4:15:00 AM 0 32 0 0 0 0
9/2/2021 4:30:00 AM 0 32 0 0 0 0
9/2/2021 4:45:00 AM 0 32 0 0 0 0
9/2/2021 5:00:00 AM 0 32 0 0 0 0
9/2/2021 5:15:00 AM 0 32 0 0 0 0
9/2/2021 5:30:00 AM 0 32 0 0 0 0
9/2/2021 5:45:00 AM 0 32 0 0 0 0
9/2/2021 6:00:00 AM 0 32 0 0 0 0
9/2/2021 6:15:00 AM 0 32 0 0 0 0
9/2/2021 6:30:00 AM 0 32 0 0 0 0
9/2/2021 6:45:00 AM 0 32 0 0 0 0
9/2/2021 7:00:00 AM 0 32 0 0 0 0
9/2/2021 7:15:00 AM 0 32 0 0 0 0
9/2/2021 7:30:00 AM 0 32 0 0 0 0
9/2/2021 7:45:00 AM 0 32 0 0 0 0
9/2/2021 8:00:00 AM 0 32 0 0 0 0
9/2/2021 8:15:00 AM 0 32 0 0 0 0
9/2/2021 8:30:00 AM 0 32 0 0 0 0
9/2/2021 8:45:00 AM 0 32 0 0 0 0
9/2/2021 9:00:00 AM 0 32 0 0 0 0
9/2/2021 9:15:00 AM 0 32 0 0 0 0
9/2/2021 9:30:00 AM 0 32 0 0 0 0
9/2/2021 9:45:00 AM 0 32 0 0 0 0
9/2/2021 10:00:00 AM 0 32 0 0 0 0
9/2/2021 10:15:00 AM 0 32 0 0 0 0
9/2/2021 10:30:00 AM 0 32 0 0 0 0
9/2/2021 10:45:00 AM 0 32 0 0 0 0
9/2/2021 11:00:00 AM 0 32 0 0 0 0
9/2/2021 11:15:00 AM 0 32 0 0 0 0
9/2/2021 11:30:00 AM 0 32 0 0 0 0
9/2/2021 11:45:00 AM 0 32 0 0 0 0
9/2/2021 12:00:00 PM 0 32